Darstellungsparameter: Aktuell verwendete Einstellungen:
Skalierung der Graphiken ... ?
xyx+y,   Skalierungsfaktor:      Skalierung: Modus: x, Faktor: 1
Darstellungszeitraum ... ?
Vom - - bis: - -   Zeitraum: 13.07.2019 - 12.08.2019
Min/Max/Avg-Anzeige ... ?
Zeige MMA aktuell
Zeige MMA Monat
Zeige MMA alles
Zeige --A aktuell
Zeige --A Monat
Zeige --A alles
Keine MMA-Anzeige
MMA:
Minimum Maximum Average (ber die Originaldaten)
MMA-Basis: 23.02.2003 - 16.08.2019
Quicknavigation für Darstellung... ?
Tage:      1T, 2T, 3T, 5T -1T -2T -3T -5T +1T +2T +3T +5T
Wochen: 1W, 2W, 3W -1W -2W -3W +1W +2W +3W
Monate: 1M, 3M, 6M -1M -3M -6M +1M +3M +6M
Jahre:    1J, 3J, 5J, 10J -1J -3J -5J -10J +1J +3J +5J +10J
Nutze für die Darstellung ... ?
Originaldaten oder Mittelwerte auf ...
Stundenbasis Tagesbasis Wochenbasis
Monatsbasis Jahresbasis      Datenbasis: Original-Daten
Darstellen als:
Statistik (Auto) Statistik J:M      Darstellung:
Zur Graphik,    zurück zur Übersicht aller Sensoren.
 
Tabellarische Datenbersicht: ?
 
Sensor: Nr:Datum:Temp:Feuchte:Taupunkt:
Aussen-T/F 1 13-07-2019 00:00:00 16.2 C 89 % 14.39 C
2 13-07-2019 00:05:00 16.2 C 88 % 14.21 C
3 13-07-2019 00:10:00 16.2 C 88 % 14.21 C
4 13-07-2019 00:15:00 16.2 C 87 % 14.03 C
5 13-07-2019 00:20:00 16.3 C 87 % 14.13 C
6 13-07-2019 00:25:00 16.4 C 86 % 14.05 C
7 13-07-2019 00:30:00 16.4 C 86 % 14.05 C
8 13-07-2019 00:35:00 16.6 C 86 % 14.25 C
9 13-07-2019 00:40:00 16.4 C 85 % 13.87 C
10 13-07-2019 00:45:00 16.4 C 86 % 14.05 C
11 13-07-2019 00:50:00 16.4 C 86 % 14.05 C
12 13-07-2019 00:55:00 16.4 C 86 % 14.05 C
13 13-07-2019 01:00:00 16.4 C 86 % 14.05 C
14 13-07-2019 01:05:00 16.5 C 86 % 14.15 C
15 13-07-2019 01:10:00 16.5 C 88 % 14.51 C
16 13-07-2019 01:15:00 16.4 C 88 % 14.41 C
17 13-07-2019 01:20:00 16.3 C 89 % 14.48 C
18 13-07-2019 01:25:00 16.2 C 90 % 14.56 C
19 13-07-2019 01:30:00 16.1 C 91 % 14.63 C
20 13-07-2019 01:35:00 16 C 91 % 14.53 C
21 13-07-2019 01:40:00 15.9 C 92 % 14.6 C
22 13-07-2019 01:45:00 15.8 C 92 % 14.5 C
23 13-07-2019 01:50:00 15.8 C 93 % 14.67 C
24 13-07-2019 01:55:00 15.7 C 93 % 14.57 C
25 13-07-2019 02:00:00 15.7 C 93 % 14.57 C
Sensor: Nr:Datum:Temp:Feuchte:Taupunkt:
Aussen-T/F 26 13-07-2019 02:05:00 15.7 C 93 % 14.57 C
27 13-07-2019 02:10:00 15.6 C 94 % 14.64 C
28 13-07-2019 02:15:00 15.6 C 94 % 14.64 C
29 13-07-2019 02:20:00 15.6 C 94 % 14.64 C
30 13-07-2019 02:25:00 15.6 C 94 % 14.64 C
31 13-07-2019 02:30:00 15.5 C 94 % 14.54 C
32 13-07-2019 02:35:00 15.4 C 94 % 14.44 C
33 13-07-2019 02:40:00 15.4 C 94 % 14.44 C
34 13-07-2019 02:45:00 15.4 C 94 % 14.44 C
35 13-07-2019 02:50:00 15.4 C 95 % 14.6 C
36 13-07-2019 02:55:00 15.3 C 95 % 14.5 C
37 13-07-2019 03:00:00 15.3 C 95 % 14.5 C
38 13-07-2019 03:05:00 15.3 C 94 % 14.34 C
39 13-07-2019 03:10:00 15.3 C 95 % 14.5 C
40 13-07-2019 03:15:00 15.2 C 95 % 14.4 C
41 13-07-2019 03:20:00 15.2 C 95 % 14.4 C
42 13-07-2019 03:25:00 15.2 C 95 % 14.4 C
43 13-07-2019 03:30:00 15.1 C 95 % 14.31 C
44 13-07-2019 03:35:00 15.1 C 95 % 14.31 C
45 13-07-2019 03:40:00 15.1 C 95 % 14.31 C
46 13-07-2019 03:45:00 15.1 C 95 % 14.31 C
47 13-07-2019 03:50:00 15.1 C 95 % 14.31 C
48 13-07-2019 03:55:00 15.1 C 95 % 14.31 C
49 13-07-2019 04:00:00 15.1 C 95 % 14.31 C
50 13-07-2019 04:05:00 15.1 C 95 % 14.31 C
Sensor: Nr:Datum:Temp:Feuchte:Taupunkt:
Aussen-T/F 51 13-07-2019 04:10:00 15.1 C 95 % 14.31 C
52 13-07-2019 04:15:00 15 C 95 % 14.21 C
53 13-07-2019 04:20:00 15 C 95 % 14.21 C
54 13-07-2019 04:25:00 15 C 95 % 14.21 C
55 13-07-2019 04:30:00 15 C 95 % 14.21 C
56 13-07-2019 04:35:00 15 C 95 % 14.21 C
57 13-07-2019 04:40:00 14.9 C 95 % 14.11 C
58 13-07-2019 04:45:00 14.9 C 95 % 14.11 C
59 13-07-2019 04:50:00 14.9 C 95 % 14.11 C
60 13-07-2019 04:55:00 14.9 C 96 % 14.27 C
61 13-07-2019 05:00:00 15 C 96 % 14.37 C
62 13-07-2019 05:05:00 15 C 96 % 14.37 C
63 13-07-2019 05:10:00 14.9 C 96 % 14.27 C
64 13-07-2019 05:15:00 14.9 C 96 % 14.27 C
65 13-07-2019 05:20:00 14.9 C 96 % 14.27 C
66 13-07-2019 05:25:00 14.9 C 96 % 14.27 C
67 13-07-2019 05:30:00 14.9 C 96 % 14.27 C
68 13-07-2019 05:35:00 14.9 C 96 % 14.27 C
69 13-07-2019 05:40:00 14.9 C 96 % 14.27 C
70 13-07-2019 05:45:00 14.9 C 96 % 14.27 C
71 13-07-2019 05:50:00 14.9 C 96 % 14.27 C
72 13-07-2019 05:55:00 14.8 C 96 % 14.17 C
73 13-07-2019 06:00:00 14.8 C 96 % 14.17 C
74 13-07-2019 06:05:00 14.8 C 96 % 14.17 C
75 13-07-2019 06:10:00 14.8 C 96 % 14.17 C
Sensor: Nr:Datum:Temp:Feuchte:Taupunkt:
Aussen-T/F 76 13-07-2019 06:15:00 14.8 C 96 % 14.17 C
77 13-07-2019 06:20:00 14.8 C 96 % 14.17 C
78 13-07-2019 06:25:00 14.8 C 96 % 14.17 C
79 13-07-2019 06:30:00 14.7 C 96 % 14.07 C
80 13-07-2019 06:35:00 14.7 C 96 % 14.07 C
81 13-07-2019 06:40:00 14.7 C 96 % 14.07 C
82 13-07-2019 06:45:00 14.7 C 96 % 14.07 C
83 13-07-2019 06:50:00 14.7 C 96 % 14.07 C
84 13-07-2019 06:55:00 14.7 C 96 % 14.07 C
85 13-07-2019 07:00:00 14.7 C 96 % 14.07 C
86 13-07-2019 07:05:00 14.7 C 96 % 14.07 C
87 13-07-2019 07:10:00 14.7 C 96 % 14.07 C
88 13-07-2019 07:15:00 14.8 C 96 % 14.17 C
89 13-07-2019 07:20:00 14.8 C 96 % 14.17 C
90 13-07-2019 07:25:00 14.8 C 96 % 14.17 C
91 13-07-2019 07:30:00 14.9 C 96 % 14.27 C
92 13-07-2019 07:35:00 14.9 C 96 % 14.27 C
93 13-07-2019 07:40:00 15.1 C 96 % 14.47 C
94 13-07-2019 07:45:00 15.2 C 97 % 14.73 C
95 13-07-2019 07:50:00 15.3 C 97 % 14.83 C
96 13-07-2019 07:55:00 15.3 C 96 % 14.67 C
97 13-07-2019 08:00:00 15.4 C 96 % 14.77 C
98 13-07-2019 08:05:00 15.5 C 97 % 15.03 C
99 13-07-2019 08:10:00 15.6 C 97 % 15.13 C
100 13-07-2019 08:15:00 15.6 C 96 % 14.96 C
Sensor: Nr:Datum:Temp:Feuchte:Taupunkt:
Aussen-T/F 101 13-07-2019 08:20:00 15.4 C 96 % 14.77 C
102 13-07-2019 08:25:00 15.5 C 96 % 14.86 C
103 13-07-2019 08:30:00 15.6 C 96 % 14.96 C
104 13-07-2019 08:35:00 15.7 C 96 % 15.06 C
105 13-07-2019 08:40:00 15.7 C 96 % 15.06 C
106 13-07-2019 08:45:00 15.8 C 96 % 15.16 C
107 13-07-2019 08:50:00 15.8 C 96 % 15.16 C
108 13-07-2019 08:55:00 15.8 C 96 % 15.16 C
109 13-07-2019 09:00:00 15.7 C 96 % 15.06 C
110 13-07-2019 09:05:00 15.7 C 96 % 15.06 C
111 13-07-2019 09:10:00 15.7 C 96 % 15.06 C
112 13-07-2019 09:15:00 15.7 C 96 % 15.06 C
113 13-07-2019 09:20:00 15.8 C 96 % 15.16 C
114 13-07-2019 09:25:00 15.9 C 96 % 15.26 C
115 13-07-2019 09:30:00 16 C 96 % 15.36 C
116 13-07-2019 09:35:00 15.9 C 95 % 15.1 C
117 13-07-2019 09:40:00 15.8 C 95 % 15 C
118 13-07-2019 09:45:00 15.9 C 95 % 15.1 C
119 13-07-2019 09:50:00 15.9 C 95 % 15.1 C
120 13-07-2019 09:55:00 16 C 94 % 15.03 C
121 13-07-2019 10:00:00 16.1 C 93 % 14.97 C
122 13-07-2019 10:05:00 16.1 C 93 % 14.97 C
123 13-07-2019 10:10:00 16.2 C 93 % 15.07 C
124 13-07-2019 10:15:00 16.3 C 92 % 15 C
125 13-07-2019 10:20:00 16.4 C 91 % 14.93 C
Sensor: Nr:Datum:Temp:Feuchte:Taupunkt:
Aussen-T/F 126 13-07-2019 10:25:00 16.6 C 90 % 14.95 C
127 13-07-2019 10:30:00 16.7 C 90 % 15.05 C
128 13-07-2019 10:35:00 16.7 C 89 % 14.88 C
129 13-07-2019 10:40:00 16.8 C 89 % 14.98 C
130 13-07-2019 10:45:00 16.7 C 90 % 15.05 C
131 13-07-2019 10:50:00 16.7 C 91 % 15.22 C
132 13-07-2019 10:55:00 16.7 C 91 % 15.22 C
133 13-07-2019 11:00:00 16.8 C 92 % 15.49 C
134 13-07-2019 11:05:00 17 C 92 % 15.69 C
135 13-07-2019 11:10:00 17 C 90 % 15.35 C
136 13-07-2019 11:15:00 17.1 C 90 % 15.45 C
137 13-07-2019 11:20:00 17.3 C 90 % 15.64 C
138 13-07-2019 11:25:00 17.3 C 88 % 15.29 C
139 13-07-2019 11:30:00 17.5 C 88 % 15.49 C
140 13-07-2019 11:35:00 17.7 C 88 % 15.69 C
141 13-07-2019 11:40:00 17.9 C 87 % 15.71 C
142 13-07-2019 11:45:00 18.1 C 86 % 15.72 C
143 13-07-2019 11:50:00 18.2 C 85 % 15.64 C
144 13-07-2019 11:55:00 18.3 C 84 % 15.55 C
145 13-07-2019 12:00:00 18.4 C 84 % 15.65 C
146 13-07-2019 12:05:00 18.4 C 82 % 15.27 C
147 13-07-2019 12:10:00 18.4 C 82 % 15.27 C
148 13-07-2019 12:15:00 18.4 C 82 % 15.27 C
149 13-07-2019 12:20:00 18.5 C 83 % 15.56 C
150 13-07-2019 12:25:00 18.7 C 81 % 15.37 C
Sensor: Nr:Datum:Temp:Feuchte:Taupunkt:
Aussen-T/F 151 13-07-2019 12:30:00 18.8 C 82 % 15.66 C
152 13-07-2019 12:35:00 18.9 C 81 % 15.57 C
153 13-07-2019 12:40:00 19 C 81 % 15.67 C
154 13-07-2019 12:45:00 19.1 C 80 % 15.57 C
155 13-07-2019 12:50:00 19.2 C 80 % 15.67 C
156 13-07-2019 12:55:00 19.3 C 80 % 15.76 C
157 13-07-2019 13:00:00 19.4 C 78 % 15.47 C
158 13-07-2019 13:05:00 19.4 C 79 % 15.66 C
159 13-07-2019 13:10:00 19.4 C 77 % 15.27 C
160 13-07-2019 13:15:00 19.7 C 78 % 15.76 C
161 13-07-2019 13:20:00 19.9 C 76 % 15.54 C
162 13-07-2019 13:25:00 19.9 C 74 % 15.13 C
163 13-07-2019 13:30:00 19.8 C 76 % 15.45 C
164 13-07-2019 13:35:00 19.7 C 75 % 15.15 C
165 13-07-2019 13:40:00 19.6 C 75 % 15.05 C
166 13-07-2019 13:45:00 19.7 C 76 % 15.35 C
167 13-07-2019 13:50:00 19.9 C 73 % 14.92 C
168 13-07-2019 13:55:00 20.3 C 74 % 15.51 C
169 13-07-2019 14:00:00 20.7 C 71 % 15.25 C
170 13-07-2019 14:05:00 20.7 C 72 % 15.47 C
171 13-07-2019 14:10:00 20.8 C 73 % 15.78 C
172 13-07-2019 14:15:00 20.9 C 69 % 15 C
173 13-07-2019 14:20:00 21.2 C 69 % 15.29 C
174 13-07-2019 14:25:00 21.3 C 68 % 15.16 C
175 13-07-2019 14:30:00 21.4 C 69 % 15.48 C
Sensor: Nr:Datum:Temp:Feuchte:Taupunkt:
Aussen-T/F 176 13-07-2019 14:35:00 21.6 C 66 % 14.98 C
177 13-07-2019 14:40:00 21.7 C 66 % 15.07 C
178 13-07-2019 14:45:00 21.6 C 66 % 14.98 C
179 13-07-2019 14:50:00 21.2 C 70 % 15.51 C
180 13-07-2019 14:55:00 20.7 C 72 % 15.47 C
181 13-07-2019 15:00:00 20.4 C 74 % 15.61 C
182 13-07-2019 15:05:00 20.4 C 75 % 15.82 C
183 13-07-2019 15:10:00 20.6 C 74 % 15.8 C
184 13-07-2019 15:15:00 20.8 C 72 % 15.57 C
185 13-07-2019 15:20:00 20.9 C 71 % 15.45 C
186 13-07-2019 15:25:00 21 C 73 % 15.98 C
187 13-07-2019 15:30:00 21.3 C 73 % 16.26 C
188 13-07-2019 15:35:00 21.6 C 70 % 15.89 C
189 13-07-2019 15:40:00 21.8 C 67 % 15.4 C
190 13-07-2019 15:45:00 22 C 68 % 15.82 C
191 13-07-2019 15:50:00 21.8 C 68 % 15.63 C
192 13-07-2019 15:55:00 21.6 C 68 % 15.44 C
193 13-07-2019 16:00:00 21.5 C 68 % 15.35 C
194 13-07-2019 16:05:00 21.9 C 69 % 15.96 C
195 13-07-2019 16:10:00 21.8 C 66 % 15.17 C
196 13-07-2019 16:15:00 21.3 C 67 % 14.93 C
197 13-07-2019 16:20:00 20.8 C 68 % 14.68 C
198 13-07-2019 16:25:00 20.6 C 69 % 14.71 C
199 13-07-2019 16:30:00 20.7 C 69 % 14.81 C
200 13-07-2019 16:35:00 20.6 C 69 % 14.71 C
Sensor: Nr:Datum:Temp:Feuchte:Taupunkt:
Aussen-T/F 201 13-07-2019 16:40:00 20.4 C 70 % 14.75 C
202 13-07-2019 16:45:00 20.4 C 70 % 14.75 C
203 13-07-2019 16:50:00 20.4 C 71 % 14.97 C
204 13-07-2019 16:55:00 20.5 C 71 % 15.06 C
205 13-07-2019 17:00:00 20.6 C 71 % 15.16 C
206 13-07-2019 17:05:00 20.7 C 69 % 14.81 C
207 13-07-2019 17:10:00 20.8 C 70 % 15.13 C
208 13-07-2019 17:15:00 21 C 69 % 15.1 C
209 13-07-2019 17:20:00 21.1 C 67 % 14.74 C
210 13-07-2019 17:25:00 21.3 C 69 % 15.38 C
211 13-07-2019 17:30:00 21.9 C 69 % 15.96 C
212 13-07-2019 17:35:00 22.5 C 67 % 16.07 C
213 13-07-2019 17:40:00 22.9 C 65 % 15.97 C
214 13-07-2019 17:45:00 23.2 C 64 % 16.01 C
215 13-07-2019 17:50:00 23.2 C 63 % 15.77 C
216 13-07-2019 17:55:00 22.9 C 63 % 15.48 C
217 13-07-2019 18:00:00 22.6 C 64 % 15.45 C
218 13-07-2019 18:05:00 22.2 C 65 % 15.31 C
219 13-07-2019 18:10:00 22.2 C 65 % 15.31 C
220 13-07-2019 18:15:00 22.3 C 65 % 15.4 C
221 13-07-2019 18:20:00 22.4 C 63 % 15.01 C
222 13-07-2019 18:25:00 22.3 C 64 % 15.16 C
223 13-07-2019 18:30:00 22.2 C 65 % 15.31 C
224 13-07-2019 18:35:00 22.2 C 64 % 15.07 C
225 13-07-2019 18:40:00 22.2 C 64 % 15.07 C
Sensor: Nr:Datum:Temp:Feuchte:Taupunkt:
Aussen-T/F 226 13-07-2019 18:45:00 22.3 C 65 % 15.4 C
227 13-07-2019 18:50:00 22.7 C 64 % 15.54 C
228 13-07-2019 18:55:00 23 C 63 % 15.58 C
229 13-07-2019 19:00:00 23.2 C 63 % 15.77 C
230 13-07-2019 19:05:00 23.3 C 61 % 15.36 C
231 13-07-2019 19:10:00 23.2 C 62 % 15.52 C
232 13-07-2019 19:15:00 23.1 C 63 % 15.67 C
233 13-07-2019 19:20:00 23 C 62 % 15.33 C
234 13-07-2019 19:25:00 22.9 C 63 % 15.48 C
235 13-07-2019 19:30:00 22.8 C 63 % 15.39 C
236 13-07-2019 19:35:00 22.6 C 62 % 14.95 C
237 13-07-2019 19:40:00 22.4 C 63 % 15.01 C
238 13-07-2019 19:45:00 22.3 C 64 % 15.16 C
239 13-07-2019 19:50:00 22 C 65 % 15.12 C
240 13-07-2019 19:55:00 21.7 C 65 % 14.84 C
241 13-07-2019 20:00:00 21.3 C 67 % 14.93 C
242 13-07-2019 20:05:00 21.1 C 68 % 14.97 C
243 13-07-2019 20:10:00 20.8 C 69 % 14.91 C
244 13-07-2019 20:15:00 20.7 C 69 % 14.81 C
245 13-07-2019 20:20:00 20.6 C 70 % 14.94 C
246 13-07-2019 20:25:00 20.4 C 70 % 14.75 C
247 13-07-2019 20:30:00 20.4 C 71 % 14.97 C
248 13-07-2019 20:35:00 20.3 C 72 % 15.09 C
249 13-07-2019 20:40:00 20.2 C 71 % 14.78 C
250 13-07-2019 20:45:00 20 C 71 % 14.58 C
Sensor: Nr:Datum:Temp:Feuchte:Taupunkt:
Aussen-T/F 251 13-07-2019 20:50:00 19.9 C 72 % 14.7 C
252 13-07-2019 20:55:00 19.8 C 72 % 14.61 C
253 13-07-2019 21:00:00 19.7 C 72 % 14.51 C
254 13-07-2019 21:05:00 19.6 C 73 % 14.63 C
255 13-07-2019 21:10:00 19.6 C 75 % 15.05 C
256 13-07-2019 21:15:00 19.5 C 76 % 15.16 C
257 13-07-2019 21:20:00 19.4 C 78 % 15.47 C
258 13-07-2019 21:25:00 19.3 C 79 % 15.57 C
259 13-07-2019 21:30:00 19.1 C 78 % 15.18 C
260 13-07-2019 21:35:00 18.9 C 79 % 15.18 C
261 13-07-2019 21:40:00 18.9 C 79 % 15.18 C
262 13-07-2019 21:45:00 18.8 C 79 % 15.08 C
263 13-07-2019 21:50:00 18.8 C 79 % 15.08 C
264 13-07-2019 21:55:00 18.8 C 80 % 15.28 C
265 13-07-2019 22:00:00 18.8 C 80 % 15.28 C
266 13-07-2019 22:05:00 18.8 C 81 % 15.47 C
267 13-07-2019 22:10:00 18.7 C 82 % 15.57 C
268 13-07-2019 22:15:00 18.6 C 84 % 15.84 C
269 13-07-2019 22:20:00 18.5 C 85 % 15.93 C
270 13-07-2019 22:25:00 18.3 C 86 % 15.92 C
271 13-07-2019 22:30:00 18.2 C 86 % 15.82 C
272 13-07-2019 22:35:00 18 C 87 % 15.8 C
273 13-07-2019 22:40:00 17.8 C 87 % 15.61 C
274 13-07-2019 22:45:00 17.7 C 87 % 15.51 C
275 13-07-2019 22:50:00 17.7 C 88 % 15.69 C
Sensor: Nr:Datum:Temp:Feuchte:Taupunkt:
Aussen-T/F 276 13-07-2019 22:55:00 17.6 C 88 % 15.59 C
277 13-07-2019 23:00:00 17.4 C 88 % 15.39 C
278 13-07-2019 23:05:00 17.4 C 89 % 15.57 C
279 13-07-2019 23:10:00 17.3 C 89 % 15.47 C
280 13-07-2019 23:15:00 17.3 C 89 % 15.47 C
281 13-07-2019 23:20:00 17.3 C 90 % 15.64 C
282 13-07-2019 23:25:00 17.2 C 90 % 15.55 C
283 13-07-2019 23:30:00 17.2 C 90 % 15.55 C
284 13-07-2019 23:35:00 17.2 C 90 % 15.55 C
285 13-07-2019 23:40:00 17.1 C 90 % 15.45 C
286 13-07-2019 23:45:00 17.1 C 90 % 15.45 C
287 13-07-2019 23:50:00 17.1 C 90 % 15.45 C
288 13-07-2019 23:55:00 17 C 90 % 15.35 C
289 14-07-2019 00:00:00 16.9 C 90 % 15.25 C
290 14-07-2019 00:05:00 16.9 C 90 % 15.25 C
291 14-07-2019 00:10:00 16.9 C 90 % 15.25 C
292 14-07-2019 00:15:00 16.9 C 90 % 15.25 C
293 14-07-2019 00:20:00 16.9 C 89 % 15.08 C
294 14-07-2019 00:25:00 16.9 C 89 % 15.08 C
295 14-07-2019 00:30:00 17 C 90 % 15.35 C
296 14-07-2019 00:35:00 17 C 90 % 15.35 C
297 14-07-2019 00:40:00 17 C 90 % 15.35 C
298 14-07-2019 00:45:00 17 C 89 % 15.17 C
299 14-07-2019 00:50:00 17 C 90 % 15.35 C
300 14-07-2019 00:55:00 17 C 90 % 15.35 C
Sensor: Nr:Datum:Temp:Feuchte:Taupunkt:
Aussen-T/F 301 14-07-2019 01:00:00 16.9 C 90 % 15.25 C
302 14-07-2019 01:05:00 16.9 C 89 % 15.08 C
303 14-07-2019 01:10:00 16.9 C 89 % 15.08 C
304 14-07-2019 01:15:00 17 C 89 % 15.17 C
305 14-07-2019 01:20:00 17 C 89 % 15.17 C
306 14-07-2019 01:25:00 17 C 89 % 15.17 C
307 14-07-2019 01:30:00 17 C 88 % 15 C
308 14-07-2019 01:35:00 17.1 C 88 % 15.1 C
309 14-07-2019 01:40:00 17 C 88 % 15 C
310 14-07-2019 01:45:00 17 C 88 % 15 C
311 14-07-2019 01:50:00 17 C 88 % 15 C
312 14-07-2019 01:55:00 16.9 C 88 % 14.9 C
313 14-07-2019 02:00:00 16.9 C 88 % 14.9 C
314 14-07-2019 02:05:00 16.8 C 89 % 14.98 C
315 14-07-2019 02:10:00 16.7 C 89 % 14.88 C
316 14-07-2019 02:15:00 16.6 C 89 % 14.78 C
317 14-07-2019 02:20:00 16.5 C 89 % 14.68 C
318 14-07-2019 02:25:00 16.4 C 89 % 14.58 C
319 14-07-2019 02:30:00 16.3 C 90 % 14.66 C
320 14-07-2019 02:35:00 16.2 C 90 % 14.56 C
321 14-07-2019 02:40:00 16.1 C 90 % 14.46 C
322 14-07-2019 02:45:00 16.1 C 91 % 14.63 C
323 14-07-2019 02:50:00 15.9 C 91 % 14.43 C
324 14-07-2019 02:55:00 15.8 C 91 % 14.33 C
325 14-07-2019 03:00:00 15.8 C 91 % 14.33 C
Sensor: Nr:Datum:Temp:Feuchte:Taupunkt:
Aussen-T/F 326 14-07-2019 03:05:00 15.7 C 91 % 14.24 C
327 14-07-2019 03:10:00 15.7 C 91 % 14.24 C
328 14-07-2019 03:15:00 15.7 C 91 % 14.24 C
329 14-07-2019 03:20:00 15.5 C 91 % 14.04 C
330 14-07-2019 03:25:00 15.4 C 91 % 13.94 C
331 14-07-2019 03:30:00 15.3 C 90 % 13.67 C
332 14-07-2019 03:35:00 15.3 C 91 % 13.84 C
333 14-07-2019 03:40:00 15.3 C 91 % 13.84 C
334 14-07-2019 03:45:00 15.2 C 91 % 13.74 C
335 14-07-2019 03:50:00 15.2 C 91 % 13.74 C
336 14-07-2019 03:55:00 15.2 C 91 % 13.74 C
337 14-07-2019 04:00:00 15.2 C 91 % 13.74 C
338 14-07-2019 04:05:00 15.2 C 91 % 13.74 C
339 14-07-2019 04:10:00 15.1 C 91 % 13.64 C
340 14-07-2019 04:15:00 15.1 C 91 % 13.64 C
341 14-07-2019 04:20:00 15.1 C 91 % 13.64 C
342 14-07-2019 04:25:00 15.1 C 91 % 13.64 C
343 14-07-2019 04:30:00 15.1 C 91 % 13.64 C
344 14-07-2019 04:35:00 15.1 C 91 % 13.64 C
345 14-07-2019 04:40:00 15.1 C 91 % 13.64 C
346 14-07-2019 04:45:00 15.1 C 91 % 13.64 C
347 14-07-2019 04:50:00 15.1 C 90 % 13.47 C
348 14-07-2019 04:55:00 15.1 C 91 % 13.64 C
349 14-07-2019 05:00:00 15 C 90 % 13.37 C
350 14-07-2019 05:05:00 15 C 90 % 13.37 C
Sensor: Nr:Datum:Temp:Feuchte:Taupunkt:
Aussen-T/F 351 14-07-2019 05:10:00 14.9 C 90 % 13.28 C
352 14-07-2019 05:15:00 14.9 C 90 % 13.28 C
353 14-07-2019 05:20:00 14.9 C 90 % 13.28 C
354 14-07-2019 05:25:00 14.9 C 90 % 13.28 C
355 14-07-2019 05:30:00 14.8 C 90 % 13.18 C
356 14-07-2019 05:35:00 14.8 C 90 % 13.18 C
357 14-07-2019 05:40:00 14.8 C 90 % 13.18 C
358 14-07-2019 05:45:00 14.8 C 91 % 13.35 C
359 14-07-2019 05:50:00 14.7 C 91 % 13.25 C
360 14-07-2019 05:55:00 14.7 C 91 % 13.25 C
361 14-07-2019 06:00:00 14.7 C 91 % 13.25 C
362 14-07-2019 06:05:00 14.7 C 91 % 13.25 C
363 14-07-2019 06:10:00 14.7 C 91 % 13.25 C
364 14-07-2019 06:15:00 14.7 C 91 % 13.25 C
365 14-07-2019 06:20:00 14.7 C 91 % 13.25 C
366 14-07-2019 06:25:00 14.7 C 91 % 13.25 C
367 14-07-2019 06:30:00 14.7 C 91 % 13.25 C
368 14-07-2019 06:35:00 14.8 C 91 % 13.35 C
369 14-07-2019 06:40:00 14.8 C 91 % 13.35 C
370 14-07-2019 06:45:00 14.7 C 91 % 13.25 C
371 14-07-2019 06:50:00 14.7 C 91 % 13.25 C
372 14-07-2019 06:55:00 14.7 C 90 % 13.08 C
373 14-07-2019 07:00:00 14.7 C 88 % 12.73 C
374 14-07-2019 07:05:00 14.7 C 88 % 12.73 C
375 14-07-2019 07:10:00 14.7 C 88 % 12.73 C
Sensor: Nr:Datum:Temp:Feuchte:Taupunkt:
Aussen-T/F 376 14-07-2019 07:15:00 14.8 C 88 % 12.83 C
377 14-07-2019 07:20:00 14.8 C 88 % 12.83 C
378 14-07-2019 07:25:00 14.8 C 87 % 12.66 C
379 14-07-2019 07:30:00 14.9 C 87 % 12.76 C
380 14-07-2019 07:35:00 14.9 C 86 % 12.58 C
381 14-07-2019 07:40:00 14.9 C 85 % 12.4 C
382 14-07-2019 07:45:00 15 C 86 % 12.68 C
383 14-07-2019 07:50:00 15.1 C 86 % 12.78 C
384 14-07-2019 07:55:00 15.1 C 85 % 12.6 C
385 14-07-2019 08:00:00 15.2 C 85 % 12.7 C
386 14-07-2019 08:05:00 15.2 C 86 % 12.88 C
387 14-07-2019 08:10:00 15.3 C 85 % 12.79 C
388 14-07-2019 08:15:00 15.3 C 85 % 12.79 C
389 14-07-2019 08:20:00 15.4 C 86 % 13.07 C
390 14-07-2019 08:25:00 15.4 C 85 % 12.89 C
391 14-07-2019 08:30:00 15.4 C 85 % 12.89 C
392 14-07-2019 08:35:00 15.4 C 85 % 12.89 C
393 14-07-2019 08:40:00 15.5 C 85 % 12.99 C
394 14-07-2019 08:45:00 15.6 C 86 % 13.27 C
395 14-07-2019 08:50:00 15.6 C 86 % 13.27 C
396 14-07-2019 08:55:00 15.6 C 85 % 13.09 C
397 14-07-2019 09:00:00 15.6 C 85 % 13.09 C
398 14-07-2019 09:05:00 15.4 C 85 % 12.89 C
399 14-07-2019 09:10:00 15.3 C 85 % 12.79 C
400 14-07-2019 09:15:00 15.3 C 84 % 12.61 C
Sensor: Nr:Datum:Temp:Feuchte:Taupunkt:
Aussen-T/F 401 14-07-2019 09:20:00 15.2 C 84 % 12.52 C
402 14-07-2019 09:25:00 15.1 C 84 % 12.42 C
403 14-07-2019 09:30:00 15.1 C 84 % 12.42 C
404 14-07-2019 09:35:00 15.1 C 85 % 12.6 C
405 14-07-2019 09:40:00 15.2 C 84 % 12.52 C
406 14-07-2019 09:45:00 15.2 C 84 % 12.52 C
407 14-07-2019 09:50:00 15.3 C 83 % 12.43 C
408 14-07-2019 09:55:00 15.4 C 83 % 12.53 C
409 14-07-2019 10:00:00 15.6 C 82 % 12.54 C
410 14-07-2019 10:05:00 15.6 C 81 % 12.35 C
411 14-07-2019 10:10:00 15.8 C 80 % 12.36 C
412 14-07-2019 10:15:00 15.9 C 79 % 12.27 C
413 14-07-2019 10:20:00 15.9 C 77 % 11.88 C
414 14-07-2019 10:25:00 16 C 77 % 11.97 C
415 14-07-2019 10:30:00 16.1 C 77 % 12.07 C
416 14-07-2019 10:35:00 16.1 C 77 % 12.07 C
417 14-07-2019 10:40:00 16.2 C 76 % 11.97 C
418 14-07-2019 10:45:00 16.2 C 76 % 11.97 C
419 14-07-2019 10:50:00 16.3 C 76 % 12.07 C
420 14-07-2019 10:55:00 16.4 C 75 % 11.96 C
421 14-07-2019 11:00:00 16.4 C 75 % 11.96 C
422 14-07-2019 11:05:00 16.4 C 74 % 11.76 C
423 14-07-2019 11:10:00 16.6 C 74 % 11.95 C
424 14-07-2019 11:15:00 16.6 C 73 % 11.74 C
425 14-07-2019 11:20:00 16.6 C 74 % 11.95 C
Sensor: Nr:Datum:Temp:Feuchte:Taupunkt:
Aussen-T/F 426 14-07-2019 11:25:00 16.7 C 74 % 12.05 C
427 14-07-2019 11:30:00 16.8 C 73 % 11.94 C
428 14-07-2019 11:35:00 17.1 C 74 % 12.43 C
429 14-07-2019 11:40:00 17.2 C 72 % 12.11 C
430 14-07-2019 11:45:00 17.2 C 72 % 12.11 C
431 14-07-2019 11:50:00 17.2 C 72 % 12.11 C
432 14-07-2019 11:55:00 17.2 C 71 % 11.9 C
433 14-07-2019 12:00:00 17.2 C 71 % 11.9 C
434 14-07-2019 12:05:00 17.2 C 71 % 11.9 C
435 14-07-2019 12:10:00 17.3 C 70 % 11.78 C
436 14-07-2019 12:15:00 17.4 C 70 % 11.88 C
437 14-07-2019 12:20:00 17.5 C 70 % 11.97 C
438 14-07-2019 12:25:00 17.5 C 70 % 11.97 C
439 14-07-2019 12:30:00 17.6 C 70 % 12.07 C
440 14-07-2019 12:35:00 17.7 C 70 % 12.16 C
441 14-07-2019 12:40:00 17.7 C 68 % 11.72 C
442 14-07-2019 12:45:00 17.7 C 67 % 11.5 C
443 14-07-2019 12:50:00 17.8 C 68 % 11.82 C
444 14-07-2019 12:55:00 17.8 C 68 % 11.82 C
445 14-07-2019 13:00:00 17.8 C 68 % 11.82 C
446 14-07-2019 13:05:00 17.7 C 67 % 11.5 C
447 14-07-2019 13:10:00 17.7 C 67 % 11.5 C
448 14-07-2019 13:15:00 17.7 C 67 % 11.5 C
449 14-07-2019 13:20:00 17.7 C 67 % 11.5 C
450 14-07-2019 13:25:00 17.7 C 67 % 11.5 C
Sensor: Nr:Datum:Temp:Feuchte:Taupunkt:
Aussen-T/F 451 14-07-2019 13:30:00 17.7 C 66 % 11.27 C
452 14-07-2019 13:35:00 17.8 C 67 % 11.6 C
453 14-07-2019 13:40:00 17.9 C 67 % 11.69 C
454 14-07-2019 13:45:00 17.9 C 66 % 11.46 C
455 14-07-2019 13:50:00 18 C 67 % 11.79 C
456 14-07-2019 13:55:00 18.1 C 66 % 11.65 C
457 14-07-2019 14:00:00 18.2 C 66 % 11.75 C
458 14-07-2019 14:05:00 18.1 C 65 % 11.42 C
459 14-07-2019 14:10:00 18.1 C 64 % 11.19 C
460 14-07-2019 14:15:00 18 C 65 % 11.33 C
461 14-07-2019 14:20:00 18 C 65 % 11.33 C
462 14-07-2019 14:25:00 18.2 C 65 % 11.52 C
463 14-07-2019 14:30:00 18.2 C 64 % 11.28 C
464 14-07-2019 14:35:00 18.2 C 64 % 11.28 C
465 14-07-2019 14:40:00 18.3 C 64 % 11.38 C
466 14-07-2019 14:45:00 18.3 C 63 % 11.14 C
467 14-07-2019 14:50:00 18.3 C 63 % 11.14 C
468 14-07-2019 14:55:00 18.4 C 64 % 11.47 C
469 14-07-2019 15:00:00 18.5 C 63 % 11.33 C
470 14-07-2019 15:05:00 18.6 C 62 % 11.18 C
471 14-07-2019 15:10:00 18.5 C 63 % 11.33 C
472 14-07-2019 15:15:00 18.6 C 63 % 11.42 C
473 14-07-2019 15:20:00 18.7 C 61 % 11.03 C
474 14-07-2019 15:25:00 18.9 C 61 % 11.22 C
475 14-07-2019 15:30:00 19 C 60 % 11.07 C
Sensor: Nr:Datum:Temp:Feuchte:Taupunkt:
Aussen-T/F 476 14-07-2019 15:35:00 19 C 61 % 11.31 C
477 14-07-2019 15:40:00 19 C 60 % 11.07 C
478 14-07-2019 15:45:00 19.2 C 60 % 11.25 C
479 14-07-2019 15:50:00 19.4 C 61 % 11.69 C
480 14-07-2019 15:55:00 19.7 C 58 % 11.21 C
481 14-07-2019 16:00:00 19.5 C 59 % 11.28 C
482 14-07-2019 16:05:00 19.2 C 59 % 11 C
483 14-07-2019 16:10:00 19.2 C 59 % 11 C
484 14-07-2019 16:15:00 19.2 C 59 % 11 C
485 14-07-2019 16:20:00 19.2 C 60 % 11.25 C
486 14-07-2019 16:25:00 19.4 C 58 % 10.93 C
487 14-07-2019 16:30:00 19.3 C 58 % 10.84 C
488 14-07-2019 16:35:00 19.4 C 58 % 10.93 C
489 14-07-2019 16:40:00 19.4 C 59 % 11.19 C
490 14-07-2019 16:45:00 19.4 C 59 % 11.19 C
491 14-07-2019 16:50:00 19.4 C 59 % 11.19 C
492 14-07-2019 16:55:00 19.4 C 59 % 11.19 C
493 14-07-2019 17:00:00 19.5 C 59 % 11.28 C
494 14-07-2019 17:05:00 19.7 C 59 % 11.47 C
495 14-07-2019 17:10:00 19.6 C 57 % 10.86 C
496 14-07-2019 17:15:00 19.4 C 58 % 10.93 C
497 14-07-2019 17:20:00 19.4 C 59 % 11.19 C
498 14-07-2019 17:25:00 19.3 C 59 % 11.09 C
499 14-07-2019 17:30:00 19.3 C 58 % 10.84 C
500 14-07-2019 17:35:00 19.2 C 59 % 11 C
Sensor: Nr:Datum:Temp:Feuchte:Taupunkt:
Aussen-T/F 501 14-07-2019 17:40:00 19.2 C 60 % 11.25 C
502 14-07-2019 17:45:00 19.2 C 58 % 10.74 C
503 14-07-2019 17:50:00 19.2 C 58 % 10.74 C
504 14-07-2019 17:55:00 19.1 C 59 % 10.91 C
505 14-07-2019 18:00:00 19.1 C 59 % 10.91 C
506 14-07-2019 18:05:00 19 C 61 % 11.31 C
507 14-07-2019 18:10:00 18.8 C 61 % 11.13 C
508 14-07-2019 18:15:00 18.7 C 63 % 11.52 C
509 14-07-2019 18:20:00 18.6 C 63 % 11.42 C
510 14-07-2019 18:25:00 18.6 C 62 % 11.18 C
511 14-07-2019 18:30:00 18.6 C 63 % 11.42 C
512 14-07-2019 18:35:00 18.6 C 61 % 10.94 C
513 14-07-2019 18:40:00 18.5 C 62 % 11.09 C
514 14-07-2019 18:45:00 18.5 C 61 % 10.84 C
515 14-07-2019 18:50:00 18.4 C 63 % 11.23 C
516 14-07-2019 18:55:00 18.5 C 63 % 11.33 C
517 14-07-2019 19:00:00 18.4 C 63 % 11.23 C
518 14-07-2019 19:05:00 18.5 C 61 % 10.84 C
519 14-07-2019 19:10:00 18.4 C 61 % 10.75 C
520 14-07-2019 19:15:00 18.4 C 60 % 10.5 C
521 14-07-2019 19:20:00 18.4 C 61 % 10.75 C
522 14-07-2019 19:25:00 18.4 C 61 % 10.75 C
523 14-07-2019 19:30:00 18.4 C 62 % 10.99 C
524 14-07-2019 19:35:00 18.4 C 62 % 10.99 C
525 14-07-2019 19:40:00 18.3 C 63 % 11.14 C
Sensor: Nr:Datum:Temp:Feuchte:Taupunkt:
Aussen-T/F 526 14-07-2019 19:45:00 18.3 C 63 % 11.14 C
527 14-07-2019 19:50:00 18.3 C 63 % 11.14 C
528 14-07-2019 19:55:00 18.2 C 64 % 11.28 C
529 14-07-2019 20:00:00 18.2 C 65 % 11.52 C
530 14-07-2019 20:05:00 18.1 C 65 % 11.42 C
531 14-07-2019 20:10:00 18.1 C 65 % 11.42 C
532 14-07-2019 20:15:00 18 C 65 % 11.33 C
533 14-07-2019 20:20:00 17.9 C 66 % 11.46 C
534 14-07-2019 20:25:00 17.9 C 65 % 11.23 C
535 14-07-2019 20:30:00 17.8 C 66 % 11.37 C
536 14-07-2019 20:35:00 17.8 C 67 % 11.6 C
537 14-07-2019 20:40:00 17.8 C 67 % 11.6 C
538 14-07-2019 20:45:00 17.7 C 67 % 11.5 C
539 14-07-2019 20:50:00 17.7 C 67 % 11.5 C
540 14-07-2019 20:55:00 17.7 C 67 % 11.5 C
541 14-07-2019 21:00:00 17.6 C 67 % 11.4 C
542 14-07-2019 21:05:00 17.6 C 67 % 11.4 C
543 14-07-2019 21:10:00 17.6 C 67 % 11.4 C
544 14-07-2019 21:15:00 17.5 C 66 % 11.08 C
545 14-07-2019 21:20:00 17.5 C 67 % 11.31 C
546 14-07-2019 21:25:00 17.5 C 67 % 11.31 C
547 14-07-2019 21:30:00 17.4 C 68 % 11.44 C
548 14-07-2019 21:35:00 17.4 C 68 % 11.44 C
549 14-07-2019 21:40:00 17.4 C 68 % 11.44 C
550 14-07-2019 21:45:00 17.3 C 68 % 11.34 C
Sensor: Nr:Datum:Temp:Feuchte:Taupunkt:
Aussen-T/F 551 14-07-2019 21:50:00 17.3 C 68 % 11.34 C
552 14-07-2019 21:55:00 17.3 C 68 % 11.34 C
553 14-07-2019 22:00:00 17.2 C 69 % 11.47 C
554 14-07-2019 22:05:00 17.2 C 71 % 11.9 C
555 14-07-2019 22:10:00 17.2 C 68 % 11.25 C
556 14-07-2019 22:15:00 17.1 C 67 % 10.93 C
557 14-07-2019 22:20:00 17.1 C 67 % 10.93 C
558 14-07-2019 22:25:00 17.1 C 68 % 11.15 C
559 14-07-2019 22:30:00 17.1 C 67 % 10.93 C
560 14-07-2019 22:35:00 17.2 C 67 % 11.02 C
561 14-07-2019 22:40:00 17.1 C 67 % 10.93 C
562 14-07-2019 22:45:00 17.1 C 68 % 11.15 C
563 14-07-2019 22:50:00 17.1 C 69 % 11.37 C
564 14-07-2019 22:55:00 17 C 69 % 11.28 C
565 14-07-2019 23:00:00 16.9 C 69 % 11.18 C
566 14-07-2019 23:05:00 16.9 C 69 % 11.18 C
567 14-07-2019 23:10:00 16.9 C 70 % 11.4 C
568 14-07-2019 23:15:00 16.8 C 70 % 11.3 C
569 14-07-2019 23:20:00 16.8 C 69 % 11.09 C
570 14-07-2019 23:25:00 16.8 C 70 % 11.3 C
571 14-07-2019 23:30:00 16.8 C 70 % 11.3 C
572 14-07-2019 23:35:00 16.8 C 71 % 11.52 C
573 14-07-2019 23:40:00 16.8 C 73 % 11.94 C
574 14-07-2019 23:45:00 16.8 C 74 % 12.14 C
575 14-07-2019 23:50:00 16.7 C 74 % 12.05 C
Sensor: Nr:Datum:Temp:Feuchte:Taupunkt:
Aussen-T/F 576 14-07-2019 23:55:00 16.6 C 74 % 11.95 C
577 15-07-2019 00:00:00 16.4 C 76 % 12.16 C
578 15-07-2019 00:05:00 16.3 C 74 % 11.66 C
579 15-07-2019 00:10:00 16.3 C 76 % 12.07 C
580 15-07-2019 00:15:00 16.2 C 74 % 11.56 C
581 15-07-2019 00:20:00 16.2 C 75 % 11.77 C
582 15-07-2019 00:25:00 16.2 C 77 % 12.17 C
583 15-07-2019 00:30:00 16.1 C 77 % 12.07 C
584 15-07-2019 00:35:00 16 C 78 % 12.17 C
585 15-07-2019 00:40:00 15.9 C 78 % 12.07 C
586 15-07-2019 00:45:00 15.8 C 78 % 11.97 C
587 15-07-2019 00:50:00 15.7 C 79 % 12.07 C
588 15-07-2019 00:55:00 15.7 C 79 % 12.07 C
589 15-07-2019 01:00:00 15.6 C 80 % 12.16 C
590 15-07-2019 01:05:00 15.5 C 80 % 12.07 C
591 15-07-2019 01:10:00 15.4 C 80 % 11.97 C
592 15-07-2019 01:15:00 15.4 C 81 % 12.16 C
593 15-07-2019 01:20:00 15.4 C 81 % 12.16 C
594 15-07-2019 01:25:00 15.4 C 79 % 11.78 C
595 15-07-2019 01:30:00 15.6 C 78 % 11.78 C
596 15-07-2019 01:35:00 15.8 C 77 % 11.78 C
597 15-07-2019 01:40:00 15.8 C 77 % 11.78 C
598 15-07-2019 01:45:00 15.9 C 78 % 12.07 C
599 15-07-2019 01:50:00 15.9 C 77 % 11.88 C
600 15-07-2019 01:55:00 15.9 C 77 % 11.88 C
Sensor: Nr:Datum:Temp:Feuchte:Taupunkt:
Aussen-T/F 601 15-07-2019 02:00:00 15.8 C 77 % 11.78 C
602 15-07-2019 02:05:00 15.8 C 78 % 11.97 C
603 15-07-2019 02:10:00 15.8 C 79 % 12.17 C
604 15-07-2019 02:15:00 15.8 C 80 % 12.36 C
605 15-07-2019 02:20:00 15.7 C 80 % 12.26 C
606 15-07-2019 02:25:00 15.7 C 81 % 12.45 C
607 15-07-2019 02:30:00 15.6 C 81 % 12.35 C
608 15-07-2019 02:35:00 15.4 C 81 % 12.16 C
609 15-07-2019 02:40:00 15.4 C 81 % 12.16 C
610 15-07-2019 02:45:00 15.3 C 82 % 12.25 C
611 15-07-2019 02:50:00 15.2 C 82 % 12.15 C
612 15-07-2019 02:55:00 15.2 C 82 % 12.15 C
613 15-07-2019 03:00:00 15.2 C 83 % 12.33 C
614 15-07-2019 03:05:00 15.1 C 83 % 12.24 C
615 15-07-2019 03:10:00 15.1 C 83 % 12.24 C
616 15-07-2019 03:15:00 15.1 C 83 % 12.24 C
617 15-07-2019 03:20:00 15 C 84 % 12.32 C
618 15-07-2019 03:25:00 15 C 83 % 12.14 C
619 15-07-2019 03:30:00 14.9 C 84 % 12.22 C
620 15-07-2019 03:35:00 14.9 C 84 % 12.22 C
621 15-07-2019 03:40:00 14.9 C 84 % 12.22 C
622 15-07-2019 03:45:00 14.9 C 83 % 12.04 C
623 15-07-2019 03:50:00 14.9 C 84 % 12.22 C
624 15-07-2019 03:55:00 14.9 C 84 % 12.22 C
625 15-07-2019 04:00:00 14.8 C 82 % 11.76 C
Sensor: Nr:Datum:Temp:Feuchte:Taupunkt:
Aussen-T/F 626 15-07-2019 04:05:00 14.8 C 80 % 11.39 C
627 15-07-2019 04:10:00 14.9 C 78 % 11.1 C
628 15-07-2019 04:15:00 15.2 C 77 % 11.2 C
629 15-07-2019 04:20:00 15.3 C 78 % 11.49 C
630 15-07-2019 04:25:00 15.4 C 78 % 11.59 C
631 15-07-2019 04:30:00 15.5 C 78 % 11.68 C
632 15-07-2019 04:35:00 15.5 C 78 % 11.68 C
633 15-07-2019 04:40:00 15.5 C 78 % 11.68 C
634 15-07-2019 04:45:00 15.6 C 78 % 11.78 C
635 15-07-2019 04:50:00 15.6 C 77 % 11.59 C
636 15-07-2019 04:55:00 15.6 C 77 % 11.59 C
637 15-07-2019 05:00:00 15.6 C 75 % 11.19 C
638 15-07-2019 05:05:00 15.7 C 75 % 11.28 C
639 15-07-2019 05:10:00 15.7 C 74 % 11.08 C
640 15-07-2019 05:15:00 15.7 C 74 % 11.08 C
641 15-07-2019 05:20:00 15.7 C 74 % 11.08 C
642 15-07-2019 05:25:00 15.7 C 75 % 11.28 C
643 15-07-2019 05:30:00 15.7 C 76 % 11.48 C
644 15-07-2019 05:35:00 15.6 C 75 % 11.19 C
645 15-07-2019 05:40:00 15.6 C 74 % 10.99 C
646 15-07-2019 05:45:00 15.6 C 74 % 10.99 C
647 15-07-2019 05:50:00 15.6 C 74 % 10.99 C
648 15-07-2019 05:55:00 15.6 C 73 % 10.78 C
649 15-07-2019 06:00:00 15.6 C 74 % 10.99 C
650 15-07-2019 06:05:00 15.6 C 74 % 10.99 C
Sensor: Nr:Datum:Temp:Feuchte:Taupunkt:
Aussen-T/F 651 15-07-2019 06:10:00 15.6 C 74 % 10.99 C
652 15-07-2019 06:15:00 15.6 C 74 % 10.99 C
653 15-07-2019 06:20:00 15.6 C 74 % 10.99 C
654 15-07-2019 06:25:00 15.6 C 74 % 10.99 C
655 15-07-2019 06:30:00 15.6 C 74 % 10.99 C
656 15-07-2019 06:35:00 15.6 C 74 % 10.99 C
657 15-07-2019 06:40:00 15.6 C 74 % 10.99 C
658 15-07-2019 06:45:00 15.6 C 74 % 10.99 C
659 15-07-2019 06:50:00 15.6 C 75 % 11.19 C
660 15-07-2019 06:55:00 15.6 C 75 % 11.19 C
661 15-07-2019 07:00:00 15.6 C 75 % 11.19 C
662 15-07-2019 07:05:00 15.7 C 75 % 11.28 C
663 15-07-2019 07:10:00 15.7 C 75 % 11.28 C
664 15-07-2019 07:15:00 15.7 C 74 % 11.08 C
665 15-07-2019 07:20:00 15.7 C 75 % 11.28 C
666 15-07-2019 07:25:00 15.7 C 74 % 11.08 C
667 15-07-2019 07:30:00 15.7 C 73 % 10.88 C
668 15-07-2019 07:35:00 15.7 C 73 % 10.88 C
669 15-07-2019 07:40:00 15.7 C 73 % 10.88 C
670 15-07-2019 07:45:00 15.7 C 73 % 10.88 C
671 15-07-2019 07:50:00 15.7 C 74 % 11.08 C
672 15-07-2019 07:55:00 15.7 C 74 % 11.08 C
673 15-07-2019 08:00:00 15.7 C 74 % 11.08 C
674 15-07-2019 08:05:00 15.7 C 74 % 11.08 C
675 15-07-2019 08:10:00 15.7 C 75 % 11.28 C
Sensor: Nr:Datum:Temp:Feuchte:Taupunkt:
Aussen-T/F 676 15-07-2019 08:15:00 15.7 C 74 % 11.08 C
677 15-07-2019 08:20:00 15.7 C 74 % 11.08 C
678 15-07-2019 08:25:00 15.7 C 74 % 11.08 C
679 15-07-2019 08:30:00 15.8 C 74 % 11.18 C
680 15-07-2019 08:35:00 15.8 C 75 % 11.38 C
681 15-07-2019 08:40:00 15.9 C 74 % 11.28 C
682 15-07-2019 08:45:00 16 C 74 % 11.37 C
683 15-07-2019 08:50:00 16.1 C 73 % 11.26 C
684 15-07-2019 08:55:00 16.2 C 74 % 11.56 C
685 15-07-2019 09:00:00 16.3 C 73 % 11.46 C
686 15-07-2019 09:05:00 16.3 C 73 % 11.46 C
687 15-07-2019 09:10:00 16.3 C 72 % 11.25 C
688 15-07-2019 09:15:00 16.4 C 72 % 11.34 C
689 15-07-2019 09:20:00 16.4 C 71 % 11.13 C
690 15-07-2019 09:25:00 16.5 C 72 % 11.44 C
691 15-07-2019 09:30:00 16.6 C 72 % 11.54 C
692 15-07-2019 09:35:00 16.7 C 70 % 11.21 C
693 15-07-2019 09:40:00 16.7 C 70 % 11.21 C
694 15-07-2019 09:45:00 16.7 C 72 % 11.63 C
695 15-07-2019 09:50:00 16.7 C 70 % 11.21 C
696 15-07-2019 09:55:00 16.8 C 70 % 11.3 C
697 15-07-2019 10:00:00 16.8 C 70 % 11.3 C
698 15-07-2019 10:05:00 16.8 C 70 % 11.3 C
699 15-07-2019 10:10:00 16.8 C 69 % 11.09 C
700 15-07-2019 10:15:00 16.8 C 69 % 11.09 C
Sensor: Nr:Datum:Temp:Feuchte:Taupunkt:
Aussen-T/F 701 15-07-2019 10:20:00 16.8 C 70 % 11.3 C
702 15-07-2019 10:25:00 16.8 C 72 % 11.73 C
703 15-07-2019 10:30:00 16.8 C 74 % 12.14 C
704 15-07-2019 10:35:00 16.8 C 74 % 12.14 C
705 15-07-2019 10:40:00 16.8 C 74 % 12.14 C
706 15-07-2019 10:45:00 16.8 C 75 % 12.35 C
707 15-07-2019 10:50:00 16.8 C 75 % 12.35 C
708 15-07-2019 10:55:00 16.8 C 74 % 12.14 C
709 15-07-2019 11:00:00 16.8 C 75 % 12.35 C
710 15-07-2019 11:05:00 16.8 C 74 % 12.14 C
711 15-07-2019 11:10:00 16.8 C 74 % 12.14 C
712 15-07-2019 11:15:00 16.8 C 75 % 12.35 C
713 15-07-2019 11:20:00 16.8 C 74 % 12.14 C
714 15-07-2019 11:25:00 16.8 C 74 % 12.14 C
715 15-07-2019 11:30:00 16.8 C 74 % 12.14 C
716 15-07-2019 11:35:00 16.8 C 74 % 12.14 C
717 15-07-2019 11:40:00 16.9 C 75 % 12.44 C
718 15-07-2019 11:45:00 16.9 C 75 % 12.44 C
719 15-07-2019 11:50:00 16.9 C 75 % 12.44 C
720 15-07-2019 11:55:00 17 C 74 % 12.34 C
721 15-07-2019 12:00:00 17 C 74 % 12.34 C
722 15-07-2019 12:05:00 17 C 74 % 12.34 C
723 15-07-2019 12:10:00 17.1 C 73 % 12.23 C
724 15-07-2019 12:15:00 17 C 72 % 11.92 C
725 15-07-2019 12:20:00 17.1 C 72 % 12.02 C
Sensor: Nr:Datum:Temp:Feuchte:Taupunkt:
Aussen-T/F 726 15-07-2019 12:25:00 17.1 C 73 % 12.23 C
727 15-07-2019 12:30:00 17.1 C 73 % 12.23 C
728 15-07-2019 12:35:00 17.2 C 73 % 12.32 C
729 15-07-2019 12:40:00 17.2 C 72 % 12.11 C
730 15-07-2019 12:45:00 17.2 C 72 % 12.11 C
731 15-07-2019 12:50:00 17.2 C 73 % 12.32 C
732 15-07-2019 12:55:00 17.1 C 73 % 12.23 C
733 15-07-2019 13:00:00 17.2 C 72 % 12.11 C
734 15-07-2019 13:05:00 17.2 C 71 % 11.9 C
735 15-07-2019 13:10:00 17.2 C 72 % 12.11 C
736 15-07-2019 13:15:00 17.3 C 70 % 11.78 C
737 15-07-2019 13:20:00 17.3 C 70 % 11.78 C
738 15-07-2019 13:25:00 17.4 C 70 % 11.88 C
739 15-07-2019 13:30:00 17.6 C 70 % 12.07 C
740 15-07-2019 13:35:00 17.6 C 69 % 11.85 C
741 15-07-2019 13:40:00 17.7 C 69 % 11.95 C
742 15-07-2019 13:45:00 17.8 C 68 % 11.82 C
743 15-07-2019 13:50:00 17.8 C 68 % 11.82 C
744 15-07-2019 13:55:00 17.8 C 68 % 11.82 C
745 15-07-2019 14:00:00 17.9 C 68 % 11.91 C
746 15-07-2019 14:05:00 17.9 C 67 % 11.69 C
747 15-07-2019 14:10:00 18.1 C 66 % 11.65 C
748 15-07-2019 14:15:00 18.1 C 66 % 11.65 C
749 15-07-2019 14:20:00 18.2 C 66 % 11.75 C
750 15-07-2019 14:25:00 18.1 C 66 % 11.65 C
Sensor: Nr:Datum:Temp:Feuchte:Taupunkt:
Aussen-T/F 751 15-07-2019 14:30:00 18.2 C 66 % 11.75 C
752 15-07-2019 14:35:00 18.2 C 66 % 11.75 C
753 15-07-2019 14:40:00 18.2 C 66 % 11.75 C
754 15-07-2019 14:45:00 18.1 C 66 % 11.65 C
755 15-07-2019 14:50:00 18.1 C 66 % 11.65 C
756 15-07-2019 14:55:00 18 C 67 % 11.79 C
757 15-07-2019 15:00:00 18.1 C 67 % 11.88 C
758 15-07-2019 15:05:00 18.1 C 66 % 11.65 C
759 15-07-2019 15:10:00 17.9 C 67 % 11.69 C
760 15-07-2019 15:15:00 17.9 C 67 % 11.69 C
761 15-07-2019 15:20:00 17.7 C 68 % 11.72 C
762 15-07-2019 15:25:00 17.7 C 68 % 11.72 C
763 15-07-2019 15:30:00 17.6 C 67 % 11.4 C
764 15-07-2019 15:35:00 17.6 C 68 % 11.63 C
765 15-07-2019 15:40:00 17.4 C 68 % 11.44 C
766 15-07-2019 15:45:00 17.4 C 69 % 11.66 C
767 15-07-2019 15:50:00 17.4 C 70 % 11.88 C
768 15-07-2019 15:55:00 17.4 C 70 % 11.88 C
769 15-07-2019 16:00:00 17.4 C 69 % 11.66 C
770 15-07-2019 16:05:00 17.3 C 69 % 11.56 C
771 15-07-2019 16:10:00 17.3 C 70 % 11.78 C
772 15-07-2019 16:15:00 17.2 C 70 % 11.68 C
773 15-07-2019 16:20:00 17.2 C 70 % 11.68 C
774 15-07-2019 16:25:00 17.1 C 71 % 11.8 C
775 15-07-2019 16:30:00 17.1 C 71 % 11.8 C
Sensor: Nr:Datum:Temp:Feuchte:Taupunkt:
Aussen-T/F 776 15-07-2019 16:35:00 17.1 C 71 % 11.8 C
777 15-07-2019 16:40:00 17 C 71 % 11.71 C
778 15-07-2019 16:45:00 16.9 C 71 % 11.61 C
779 15-07-2019 16:50:00 16.9 C 71 % 11.61 C
780 15-07-2019 16:55:00 16.9 C 72 % 11.82 C
781 15-07-2019 17:00:00 16.9 C 71 % 11.61 C
782 15-07-2019 17:05:00 16.9 C 71 % 11.61 C
783 15-07-2019 17:10:00 16.9 C 71 % 11.61 C
784 15-07-2019 17:15:00 16.9 C 72 % 11.82 C
785 15-07-2019 17:20:00 16.8 C 71 % 11.52 C
786 15-07-2019 17:25:00 16.8 C 72 % 11.73 C
787 15-07-2019 17:30:00 16.8 C 72 % 11.73 C
788 15-07-2019 17:35:00 16.7 C 72 % 11.63 C
789 15-07-2019 17:40:00 16.7 C 72 % 11.63 C
790 15-07-2019 17:45:00 16.7 C 72 % 11.63 C
791 15-07-2019 17:50:00 16.6 C 72 % 11.54 C
792 15-07-2019 17:55:00 16.6 C 72 % 11.54 C
793 15-07-2019 18:00:00 16.6 C 72 % 11.54 C
794 15-07-2019 18:05:00 16.7 C 72 % 11.63 C
795 15-07-2019 18:10:00 16.6 C 72 % 11.54 C
796 15-07-2019 18:15:00 16.6 C 72 % 11.54 C
797 15-07-2019 18:20:00 16.6 C 72 % 11.54 C
798 15-07-2019 18:25:00 16.6 C 72 % 11.54 C
799 15-07-2019 18:30:00 16.7 C 72 % 11.63 C
800 15-07-2019 18:35:00 16.7 C 71 % 11.42 C
Sensor: Nr:Datum:Temp:Feuchte:Taupunkt:
Aussen-T/F 801 15-07-2019 18:40:00 16.7 C 71 % 11.42 C
802 15-07-2019 18:45:00 16.8 C 71 % 11.52 C
803 15-07-2019 18:50:00 16.8 C 71 % 11.52 C
804 15-07-2019 18:55:00 16.9 C 71 % 11.61 C
805 15-07-2019 19:00:00 16.9 C 70 % 11.4 C
806 15-07-2019 19:05:00 16.9 C 71 % 11.61 C
807 15-07-2019 19:10:00 16.8 C 71 % 11.52 C
808 15-07-2019 19:15:00 16.8 C 71 % 11.52 C
809 15-07-2019 19:20:00 16.8 C 71 % 11.52 C
810 15-07-2019 19:25:00 16.8 C 72 % 11.73 C
811 15-07-2019 19:30:00 16.8 C 71 % 11.52 C
812 15-07-2019 19:35:00 16.8 C 71 % 11.52 C
813 15-07-2019 19:40:00 16.7 C 71 % 11.42 C
814 15-07-2019 19:45:00 16.7 C 71 % 11.42 C
815 15-07-2019 19:50:00 16.7 C 71 % 11.42 C
816 15-07-2019 19:55:00 16.7 C 71 % 11.42 C
817 15-07-2019 20:00:00 16.7 C 70 % 11.21 C
818 15-07-2019 20:05:00 16.7 C 71 % 11.42 C
819 15-07-2019 20:10:00 16.7 C 71 % 11.42 C
820 15-07-2019 20:15:00 16.7 C 71 % 11.42 C
821 15-07-2019 20:20:00 16.7 C 71 % 11.42 C
822 15-07-2019 20:25:00 16.7 C 71 % 11.42 C
823 15-07-2019 20:30:00 16.7 C 71 % 11.42 C
824 15-07-2019 20:35:00 16.7 C 71 % 11.42 C
825 15-07-2019 20:40:00 16.7 C 72 % 11.63 C
Sensor: Nr:Datum:Temp:Feuchte:Taupunkt:
Aussen-T/F 826 15-07-2019 20:45:00 16.7 C 71 % 11.42 C
827 15-07-2019 20:50:00 16.7 C 71 % 11.42 C
828 15-07-2019 20:55:00 16.6 C 72 % 11.54 C
829 15-07-2019 21:00:00 16.6 C 72 % 11.54 C
830 15-07-2019 21:05:00 16.5 C 72 % 11.44 C
831 15-07-2019 21:10:00 16.4 C 72 % 11.34 C
832 15-07-2019 21:15:00 16.4 C 73 % 11.55 C
833 15-07-2019 21:20:00 16.4 C 73 % 11.55 C
834 15-07-2019 21:25:00 16.3 C 73 % 11.46 C
835 15-07-2019 21:30:00 16.3 C 73 % 11.46 C
836 15-07-2019 21:35:00 16.3 C 73 % 11.46 C
837 15-07-2019 21:40:00 16.3 C 76 % 12.07 C
838 15-07-2019 21:45:00 16.3 C 77 % 12.26 C
839 15-07-2019 21:50:00 16.2 C 77 % 12.17 C
840 15-07-2019 21:55:00 16.1 C 76 % 11.87 C
841 15-07-2019 22:00:00 16 C 77 % 11.97 C
842 15-07-2019 22:05:00 15.9 C 78 % 12.07 C
843 15-07-2019 22:10:00 15.8 C 78 % 11.97 C
844 15-07-2019 22:15:00 15.8 C 79 % 12.17 C
845 15-07-2019 22:20:00 15.7 C 80 % 12.26 C
846 15-07-2019 22:25:00 15.6 C 80 % 12.16 C
847 15-07-2019 22:30:00 15.6 C 80 % 12.16 C
848 15-07-2019 22:35:00 15.5 C 81 % 12.26 C
849 15-07-2019 22:40:00 15.4 C 80 % 11.97 C
850 15-07-2019 22:45:00 15.4 C 81 % 12.16 C
Sensor: Nr:Datum:Temp:Feuchte:Taupunkt:
Aussen-T/F 851 15-07-2019 22:50:00 15.4 C 81 % 12.16 C
852 15-07-2019 22:55:00 15.3 C 79 % 11.68 C
853 15-07-2019 23:00:00 15.3 C 79 % 11.68 C
854 15-07-2019 23:05:00 15.3 C 78 % 11.49 C
855 15-07-2019 23:10:00 15.4 C 77 % 11.39 C
856 15-07-2019 23:15:00 15.5 C 77 % 11.49 C
857 15-07-2019 23:20:00 15.6 C 77 % 11.59 C
858 15-07-2019 23:25:00 15.6 C 77 % 11.59 C
859 15-07-2019 23:30:00 15.6 C 77 % 11.59 C
860 15-07-2019 23:35:00 15.6 C 76 % 11.39 C
861 15-07-2019 23:40:00 15.5 C 77 % 11.49 C
862 15-07-2019 23:45:00 15.4 C 77 % 11.39 C
863 15-07-2019 23:50:00 15.3 C 77 % 11.3 C
864 15-07-2019 23:55:00 15.2 C 78 % 11.39 C
865 16-07-2019 00:00:00 15.1 C 79 % 11.49 C
866 16-07-2019 00:05:00 15 C 80 % 11.58 C
867 16-07-2019 00:10:00 14.9 C 79 % 11.29 C
868 16-07-2019 00:15:00 14.8 C 80 % 11.39 C
869 16-07-2019 00:20:00 14.8 C 80 % 11.39 C
870 16-07-2019 00:25:00 14.7 C 80 % 11.29 C
871 16-07-2019 00:30:00 14.7 C 79 % 11.1 C
872 16-07-2019 00:35:00 14.7 C 81 % 11.48 C
873 16-07-2019 00:40:00 14.6 C 80 % 11.19 C
874 16-07-2019 00:45:00 14.6 C 80 % 11.19 C
875 16-07-2019 00:50:00 14.6 C 80 % 11.19 C
Sensor: Nr:Datum:Temp:Feuchte:Taupunkt:
Aussen-T/F 876 16-07-2019 00:55:00 14.5 C 80 % 11.09 C
877 16-07-2019 01:00:00 14.4 C 79 % 10.81 C
878 16-07-2019 01:05:00 14.3 C 79 % 10.71 C
879 16-07-2019 01:10:00 14.2 C 79 % 10.61 C
880 16-07-2019 01:15:00 14 C 79 % 10.42 C
881 16-07-2019 01:20:00 13.9 C 79 % 10.32 C
882 16-07-2019 01:25:00 13.7 C 80 % 10.32 C
883 16-07-2019 01:30:00 13.6 C 81 % 10.4 C
884 16-07-2019 01:35:00 13.4 C 81 % 10.21 C
885 16-07-2019 01:40:00 13.3 C 81 % 10.11 C
886 16-07-2019 01:45:00 13.2 C 82 % 10.2 C
887 16-07-2019 01:50:00 13.1 C 82 % 10.1 C
888 16-07-2019 01:55:00 13 C 82 % 10 C
889 16-07-2019 02:00:00 12.9 C 83 % 10.09 C
890 16-07-2019 02:05:00 12.8 C 83 % 9.99 C
891 16-07-2019 02:10:00 12.7 C 84 % 10.07 C
892 16-07-2019 02:15:00 12.6 C 84 % 9.97 C
893 16-07-2019 02:20:00 12.5 C 85 % 10.05 C
894 16-07-2019 02:25:00 12.4 C 85 % 9.95 C
895 16-07-2019 02:30:00 12.2 C 86 % 9.93 C
896 16-07-2019 02:35:00 12.1 C 86 % 9.83 C
897 16-07-2019 02:40:00 11.9 C 87 % 9.81 C
898 16-07-2019 02:45:00 11.7 C 87 % 9.61 C
899 16-07-2019 02:50:00 11.6 C 88 % 9.68 C
900 16-07-2019 02:55:00 11.4 C 88 % 9.49 C
Sensor: Nr:Datum:Temp:Feuchte:Taupunkt:
Aussen-T/F 901 16-07-2019 03:00:00 11.3 C 88 % 9.39 C
902 16-07-2019 03:05:00 11.2 C 89 % 9.46 C
903 16-07-2019 03:10:00 11.2 C 90 % 9.62 C
904 16-07-2019 03:15:00 11.1 C 90 % 9.52 C
905 16-07-2019 03:20:00 10.9 C 90 % 9.33 C
906 16-07-2019 03:25:00 10.9 C 90 % 9.33 C
907 16-07-2019 03:30:00 10.8 C 91 % 9.39 C
908 16-07-2019 03:35:00 10.8 C 91 % 9.39 C
909 16-07-2019 03:40:00 10.7 C 91 % 9.29 C
910 16-07-2019 03:45:00 10.7 C 91 % 9.29 C
911 16-07-2019 03:50:00 10.6 C 91 % 9.19 C
912 16-07-2019 03:55:00 10.6 C 91 % 9.19 C
913 16-07-2019 04:00:00 10.6 C 92 % 9.36 C
914 16-07-2019 04:05:00 10.5 C 92 % 9.26 C
915 16-07-2019 04:10:00 10.5 C 92 % 9.26 C
916 16-07-2019 04:15:00 10.4 C 92 % 9.16 C
917 16-07-2019 04:20:00 10.3 C 92 % 9.06 C
918 16-07-2019 04:25:00 10.3 C 92 % 9.06 C
919 16-07-2019 04:30:00 10.2 C 92 % 8.96 C
920 16-07-2019 04:35:00 10.2 C 92 % 8.96 C
921 16-07-2019 04:40:00 10.1 C 92 % 8.86 C
922 16-07-2019 04:45:00 10.1 C 93 % 9.02 C
923 16-07-2019 04:50:00 10.1 C 93 % 9.02 C
924 16-07-2019 04:55:00 10.1 C 93 % 9.02 C
925 16-07-2019 05:00:00 10.1 C 93 % 9.02 C
Sensor: Nr:Datum:Temp:Feuchte:Taupunkt:
Aussen-T/F 926 16-07-2019 05:05:00 10.2 C 93 % 9.12 C
927 16-07-2019 05:10:00 10.1 C 93 % 9.02 C
928 16-07-2019 05:15:00 10.1 C 93 % 9.02 C
929 16-07-2019 05:20:00 10.1 C 93 % 9.02 C
930 16-07-2019 05:25:00 10 C 93 % 8.92 C
931 16-07-2019 05:30:00 10 C 93 % 8.92 C
932 16-07-2019 05:35:00 9.9 C 93 % 8.82 C
933 16-07-2019 05:40:00 9.9 C 93 % 8.82 C
934 16-07-2019 05:45:00 9.8 C 93 % 8.72 C
935 16-07-2019 05:50:00 9.8 C 94 % 8.88 C
936 16-07-2019 05:55:00 9.8 C 94 % 8.88 C
937 16-07-2019 06:00:00 9.9 C 94 % 8.98 C
938 16-07-2019 06:05:00 9.9 C 94 % 8.98 C
939 16-07-2019 06:10:00 9.9 C 94 % 8.98 C
940 16-07-2019 06:15:00 9.9 C 94 % 8.98 C
941 16-07-2019 06:20:00 9.9 C 94 % 8.98 C
942 16-07-2019 06:25:00 10 C 94 % 9.08 C
943 16-07-2019 06:30:00 10.1 C 94 % 9.18 C
944 16-07-2019 06:35:00 10.1 C 95 % 9.34 C
945 16-07-2019 06:40:00 10.3 C 95 % 9.54 C
946 16-07-2019 06:45:00 10.4 C 95 % 9.63 C
947 16-07-2019 06:50:00 10.5 C 95 % 9.73 C
948 16-07-2019 06:55:00 10.6 C 95 % 9.83 C
949 16-07-2019 07:00:00 10.6 C 94 % 9.68 C
950 16-07-2019 07:05:00 10.7 C 94 % 9.77 C
Sensor: Nr:Datum:Temp:Feuchte:Taupunkt:
Aussen-T/F 951 16-07-2019 07:10:00 10.7 C 94 % 9.77 C
952 16-07-2019 07:15:00 10.8 C 94 % 9.87 C
953 16-07-2019 07:20:00 10.8 C 94 % 9.87 C
954 16-07-2019 07:25:00 10.9 C 94 % 9.97 C
955 16-07-2019 07:30:00 11 C 94 % 10.07 C
956 16-07-2019 07:35:00 11.2 C 94 % 10.27 C
957 16-07-2019 07:40:00 11.2 C 94 % 10.27 C
958 16-07-2019 07:45:00 11.3 C 93 % 10.21 C
959 16-07-2019 07:50:00 11.4 C 93 % 10.31 C
960 16-07-2019 07:55:00 11.6 C 93 % 10.51 C
961 16-07-2019 08:00:00 11.7 C 93 % 10.61 C
962 16-07-2019 08:05:00 11.8 C 93 % 10.71 C
963 16-07-2019 08:10:00 11.9 C 92 % 10.64 C
964 16-07-2019 08:15:00 12.1 C 92 % 10.84 C
965 16-07-2019 08:20:00 12.3 C 92 % 11.04 C
966 16-07-2019 08:25:00 12.4 C 91 % 10.97 C
967 16-07-2019 08:30:00 12.7 C 91 % 11.27 C
968 16-07-2019 08:35:00 12.8 C 90 % 11.2 C
969 16-07-2019 08:40:00 13.1 C 90 % 11.5 C
970 16-07-2019 08:45:00 13.3 C 89 % 11.53 C
971 16-07-2019 08:50:00 13.6 C 88 % 11.65 C
972 16-07-2019 08:55:00 13.8 C 88 % 11.85 C
973 16-07-2019 09:00:00 13.9 C 87 % 11.77 C
974 16-07-2019 09:05:00 14 C 86 % 11.7 C
975 16-07-2019 09:10:00 14.2 C 86 % 11.89 C
Sensor: Nr:Datum:Temp:Feuchte:Taupunkt:
Aussen-T/F 976 16-07-2019 09:15:00 14.3 C 86 % 11.99 C
977 16-07-2019 09:20:00 14.5 C 86 % 12.19 C
978 16-07-2019 09:25:00 14.7 C 84 % 12.03 C
979 16-07-2019 09:30:00 14.8 C 84 % 12.12 C
980 16-07-2019 09:35:00 14.8 C 83 % 11.94 C
981 16-07-2019 09:40:00 14.9 C 83 % 12.04 C
982 16-07-2019 09:45:00 14.9 C 83 % 12.04 C
983 16-07-2019 09:50:00 15 C 81 % 11.77 C
984 16-07-2019 09:55:00 15 C 81 % 11.77 C
985 16-07-2019 10:00:00 15.1 C 80 % 11.68 C
986 16-07-2019 10:05:00 15.3 C 80 % 11.87 C
987 16-07-2019 10:10:00 15.4 C 78 % 11.59 C
988 16-07-2019 10:15:00 15.4 C 78 % 11.59 C
989 16-07-2019 10:20:00 15.4 C 78 % 11.59 C
990 16-07-2019 10:25:00 15.5 C 77 % 11.49 C
991 16-07-2019 10:30:00 15.5 C 76 % 11.29 C
992 16-07-2019 10:35:00 15.6 C 77 % 11.59 C
993 16-07-2019 10:40:00 15.7 C 77 % 11.68 C
994 16-07-2019 10:45:00 15.7 C 77 % 11.68 C
995 16-07-2019 10:50:00 15.8 C 76 % 11.58 C
996 16-07-2019 10:55:00 15.8 C 76 % 11.58 C
997 16-07-2019 11:00:00 15.9 C 75 % 11.48 C
998 16-07-2019 11:05:00 15.9 C 75 % 11.48 C
999 16-07-2019 11:10:00 16 C 75 % 11.57 C
1000 16-07-2019 11:15:00 16 C 75 % 11.57 C
Sensor: Nr:Datum:Temp:Feuchte:Taupunkt:
Aussen-T/F 1001 16-07-2019 11:20:00 16.1 C 75 % 11.67 C
1002 16-07-2019 11:25:00 16.1 C 75 % 11.67 C
1003 16-07-2019 11:30:00 15.9 C 75 % 11.48 C
1004 16-07-2019 11:35:00 15.8 C 75 % 11.38 C
1005 16-07-2019 11:40:00 15.9 C 75 % 11.48 C
1006 16-07-2019 11:45:00 16 C 74 % 11.37 C
1007 16-07-2019 11:50:00 16.1 C 73 % 11.26 C
1008 16-07-2019 11:55:00 16.2 C 74 % 11.56 C
1009 16-07-2019 12:00:00 16.3 C 73 % 11.46 C
1010 16-07-2019 12:05:00 16.3 C 73 % 11.46 C
1011 16-07-2019 12:10:00 16.4 C 73 % 11.55 C
1012 16-07-2019 12:15:00 16.5 C 73 % 11.65 C
1013 16-07-2019 12:20:00 16.6 C 73 % 11.74 C
1014 16-07-2019 12:25:00 16.7 C 72 % 11.63 C
1015 16-07-2019 12:30:00 16.8 C 71 % 11.52 C
1016 16-07-2019 12:35:00 16.9 C 71 % 11.61 C
1017 16-07-2019 12:40:00 17 C 71 % 11.71 C
1018 16-07-2019 12:45:00 17 C 71 % 11.71 C
1019 16-07-2019 12:50:00 17.1 C 71 % 11.8 C
1020 16-07-2019 12:55:00 17.1 C 70 % 11.59 C
1021 16-07-2019 13:00:00 17.2 C 70 % 11.68 C
1022 16-07-2019 13:05:00 17.2 C 71 % 11.9 C
1023 16-07-2019 13:10:00 17.3 C 70 % 11.78 C
1024 16-07-2019 13:15:00 17.3 C 70 % 11.78 C
1025 16-07-2019 13:20:00 17.3 C 69 % 11.56 C
Sensor: Nr:Datum:Temp:Feuchte:Taupunkt:
Aussen-T/F 1026 16-07-2019 13:25:00 17.2 C 70 % 11.68 C
1027 16-07-2019 13:30:00 17.3 C 71 % 12 C
1028 16-07-2019 13:35:00 17.7 C 70 % 12.16 C
1029 16-07-2019 13:40:00 17.7 C 68 % 11.72 C
1030 16-07-2019 13:45:00 17.6 C 67 % 11.4 C
1031 16-07-2019 13:50:00 17.5 C 69 % 11.75 C
1032 16-07-2019 13:55:00 17.6 C 68 % 11.63 C
1033 16-07-2019 14:00:00 17.6 C 70 % 12.07 C
1034 16-07-2019 14:05:00 17.7 C 68 % 11.72 C
1035 16-07-2019 14:10:00 17.9 C 68 % 11.91 C
1036 16-07-2019 14:15:00 18 C 68 % 12.01 C
1037 16-07-2019 14:20:00 18.2 C 67 % 11.98 C
1038 16-07-2019 14:25:00 18.3 C 66 % 11.84 C
1039 16-07-2019 14:30:00 18.4 C 65 % 11.71 C
1040 16-07-2019 14:35:00 18.6 C 65 % 11.9 C
1041 16-07-2019 14:40:00 18.8 C 66 % 12.32 C
1042 16-07-2019 14:45:00 18.9 C 65 % 12.18 C
1043 16-07-2019 14:50:00 19 C 65 % 12.28 C
1044 16-07-2019 14:55:00 19.2 C 65 % 12.47 C
1045 16-07-2019 15:00:00 19.3 C 64 % 12.32 C
1046 16-07-2019 15:05:00 19.4 C 64 % 12.42 C
1047 16-07-2019 15:10:00 19.6 C 63 % 12.37 C
1048 16-07-2019 15:15:00 19.6 C 62 % 12.13 C
1049 16-07-2019 15:20:00 19.7 C 62 % 12.22 C
1050 16-07-2019 15:25:00 20 C 61 % 12.26 C
Sensor: Nr:Datum:Temp:Feuchte:Taupunkt:
Aussen-T/F 1051 16-07-2019 15:30:00 20.4 C 62 % 12.88 C
1052 16-07-2019 15:35:00 20.8 C 60 % 12.76 C
1053 16-07-2019 15:40:00 21.2 C 60 % 13.13 C
1054 16-07-2019 15:45:00 21.3 C 57 % 12.44 C
1055 16-07-2019 15:50:00 21.2 C 59 % 12.87 C
1056 16-07-2019 15:55:00 21.4 C 57 % 12.53 C
1057 16-07-2019 16:00:00 21.7 C 58 % 13.08 C
1058 16-07-2019 16:05:00 22.1 C 58 % 13.45 C
1059 16-07-2019 16:10:00 22.2 C 55 % 12.73 C
1060 16-07-2019 16:15:00 22.3 C 55 % 12.83 C
1061 16-07-2019 16:20:00 22.5 C 55 % 13.01 C
1062 16-07-2019 16:25:00 22.7 C 54 % 12.92 C
1063 16-07-2019 16:30:00 22.7 C 53 % 12.63 C
1064 16-07-2019 16:35:00 22.6 C 52 % 12.25 C
1065 16-07-2019 16:40:00 22.3 C 54 % 12.55 C
1066 16-07-2019 16:45:00 22.1 C 55 % 12.64 C
1067 16-07-2019 16:50:00 22.2 C 55 % 12.73 C
1068 16-07-2019 16:55:00 22.4 C 54 % 12.64 C
1069 16-07-2019 17:00:00 22.5 C 54 % 12.73 C
1070 16-07-2019 17:05:00 22.7 C 53 % 12.63 C
1071 16-07-2019 17:10:00 22.8 C 52 % 12.43 C
1072 16-07-2019 17:15:00 22.7 C 53 % 12.63 C
1073 16-07-2019 17:20:00 22.6 C 53 % 12.54 C
1074 16-07-2019 17:25:00 22.7 C 54 % 12.92 C
1075 16-07-2019 17:30:00 22.9 C 54 % 13.1 C
Sensor: Nr:Datum:Temp:Feuchte:Taupunkt:
Aussen-T/F 1076 16-07-2019 17:35:00 23 C 53 % 12.91 C
1077 16-07-2019 17:40:00 23 C 53 % 12.91 C
1078 16-07-2019 17:45:00 22.9 C 53 % 12.82 C
1079 16-07-2019 17:50:00 22.9 C 52 % 12.53 C
1080 16-07-2019 17:55:00 22.9 C 53 % 12.82 C
1081 16-07-2019 18:00:00 22.8 C 53 % 12.73 C
1082 16-07-2019 18:05:00 22.8 C 53 % 12.73 C
1083 16-07-2019 18:10:00 22.8 C 52 % 12.43 C
1084 16-07-2019 18:15:00 22.9 C 53 % 12.82 C
1085 16-07-2019 18:20:00 23.2 C 52 % 12.8 C
1086 16-07-2019 18:25:00 23.3 C 51 % 12.6 C
1087 16-07-2019 18:30:00 23.4 C 50 % 12.39 C
1088 16-07-2019 18:35:00 23.3 C 51 % 12.6 C
1089 16-07-2019 18:40:00 23.2 C 52 % 12.8 C
1090 16-07-2019 18:45:00 23.2 C 52 % 12.8 C
1091 16-07-2019 18:50:00 23.1 C 52 % 12.71 C
1092 16-07-2019 18:55:00 22.9 C 53 % 12.82 C
1093 16-07-2019 19:00:00 23 C 52 % 12.62 C
1094 16-07-2019 19:05:00 23 C 53 % 12.91 C
1095 16-07-2019 19:10:00 22.9 C 52 % 12.53 C
1096 16-07-2019 19:15:00 22.8 C 52 % 12.43 C
1097 16-07-2019 19:20:00 22.4 C 53 % 12.36 C
1098 16-07-2019 19:25:00 22.1 C 54 % 12.36 C
1099 16-07-2019 19:30:00 21.9 C 55 % 12.46 C
1100 16-07-2019 19:35:00 21.7 C 55 % 12.27 C
Sensor: Nr:Datum:Temp:Feuchte:Taupunkt:
Aussen-T/F 1101 16-07-2019 19:40:00 21.5 C 55 % 12.08 C
1102 16-07-2019 19:45:00 21.4 C 56 % 12.27 C
1103 16-07-2019 19:50:00 21.4 C 56 % 12.27 C
1104 16-07-2019 19:55:00 21.4 C 57 % 12.53 C
1105 16-07-2019 20:00:00 21.4 C 56 % 12.27 C
1106 16-07-2019 20:05:00 21.4 C 57 % 12.53 C
1107 16-07-2019 20:10:00 21.3 C 56 % 12.17 C
1108 16-07-2019 20:15:00 21.3 C 57 % 12.44 C
1109 16-07-2019 20:20:00 21.1 C 57 % 12.25 C
1110 16-07-2019 20:25:00 21 C 58 % 12.43 C
1111 16-07-2019 20:30:00 20.8 C 58 % 12.24 C
1112 16-07-2019 20:35:00 20.6 C 59 % 12.31 C
1113 16-07-2019 20:40:00 20.4 C 59 % 12.12 C
1114 16-07-2019 20:45:00 20.3 C 60 % 12.29 C
1115 16-07-2019 20:50:00 20.2 C 61 % 12.44 C
1116 16-07-2019 20:55:00 20 C 62 % 12.5 C
1117 16-07-2019 21:00:00 19.9 C 64 % 12.89 C
1118 16-07-2019 21:05:00 19.7 C 65 % 12.94 C
1119 16-07-2019 21:10:00 19.6 C 66 % 13.08 C
1120 16-07-2019 21:15:00 19.2 C 67 % 12.93 C
1121 16-07-2019 21:20:00 18.8 C 69 % 13 C
1122 16-07-2019 21:25:00 18.4 C 70 % 12.83 C
1123 16-07-2019 21:30:00 18.1 C 71 % 12.76 C
1124 16-07-2019 21:35:00 17.8 C 72 % 12.69 C
1125 16-07-2019 21:40:00 17.4 C 73 % 12.51 C
Sensor: Nr:Datum:Temp:Feuchte:Taupunkt:
Aussen-T/F 1126 16-07-2019 21:45:00 17.2 C 74 % 12.53 C
1127 16-07-2019 21:50:00 16.9 C 75 % 12.44 C
1128 16-07-2019 21:55:00 16.7 C 76 % 12.45 C
1129 16-07-2019 22:00:00 16.5 C 76 % 12.26 C
1130 16-07-2019 22:05:00 16.3 C 77 % 12.26 C
1131 16-07-2019 22:10:00 16.2 C 78 % 12.36 C
1132 16-07-2019 22:15:00 16.1 C 78 % 12.27 C
1133 16-07-2019 22:20:00 15.9 C 78 % 12.07 C
1134 16-07-2019 22:25:00 15.8 C 79 % 12.17 C
1135 16-07-2019 22:30:00 15.7 C 79 % 12.07 C
1136 16-07-2019 22:35:00 15.7 C 80 % 12.26 C
1137 16-07-2019 22:40:00 15.6 C 80 % 12.16 C
1138 16-07-2019 22:45:00 15.6 C 80 % 12.16 C
1139 16-07-2019 22:50:00 15.4 C 81 % 12.16 C
1140 16-07-2019 22:55:00 15.4 C 80 % 11.97 C
1141 16-07-2019 23:00:00 15.4 C 81 % 12.16 C
1142 16-07-2019 23:05:00 15.4 C 81 % 12.16 C
1143 16-07-2019 23:10:00 15.3 C 81 % 12.06 C
1144 16-07-2019 23:15:00 15.3 C 81 % 12.06 C
1145 16-07-2019 23:20:00 15.2 C 81 % 11.96 C
1146 16-07-2019 23:25:00 15.1 C 81 % 11.87 C
1147 16-07-2019 23:30:00 15.1 C 82 % 12.05 C
1148 16-07-2019 23:35:00 15 C 82 % 11.95 C
1149 16-07-2019 23:40:00 14.9 C 82 % 11.86 C
1150 16-07-2019 23:45:00 14.8 C 83 % 11.94 C
Sensor: Nr:Datum:Temp:Feuchte:Taupunkt:
Aussen-T/F 1151 16-07-2019 23:50:00 14.8 C 83 % 11.94 C
1152 16-07-2019 23:55:00 14.7 C 83 % 11.85 C
1153 17-07-2019 00:00:00 14.7 C 83 % 11.85 C
1154 17-07-2019 00:05:00 14.6 C 83 % 11.75 C
1155 17-07-2019 00:10:00 14.4 C 83 % 11.55 C
1156 17-07-2019 00:15:00 14.3 C 83 % 11.45 C
1157 17-07-2019 00:20:00 14.3 C 84 % 11.64 C
1158 17-07-2019 00:25:00 14.1 C 84 % 11.44 C
1159 17-07-2019 00:30:00 14 C 84 % 11.34 C
1160 17-07-2019 00:35:00 13.9 C 85 % 11.42 C
1161 17-07-2019 00:40:00 13.8 C 85 % 11.32 C
1162 17-07-2019 00:45:00 13.7 C 86 % 11.4 C
1163 17-07-2019 00:50:00 13.7 C 86 % 11.4 C
1164 17-07-2019 00:55:00 13.6 C 86 % 11.3 C
1165 17-07-2019 01:00:00 13.4 C 87 % 11.28 C
1166 17-07-2019 01:05:00 13.3 C 87 % 11.18 C
1167 17-07-2019 01:10:00 13.2 C 87 % 11.09 C
1168 17-07-2019 01:15:00 13.2 C 88 % 11.26 C
1169 17-07-2019 01:20:00 13.1 C 88 % 11.16 C
1170 17-07-2019 01:25:00 13.1 C 88 % 11.16 C
1171 17-07-2019 01:30:00 13.1 C 89 % 11.33 C
1172 17-07-2019 01:35:00 13 C 89 % 11.23 C
1173 17-07-2019 01:40:00 13 C 89 % 11.23 C
1174 17-07-2019 01:45:00 12.9 C 89 % 11.13 C
1175 17-07-2019 01:50:00 12.9 C 89 % 11.13 C
Sensor: Nr:Datum:Temp:Feuchte:Taupunkt:
Aussen-T/F 1176 17-07-2019 01:55:00 12.8 C 89 % 11.03 C
1177 17-07-2019 02:00:00 12.8 C 89 % 11.03 C
1178 17-07-2019 02:05:00 12.7 C 89 % 10.94 C
1179 17-07-2019 02:10:00 12.7 C 89 % 10.94 C
1180 17-07-2019 02:15:00 12.6 C 89 % 10.84 C
1181 17-07-2019 02:20:00 12.5 C 90 % 10.91 C
1182 17-07-2019 02:25:00 12.4 C 90 % 10.81 C
1183 17-07-2019 02:30:00 12.3 C 90 % 10.71 C
1184 17-07-2019 02:35:00 12.3 C 90 % 10.71 C
1185 17-07-2019 02:40:00 12.3 C 90 % 10.71 C
1186 17-07-2019 02:45:00 12.2 C 90 % 10.61 C
1187 17-07-2019 02:50:00 12.1 C 91 % 10.68 C
1188 17-07-2019 02:55:00 12 C 90 % 10.41 C
1189 17-07-2019 03:00:00 11.9 C 91 % 10.48 C
1190 17-07-2019 03:05:00 11.8 C 91 % 10.38 C
1191 17-07-2019 03:10:00 11.8 C 91 % 10.38 C
1192 17-07-2019 03:15:00 11.7 C 91 % 10.28 C
1193 17-07-2019 03:20:00 11.6 C 91 % 10.18 C
1194 17-07-2019 03:25:00 11.6 C 92 % 10.35 C
1195 17-07-2019 03:30:00 11.6 C 92 % 10.35 C
1196 17-07-2019 03:35:00 11.6 C 92 % 10.35 C
1197 17-07-2019 03:40:00 11.6 C 92 % 10.35 C
1198 17-07-2019 03:45:00 11.5 C 92 % 10.25 C
1199 17-07-2019 03:50:00 11.5 C 92 % 10.25 C
1200 17-07-2019 03:55:00 11.5 C 92 % 10.25 C
Sensor: Nr:Datum:Temp:Feuchte:Taupunkt:
Aussen-T/F 1201 17-07-2019 04:00:00 11.4 C 92 % 10.15 C
1202 17-07-2019 04:05:00 11.4 C 93 % 10.31 C
1203 17-07-2019 04:10:00 11.4 C 93 % 10.31 C
1204 17-07-2019 04:15:00 11.3 C 93 % 10.21 C
1205 17-07-2019 04:20:00 11.2 C 92 % 9.95 C
1206 17-07-2019 04:25:00 11.2 C 93 % 10.11 C
1207 17-07-2019 04:30:00 11.2 C 93 % 10.11 C
1208 17-07-2019 04:35:00 11.2 C 93 % 10.11 C
1209 17-07-2019 04:40:00 11.2 C 93 % 10.11 C
1210 17-07-2019 04:45:00 11.1 C 93 % 10.01 C
1211 17-07-2019 04:50:00 11.1 C 93 % 10.01 C
1212 17-07-2019 04:55:00 11 C 93 % 9.91 C
1213 17-07-2019 05:00:00 10.9 C 93 % 9.81 C
1214 17-07-2019 05:05:00 10.9 C 93 % 9.81 C
1215 17-07-2019 05:10:00 10.9 C 93 % 9.81 C
1216 17-07-2019 05:15:00 10.9 C 94 % 9.97 C
1217 17-07-2019 05:20:00 10.9 C 94 % 9.97 C
1218 17-07-2019 05:25:00 10.9 C 94 % 9.97 C
1219 17-07-2019 05:30:00 10.9 C 94 % 9.97 C
1220 17-07-2019 05:35:00 10.8 C 94 % 9.87 C
1221 17-07-2019 05:40:00 10.8 C 94 % 9.87 C
1222 17-07-2019 05:45:00 10.7 C 94 % 9.77 C
1223 17-07-2019 05:50:00 10.7 C 94 % 9.77 C
1224 17-07-2019 05:55:00 10.7 C 94 % 9.77 C
1225 17-07-2019 06:00:00 10.7 C 94 % 9.77 C
Sensor: Nr:Datum:Temp:Feuchte:Taupunkt:
Aussen-T/F 1226 17-07-2019 06:05:00 10.7 C 94 % 9.77 C
1227 17-07-2019 06:10:00 10.6 C 94 % 9.68 C
1228 17-07-2019 06:15:00 10.6 C 94 % 9.68 C
1229 17-07-2019 06:20:00 10.6 C 94 % 9.68 C
1230 17-07-2019 06:25:00 10.7 C 94 % 9.77 C
1231 17-07-2019 06:30:00 10.7 C 95 % 9.93 C
1232 17-07-2019 06:35:00 10.7 C 95 % 9.93 C
1233 17-07-2019 06:40:00 10.8 C 95 % 10.03 C
1234 17-07-2019 06:45:00 10.9 C 95 % 10.13 C
1235 17-07-2019 06:50:00 10.9 C 95 % 10.13 C
1236 17-07-2019 06:55:00 11 C 95 % 10.23 C
1237 17-07-2019 07:00:00 11.1 C 95 % 10.33 C
1238 17-07-2019 07:05:00 11.1 C 95 % 10.33 C
1239 17-07-2019 07:10:00 11.2 C 95 % 10.43 C
1240 17-07-2019 07:15:00 11.2 C 95 % 10.43 C
1241 17-07-2019 07:20:00 11.3 C 95 % 10.53 C
1242 17-07-2019 07:25:00 11.4 C 95 % 10.63 C
1243 17-07-2019 07:30:00 11.6 C 95 % 10.83 C
1244 17-07-2019 07:35:00 11.7 C 95 % 10.93 C
1245 17-07-2019 07:40:00 11.8 C 95 % 11.03 C
1246 17-07-2019 07:45:00 11.8 C 96 % 11.18 C
1247 17-07-2019 07:50:00 11.9 C 95 % 11.13 C
1248 17-07-2019 07:55:00 12.1 C 95 % 11.32 C
1249 17-07-2019 08:00:00 12.2 C 96 % 11.58 C
1250 17-07-2019 08:05:00 12.3 C 95 % 11.52 C
Sensor: Nr:Datum:Temp:Feuchte:Taupunkt:
Aussen-T/F 1251 17-07-2019 08:10:00 12.4 C 95 % 11.62 C
1252 17-07-2019 08:15:00 12.6 C 95 % 11.82 C
1253 17-07-2019 08:20:00 12.6 C 95 % 11.82 C
1254 17-07-2019 08:25:00 12.7 C 95 % 11.92 C
1255 17-07-2019 08:30:00 12.8 C 95 % 12.02 C
1256 17-07-2019 08:35:00 12.9 C 94 % 11.96 C
1257 17-07-2019 08:40:00 13.1 C 94 % 12.16 C
1258 17-07-2019 08:45:00 13.2 C 94 % 12.26 C
1259 17-07-2019 08:50:00 13.3 C 93 % 12.19 C
1260 17-07-2019 08:55:00 13.4 C 93 % 12.29 C
1261 17-07-2019 09:00:00 13.7 C 93 % 12.59 C
1262 17-07-2019 09:05:00 13.8 C 92 % 12.52 C
1263 17-07-2019 09:10:00 14.1 C 92 % 12.82 C
1264 17-07-2019 09:15:00 14.3 C 90 % 12.68 C
1265 17-07-2019 09:20:00 14.5 C 90 % 12.88 C
1266 17-07-2019 09:25:00 14.7 C 89 % 12.91 C
1267 17-07-2019 09:30:00 15 C 88 % 13.03 C
1268 17-07-2019 09:35:00 15.3 C 87 % 13.15 C
1269 17-07-2019 09:40:00 15.5 C 87 % 13.35 C
1270 17-07-2019 09:45:00 15.7 C 86 % 13.37 C
1271 17-07-2019 09:50:00 15.8 C 85 % 13.28 C
1272 17-07-2019 09:55:00 15.9 C 84 % 13.2 C
1273 17-07-2019 10:00:00 16.1 C 83 % 13.21 C
1274 17-07-2019 10:05:00 16.3 C 82 % 13.22 C
1275 17-07-2019 10:10:00 16.4 C 81 % 13.13 C
Sensor: Nr:Datum:Temp:Feuchte:Taupunkt:
Aussen-T/F 1276 17-07-2019 10:15:00 16.6 C 81 % 13.33 C
1277 17-07-2019 10:20:00 16.8 C 80 % 13.33 C
1278 17-07-2019 10:25:00 17.2 C 77 % 13.14 C
1279 17-07-2019 10:30:00 17.5 C 76 % 13.23 C
1280 17-07-2019 10:35:00 17.8 C 75 % 13.31 C
1281 17-07-2019 10:40:00 17.9 C 74 % 13.2 C
1282 17-07-2019 10:45:00 18 C 73 % 13.09 C
1283 17-07-2019 10:50:00 18.1 C 74 % 13.4 C
1284 17-07-2019 10:55:00 18.1 C 73 % 13.19 C
1285 17-07-2019 11:00:00 18.2 C 73 % 13.28 C
1286 17-07-2019 11:05:00 18.1 C 73 % 13.19 C
1287 17-07-2019 11:10:00 18.2 C 73 % 13.28 C
1288 17-07-2019 11:15:00 18.3 C 72 % 13.17 C
1289 17-07-2019 11:20:00 18.5 C 72 % 13.36 C
1290 17-07-2019 11:25:00 18.6 C 71 % 13.24 C
1291 17-07-2019 11:30:00 18.7 C 72 % 13.55 C
1292 17-07-2019 11:35:00 18.7 C 71 % 13.34 C
1293 17-07-2019 11:40:00 18.7 C 71 % 13.34 C
1294 17-07-2019 11:45:00 18.8 C 71 % 13.43 C
1295 17-07-2019 11:50:00 19 C 71 % 13.63 C
1296 17-07-2019 11:55:00 19.2 C 70 % 13.6 C
1297 17-07-2019 12:00:00 19.1 C 69 % 13.28 C
1298 17-07-2019 12:05:00 19.1 C 70 % 13.5 C
1299 17-07-2019 12:10:00 19.2 C 70 % 13.6 C
1300 17-07-2019 12:15:00 19.2 C 70 % 13.6 C
Sensor: Nr:Datum:Temp:Feuchte:Taupunkt:
Aussen-T/F 1301 17-07-2019 12:20:00 19.3 C 70 % 13.69 C
1302 17-07-2019 12:25:00 19.3 C 70 % 13.69 C
1303 17-07-2019 12:30:00 19.4 C 69 % 13.57 C
1304 17-07-2019 12:35:00 19.4 C 68 % 13.34 C
1305 17-07-2019 12:40:00 19.6 C 68 % 13.54 C
1306 17-07-2019 12:45:00 19.6 C 67 % 13.31 C
1307 17-07-2019 12:50:00 19.7 C 67 % 13.4 C
1308 17-07-2019 12:55:00 19.8 C 67 % 13.5 C
1309 17-07-2019 13:00:00 19.8 C 67 % 13.5 C
1310 17-07-2019 13:05:00 19.8 C 66 % 13.27 C
1311 17-07-2019 13:10:00 19.8 C 65 % 13.03 C
1312 17-07-2019 13:15:00 20 C 65 % 13.22 C
1313 17-07-2019 13:20:00 20.3 C 64 % 13.27 C
1314 17-07-2019 13:25:00 20.6 C 64 % 13.55 C
1315 17-07-2019 13:30:00 20.7 C 63 % 13.41 C
1316 17-07-2019 13:35:00 20.9 C 61 % 13.1 C
1317 17-07-2019 13:40:00 20.9 C 60 % 12.85 C
1318 17-07-2019 13:45:00 20.9 C 60 % 12.85 C
1319 17-07-2019 13:50:00 21.1 C 60 % 13.04 C
1320 17-07-2019 13:55:00 21.2 C 60 % 13.13 C
1321 17-07-2019 14:00:00 21.1 C 59 % 12.78 C
1322 17-07-2019 14:05:00 21.1 C 60 % 13.04 C
1323 17-07-2019 14:10:00 21.3 C 60 % 13.22 C
1324 17-07-2019 14:15:00 21.5 C 57 % 12.63 C
1325 17-07-2019 14:20:00 21.5 C 58 % 12.89 C
Sensor: Nr:Datum:Temp:Feuchte:Taupunkt:
Aussen-T/F 1326 17-07-2019 14:25:00 21.7 C 60 % 13.6 C
1327 17-07-2019 14:30:00 21.9 C 59 % 13.53 C
1328 17-07-2019 14:35:00 21.9 C 60 % 13.79 C
1329 17-07-2019 14:40:00 22.1 C 58 % 13.45 C
1330 17-07-2019 14:45:00 22.1 C 58 % 13.45 C
1331 17-07-2019 14:50:00 22 C 59 % 13.62 C
1332 17-07-2019 14:55:00 22.1 C 59 % 13.72 C
1333 17-07-2019 15:00:00 22.3 C 61 % 14.42 C
1334 17-07-2019 15:05:00 22.3 C 58 % 13.64 C
1335 17-07-2019 15:10:00 22.3 C 58 % 13.64 C
1336 17-07-2019 15:15:00 22.3 C 60 % 14.16 C
1337 17-07-2019 15:20:00 22.4 C 59 % 14 C
1338 17-07-2019 15:25:00 22.7 C 58 % 14.01 C
1339 17-07-2019 15:30:00 22.7 C 56 % 13.47 C
1340 17-07-2019 15:35:00 22.8 C 58 % 14.11 C
1341 17-07-2019 15:40:00 22.9 C 57 % 13.93 C
1342 17-07-2019 15:45:00 23.1 C 57 % 14.12 C
1343 17-07-2019 15:50:00 23.2 C 56 % 13.94 C
1344 17-07-2019 15:55:00 23.3 C 58 % 14.58 C
1345 17-07-2019 16:00:00 23.3 C 55 % 13.76 C
1346 17-07-2019 16:05:00 23.3 C 57 % 14.31 C
1347 17-07-2019 16:10:00 23.2 C 56 % 13.94 C
1348 17-07-2019 16:15:00 23.1 C 56 % 13.85 C
1349 17-07-2019 16:20:00 23.2 C 58 % 14.48 C
1350 17-07-2019 16:25:00 23.7 C 55 % 14.13 C
Sensor: Nr:Datum:Temp:Feuchte:Taupunkt:
Aussen-T/F 1351 17-07-2019 16:30:00 23.9 C 54 % 14.03 C
1352 17-07-2019 16:35:00 24.1 C 54 % 14.21 C
1353 17-07-2019 16:40:00 24.1 C 53 % 13.93 C
1354 17-07-2019 16:45:00 24.1 C 54 % 14.21 C
1355 17-07-2019 16:50:00 24.2 C 53 % 14.02 C
1356 17-07-2019 16:55:00 23.9 C 54 % 14.03 C
1357 17-07-2019 17:00:00 23.7 C 55 % 14.13 C
1358 17-07-2019 17:05:00 24 C 54 % 14.12 C
1359 17-07-2019 17:10:00 24.3 C 54 % 14.4 C
1360 17-07-2019 17:15:00 24.6 C 54 % 14.68 C
1361 17-07-2019 17:20:00 24.6 C 52 % 14.09 C
1362 17-07-2019 17:25:00 24.7 C 53 % 14.48 C
1363 17-07-2019 17:30:00 24.8 C 53 % 14.57 C
1364 17-07-2019 17:35:00 24.8 C 52 % 14.28 C
1365 17-07-2019 17:40:00 24.7 C 52 % 14.19 C
1366 17-07-2019 17:45:00 24.9 C 53 % 14.66 C
1367 17-07-2019 17:50:00 25 C 51 % 14.16 C
1368 17-07-2019 17:55:00 24.8 C 53 % 14.57 C
1369 17-07-2019 18:00:00 24.8 C 53 % 14.57 C
1370 17-07-2019 18:05:00 24.7 C 53 % 14.48 C
1371 17-07-2019 18:10:00 24.7 C 52 % 14.19 C
1372 17-07-2019 18:15:00 24.6 C 53 % 14.39 C
1373 17-07-2019 18:20:00 24.4 C 53 % 14.2 C
1374 17-07-2019 18:25:00 24.2 C 54 % 14.31 C
1375 17-07-2019 18:30:00 24.1 C 55 % 14.5 C
Sensor: Nr:Datum:Temp:Feuchte:Taupunkt:
Aussen-T/F 1376 17-07-2019 18:35:00 23.9 C 55 % 14.31 C
1377 17-07-2019 18:40:00 23.8 C 56 % 14.5 C
1378 17-07-2019 18:45:00 23.9 C 56 % 14.59 C
1379 17-07-2019 18:50:00 23.9 C 55 % 14.31 C
1380 17-07-2019 18:55:00 23.9 C 55 % 14.31 C
1381 17-07-2019 19:00:00 23.7 C 57 % 14.68 C
1382 17-07-2019 19:05:00 23.7 C 57 % 14.68 C
1383 17-07-2019 19:10:00 23.9 C 56 % 14.59 C
1384 17-07-2019 19:15:00 23.7 C 57 % 14.68 C
1385 17-07-2019 19:20:00 23.6 C 58 % 14.86 C
1386 17-07-2019 19:25:00 23.6 C 57 % 14.59 C
1387 17-07-2019 19:30:00 23.3 C 58 % 14.58 C
1388 17-07-2019 19:35:00 23.1 C 59 % 14.65 C
1389 17-07-2019 19:40:00 22.7 C 60 % 14.54 C
1390 17-07-2019 19:45:00 22.5 C 60 % 14.35 C
1391 17-07-2019 19:50:00 22.4 C 61 % 14.51 C
1392 17-07-2019 19:55:00 22.3 C 62 % 14.67 C
1393 17-07-2019 20:00:00 22.2 C 61 % 14.32 C
1394 17-07-2019 20:05:00 22.2 C 61 % 14.32 C
1395 17-07-2019 20:10:00 22.1 C 62 % 14.48 C
1396 17-07-2019 20:15:00 21.9 C 63 % 14.54 C
1397 17-07-2019 20:20:00 21.8 C 64 % 14.69 C
1398 17-07-2019 20:25:00 21.6 C 65 % 14.74 C
1399 17-07-2019 20:30:00 21.4 C 65 % 14.55 C
1400 17-07-2019 20:35:00 21.3 C 65 % 14.46 C
Sensor: Nr:Datum:Temp:Feuchte:Taupunkt:
Aussen-T/F 1401 17-07-2019 20:40:00 21.2 C 65 % 14.36 C
1402 17-07-2019 20:45:00 21 C 66 % 14.41 C
1403 17-07-2019 20:50:00 20.9 C 67 % 14.55 C
1404 17-07-2019 20:55:00 20.7 C 67 % 14.36 C
1405 17-07-2019 21:00:00 20.6 C 68 % 14.49 C
1406 17-07-2019 21:05:00 20.4 C 68 % 14.3 C
1407 17-07-2019 21:10:00 20.3 C 68 % 14.2 C
1408 17-07-2019 21:15:00 20.2 C 69 % 14.33 C
1409 17-07-2019 21:20:00 20.1 C 69 % 14.24 C
1410 17-07-2019 21:25:00 20.1 C 70 % 14.46 C
1411 17-07-2019 21:30:00 19.9 C 71 % 14.49 C
1412 17-07-2019 21:35:00 19.6 C 71 % 14.2 C
1413 17-07-2019 21:40:00 19.3 C 72 % 14.13 C
1414 17-07-2019 21:45:00 18.9 C 73 % 13.96 C
1415 17-07-2019 21:50:00 18.6 C 74 % 13.88 C
1416 17-07-2019 21:55:00 18.3 C 75 % 13.79 C
1417 17-07-2019 22:00:00 18 C 76 % 13.71 C
1418 17-07-2019 22:05:00 17.7 C 77 % 13.62 C
1419 17-07-2019 22:10:00 17.5 C 78 % 13.62 C
1420 17-07-2019 22:15:00 17.3 C 79 % 13.63 C
1421 17-07-2019 22:20:00 17.2 C 80 % 13.72 C
1422 17-07-2019 22:25:00 17.1 C 80 % 13.62 C
1423 17-07-2019 22:30:00 16.9 C 81 % 13.62 C
1424 17-07-2019 22:35:00 16.8 C 81 % 13.52 C
1425 17-07-2019 22:40:00 16.7 C 81 % 13.43 C
Sensor: Nr:Datum:Temp:Feuchte:Taupunkt:
Aussen-T/F 1426 17-07-2019 22:45:00 16.6 C 82 % 13.52 C
1427 17-07-2019 22:50:00 16.4 C 82 % 13.32 C
1428 17-07-2019 22:55:00 16.4 C 83 % 13.51 C
1429 17-07-2019 23:00:00 16.3 C 84 % 13.59 C
1430 17-07-2019 23:05:00 16.3 C 84 % 13.59 C
1431 17-07-2019 23:10:00 16.3 C 84 % 13.59 C
1432 17-07-2019 23:15:00 16.2 C 84 % 13.5 C
1433 17-07-2019 23:20:00 16.2 C 84 % 13.5 C
1434 17-07-2019 23:25:00 16.1 C 84 % 13.4 C
1435 17-07-2019 23:30:00 16 C 85 % 13.48 C
1436 17-07-2019 23:35:00 15.9 C 85 % 13.38 C
1437 17-07-2019 23:40:00 15.8 C 85 % 13.28 C
1438 17-07-2019 23:45:00 15.8 C 85 % 13.28 C
1439 17-07-2019 23:50:00 15.7 C 85 % 13.19 C
1440 17-07-2019 23:55:00 15.7 C 85 % 13.19 C
1441 18-07-2019 00:00:00 15.6 C 85 % 13.09 C
1442 18-07-2019 00:05:00 15.6 C 85 % 13.09 C
1443 18-07-2019 00:10:00 15.5 C 86 % 13.17 C
1444 18-07-2019 00:15:00 15.4 C 86 % 13.07 C
1445 18-07-2019 00:20:00 15.4 C 86 % 13.07 C
1446 18-07-2019 00:25:00 15.3 C 86 % 12.97 C
1447 18-07-2019 00:30:00 15.3 C 86 % 12.97 C
1448 18-07-2019 00:35:00 15.2 C 86 % 12.88 C
1449 18-07-2019 00:40:00 15.2 C 86 % 12.88 C
1450 18-07-2019 00:45:00 15.1 C 87 % 12.95 C
Sensor: Nr:Datum:Temp:Feuchte:Taupunkt:
Aussen-T/F 1451 18-07-2019 00:50:00 15 C 87 % 12.86 C
1452 18-07-2019 00:55:00 14.9 C 87 % 12.76 C
1453 18-07-2019 01:00:00 14.8 C 87 % 12.66 C
1454 18-07-2019 01:05:00 14.7 C 88 % 12.73 C
1455 18-07-2019 01:10:00 14.7 C 88 % 12.73 C
1456 18-07-2019 01:15:00 14.6 C 88 % 12.64 C
1457 18-07-2019 01:20:00 14.4 C 88 % 12.44 C
1458 18-07-2019 01:25:00 14.4 C 88 % 12.44 C
1459 18-07-2019 01:30:00 14.3 C 88 % 12.34 C
1460 18-07-2019 01:35:00 14.1 C 89 % 12.32 C
1461 18-07-2019 01:40:00 14 C 89 % 12.22 C
1462 18-07-2019 01:45:00 13.9 C 89 % 12.12 C
1463 18-07-2019 01:50:00 13.8 C 90 % 12.19 C
1464 18-07-2019 01:55:00 13.8 C 90 % 12.19 C
1465 18-07-2019 02:00:00 13.8 C 90 % 12.19 C
1466 18-07-2019 02:05:00 13.8 C 91 % 12.36 C
1467 18-07-2019 02:10:00 13.7 C 91 % 12.26 C
1468 18-07-2019 02:15:00 13.7 C 91 % 12.26 C
1469 18-07-2019 02:20:00 13.7 C 91 % 12.26 C
1470 18-07-2019 02:25:00 13.7 C 91 % 12.26 C
1471 18-07-2019 02:30:00 13.6 C 91 % 12.16 C
1472 18-07-2019 02:35:00 13.6 C 91 % 12.16 C
1473 18-07-2019 02:40:00 13.7 C 92 % 12.42 C
1474 18-07-2019 02:45:00 13.7 C 92 % 12.42 C
1475 18-07-2019 02:50:00 13.7 C 92 % 12.42 C
Sensor: Nr:Datum:Temp:Feuchte:Taupunkt:
Aussen-T/F 1476 18-07-2019 02:55:00 13.6 C 92 % 12.33 C
1477 18-07-2019 03:00:00 13.6 C 92 % 12.33 C
1478 18-07-2019 03:05:00 13.6 C 92 % 12.33 C
1479 18-07-2019 03:10:00 13.5 C 92 % 12.23 C
1480 18-07-2019 03:15:00 13.5 C 92 % 12.23 C
1481 18-07-2019 03:20:00 13.5 C 92 % 12.23 C
1482 18-07-2019 03:25:00 13.4 C 92 % 12.13 C
1483 18-07-2019 03:30:00 13.4 C 92 % 12.13 C
1484 18-07-2019 03:35:00 13.4 C 92 % 12.13 C
1485 18-07-2019 03:40:00 13.4 C 92 % 12.13 C
1486 18-07-2019 03:45:00 13.4 C 93 % 12.29 C
1487 18-07-2019 03:50:00 13.4 C 93 % 12.29 C
1488 18-07-2019 03:55:00 13.4 C 93 % 12.29 C
1489 18-07-2019 04:00:00 13.4 C 93 % 12.29 C
1490 18-07-2019 04:05:00 13.4 C 93 % 12.29 C
1491 18-07-2019 04:10:00 13.4 C 93 % 12.29 C
1492 18-07-2019 04:15:00 13.4 C 93 % 12.29 C
1493 18-07-2019 04:20:00 13.3 C 93 % 12.19 C
1494 18-07-2019 04:25:00 13.3 C 93 % 12.19 C
1495 18-07-2019 04:30:00 13.3 C 93 % 12.19 C
1496 18-07-2019 04:35:00 13.2 C 93 % 12.09 C
1497 18-07-2019 04:40:00 13.2 C 93 % 12.09 C
1498 18-07-2019 04:45:00 13.1 C 93 % 11.99 C
1499 18-07-2019 04:50:00 13 C 92 % 11.73 C
1500 18-07-2019 04:55:00 12.9 C 93 % 11.8 C
Sensor: Nr:Datum:Temp:Feuchte:Taupunkt:
Aussen-T/F 1501 18-07-2019 05:00:00 12.9 C 93 % 11.8 C
1502 18-07-2019 05:05:00 12.8 C 93 % 11.7 C
1503 18-07-2019 05:10:00 12.8 C 93 % 11.7 C
1504 18-07-2019 05:15:00 12.8 C 93 % 11.7 C
1505 18-07-2019 05:20:00 12.8 C 93 % 11.7 C
1506 18-07-2019 05:25:00 12.7 C 93 % 11.6 C
1507 18-07-2019 05:30:00 12.7 C 93 % 11.6 C
1508 18-07-2019 05:35:00 12.6 C 93 % 11.5 C
1509 18-07-2019 05:40:00 12.6 C 93 % 11.5 C
1510 18-07-2019 05:45:00 12.5 C 93 % 11.4 C
1511 18-07-2019 05:50:00 12.5 C 93 % 11.4 C
1512 18-07-2019 05:55:00 12.4 C 94 % 11.46 C
1513 18-07-2019 06:00:00 12.4 C 94 % 11.46 C
1514 18-07-2019 06:05:00 12.4 C 94 % 11.46 C
1515 18-07-2019 06:10:00 12.4 C 94 % 11.46 C
1516 18-07-2019 06:15:00 12.3 C 94 % 11.36 C
1517 18-07-2019 06:20:00 12.4 C 94 % 11.46 C
1518 18-07-2019 06:25:00 12.4 C 94 % 11.46 C
1519 18-07-2019 06:30:00 12.4 C 94 % 11.46 C
1520 18-07-2019 06:35:00 12.4 C 94 % 11.46 C
1521 18-07-2019 06:40:00 12.5 C 95 % 11.72 C
1522 18-07-2019 06:45:00 12.6 C 95 % 11.82 C
1523 18-07-2019 06:50:00 12.6 C 95 % 11.82 C
1524 18-07-2019 06:55:00 12.7 C 95 % 11.92 C
1525 18-07-2019 07:00:00 12.8 C 95 % 12.02 C
Sensor: Nr:Datum:Temp:Feuchte:Taupunkt:
Aussen-T/F 1526 18-07-2019 07:05:00 12.9 C 95 % 12.12 C
1527 18-07-2019 07:10:00 13 C 95 % 12.22 C
1528 18-07-2019 07:15:00 13.1 C 95 % 12.32 C
1529 18-07-2019 07:20:00 13.2 C 95 % 12.42 C
1530 18-07-2019 07:25:00 13.2 C 95 % 12.42 C
1531 18-07-2019 07:30:00 13.3 C 95 % 12.52 C
1532 18-07-2019 07:35:00 13.4 C 95 % 12.62 C
1533 18-07-2019 07:40:00 13.4 C 95 % 12.62 C
1534 18-07-2019 07:45:00 13.5 C 95 % 12.72 C
1535 18-07-2019 07:50:00 13.6 C 95 % 12.81 C
1536 18-07-2019 07:55:00 13.7 C 95 % 12.91 C
1537 18-07-2019 08:00:00 13.7 C 94 % 12.75 C
1538 18-07-2019 08:05:00 13.8 C 94 % 12.85 C
1539 18-07-2019 08:10:00 13.9 C 94 % 12.95 C
1540 18-07-2019 08:15:00 14 C 94 % 13.05 C
1541 18-07-2019 08:20:00 14.1 C 94 % 13.15 C
1542 18-07-2019 08:25:00 14.3 C 94 % 13.35 C
1543 18-07-2019 08:30:00 14.3 C 93 % 13.18 C
1544 18-07-2019 08:35:00 14.4 C 93 % 13.28 C
1545 18-07-2019 08:40:00 14.6 C 92 % 13.32 C
1546 18-07-2019 08:45:00 14.7 C 92 % 13.41 C
1547 18-07-2019 08:50:00 14.9 C 92 % 13.61 C
1548 18-07-2019 08:55:00 15.1 C 92 % 13.81 C
1549 18-07-2019 09:00:00 15.2 C 92 % 13.91 C
1550 18-07-2019 09:05:00 15.4 C 92 % 14.11 C
Sensor: Nr:Datum:Temp:Feuchte:Taupunkt:
Aussen-T/F 1551 18-07-2019 09:10:00 15.6 C 91 % 14.14 C
1552 18-07-2019 09:15:00 15.7 C 91 % 14.24 C
1553 18-07-2019 09:20:00 15.9 C 91 % 14.43 C
1554 18-07-2019 09:25:00 16.1 C 89 % 14.29 C
1555 18-07-2019 09:30:00 16.3 C 88 % 14.31 C
1556 18-07-2019 09:35:00 16.4 C 88 % 14.41 C
1557 18-07-2019 09:40:00 16.7 C 88 % 14.7 C
1558 18-07-2019 09:45:00 16.9 C 86 % 14.54 C
1559 18-07-2019 09:50:00 17.1 C 86 % 14.74 C
1560 18-07-2019 09:55:00 17.3 C 87 % 15.12 C
1561 18-07-2019 10:00:00 17.4 C 87 % 15.21 C
1562 18-07-2019 10:05:00 17.6 C 85 % 15.05 C
1563 18-07-2019 10:10:00 17.7 C 85 % 15.15 C
1564 18-07-2019 10:15:00 17.9 C 85 % 15.34 C
1565 18-07-2019 10:20:00 18.2 C 84 % 15.45 C
1566 18-07-2019 10:25:00 18.5 C 83 % 15.56 C
1567 18-07-2019 10:30:00 18.9 C 80 % 15.38 C
1568 18-07-2019 10:35:00 19.3 C 80 % 15.76 C
1569 18-07-2019 10:40:00 19.7 C 78 % 15.76 C
1570 18-07-2019 10:45:00 20 C 77 % 15.85 C
1571 18-07-2019 10:50:00 20.3 C 77 % 16.14 C
1572 18-07-2019 10:55:00 20.5 C 75 % 15.92 C
1573 18-07-2019 11:00:00 20.7 C 76 % 16.32 C
1574 18-07-2019 11:05:00 20.8 C 74 % 16 C
1575 18-07-2019 11:10:00 20.9 C 73 % 15.88 C
Sensor: Nr:Datum:Temp:Feuchte:Taupunkt:
Aussen-T/F 1576 18-07-2019 11:15:00 21.1 C 68 % 14.97 C
1577 18-07-2019 11:20:00 21.3 C 64 % 14.22 C
1578 18-07-2019 11:25:00 21.7 C 62 % 14.1 C
1579 18-07-2019 11:30:00 22.1 C 62 % 14.48 C
1580 18-07-2019 11:35:00 22.3 C 60 % 14.16 C
1581 18-07-2019 11:40:00 22.6 C 60 % 14.44 C
1582 18-07-2019 11:45:00 22.9 C 58 % 14.2 C
1583 18-07-2019 11:50:00 23.1 C 58 % 14.39 C
1584 18-07-2019 11:55:00 23.2 C 58 % 14.48 C
1585 18-07-2019 12:00:00 23.3 C 59 % 14.84 C
1586 18-07-2019 12:05:00 23.4 C 57 % 14.4 C
1587 18-07-2019 12:10:00 23.6 C 55 % 14.03 C
1588 18-07-2019 12:15:00 23.8 C 56 % 14.5 C
1589 18-07-2019 12:20:00 23.9 C 54 % 14.03 C
1590 18-07-2019 12:25:00 24.3 C 54 % 14.4 C
1591 18-07-2019 12:30:00 24.5 C 54 % 14.58 C
1592 18-07-2019 12:35:00 24.7 C 53 % 14.48 C
1593 18-07-2019 12:40:00 24.7 C 52 % 14.19 C
1594 18-07-2019 12:45:00 24.7 C 52 % 14.19 C
1595 18-07-2019 12:50:00 24.7 C 54 % 14.77 C
1596 18-07-2019 12:55:00 24.6 C 50 % 13.49 C
1597 18-07-2019 13:00:00 24.8 C 51 % 13.98 C
1598 18-07-2019 13:05:00 24.9 C 50 % 13.77 C
1599 18-07-2019 13:10:00 25.1 C 50 % 13.95 C
1600 18-07-2019 13:15:00 25.2 C 50 % 14.04 C
Sensor: Nr:Datum:Temp:Feuchte:Taupunkt:
Aussen-T/F 1601 18-07-2019 13:20:00 25.4 C 50 % 14.22 C
1602 18-07-2019 13:25:00 25.6 C 49 % 14.1 C
1603 18-07-2019 13:30:00 25.8 C 49 % 14.28 C
1604 18-07-2019 13:35:00 26.1 C 50 % 14.87 C
1605 18-07-2019 13:40:00 26.3 C 50 % 15.05 C
1606 18-07-2019 13:45:00 26.3 C 47 % 14.09 C
1607 18-07-2019 13:50:00 26.4 C 49 % 14.83 C
1608 18-07-2019 13:55:00 26.7 C 44 % 13.44 C
1609 18-07-2019 14:00:00 26.8 C 42 % 12.82 C
1610 18-07-2019 14:05:00 27 C 45 % 14.06 C
1611 18-07-2019 14:10:00 27.3 C 42 % 13.27 C
1612 18-07-2019 14:15:00 27.4 C 41 % 12.99 C
1613 18-07-2019 14:20:00 27.6 C 40 % 12.79 C
1614 18-07-2019 14:25:00 27.5 C 39 % 12.31 C
1615 18-07-2019 14:30:00 27.3 C 41 % 12.9 C
1616 18-07-2019 14:35:00 27.2 C 42 % 13.18 C
1617 18-07-2019 14:40:00 27.2 C 40 % 12.43 C
1618 18-07-2019 14:45:00 27.2 C 42 % 13.18 C
1619 18-07-2019 14:50:00 27.1 C 39 % 11.96 C
1620 18-07-2019 14:55:00 26.9 C 40 % 12.16 C
1621 18-07-2019 15:00:00 26.8 C 39 % 11.69 C
1622 18-07-2019 15:05:00 26.8 C 45 % 13.87 C
1623 18-07-2019 15:10:00 26.6 C 42 % 12.64 C
1624 18-07-2019 15:15:00 26.3 C 44 % 13.08 C
1625 18-07-2019 15:20:00 26.1 C 44 % 12.9 C
Sensor: Nr:Datum:Temp:Feuchte:Taupunkt:
Aussen-T/F 1626 18-07-2019 15:25:00 25.9 C 48 % 14.05 C
1627 18-07-2019 15:30:00 25.8 C 50 % 14.59 C
1628 18-07-2019 15:35:00 25.7 C 43 % 12.19 C
1629 18-07-2019 15:40:00 25.7 C 44 % 12.54 C
1630 18-07-2019 15:45:00 25.6 C 43 % 12.1 C
1631 18-07-2019 15:50:00 25.6 C 45 % 12.79 C
1632 18-07-2019 15:55:00 25.6 C 52 % 15.02 C
1633 18-07-2019 16:00:00 25.5 C 52 % 14.92 C
1634 18-07-2019 16:05:00 25.2 C 51 % 14.35 C
1635 18-07-2019 16:10:00 24.9 C 53 % 14.66 C
1636 18-07-2019 16:15:00 24.7 C 55 % 15.05 C
1637 18-07-2019 16:20:00 24.5 C 57 % 15.42 C
1638 18-07-2019 16:25:00 24.6 C 51 % 13.79 C
1639 18-07-2019 16:30:00 24.6 C 50 % 13.49 C
1640 18-07-2019 16:35:00 24.6 C 50 % 13.49 C
1641 18-07-2019 16:40:00 24.5 C 52 % 14 C
1642 18-07-2019 16:45:00 24.6 C 52 % 14.09 C
1643 18-07-2019 16:50:00 24.7 C 51 % 13.89 C
1644 18-07-2019 16:55:00 24.8 C 55 % 15.15 C
1645 18-07-2019 17:00:00 24.9 C 50 % 13.77 C
1646 18-07-2019 17:05:00 24.9 C 50 % 13.77 C
1647 18-07-2019 17:10:00 24.9 C 53 % 14.66 C
1648 18-07-2019 17:15:00 24.8 C 54 % 14.86 C
1649 18-07-2019 17:20:00 24.8 C 57 % 15.7 C
1650 18-07-2019 17:25:00 24.8 C 55 % 15.15 C
Sensor: Nr:Datum:Temp:Feuchte:Taupunkt:
Aussen-T/F 1651 18-07-2019 17:30:00 24.8 C 55 % 15.15 C
1652 18-07-2019 17:35:00 24.9 C 57 % 15.8 C
1653 18-07-2019 17:40:00 24.9 C 58 % 16.07 C
1654 18-07-2019 17:45:00 24.8 C 59 % 16.24 C
1655 18-07-2019 17:50:00 24.8 C 62 % 17.02 C
1656 18-07-2019 17:55:00 24.8 C 63 % 17.28 C
1657 18-07-2019 18:00:00 24.7 C 56 % 15.33 C
1658 18-07-2019 18:05:00 24.8 C 61 % 16.77 C
1659 18-07-2019 18:10:00 24.8 C 60 % 16.51 C
1660 18-07-2019 18:15:00 24.8 C 52 % 14.28 C
1661 18-07-2019 18:20:00 24.7 C 54 % 14.77 C
1662 18-07-2019 18:25:00 24.7 C 51 % 13.89 C
1663 18-07-2019 18:30:00 24.6 C 66 % 17.83 C
1664 18-07-2019 18:35:00 24.2 C 66 % 17.45 C
1665 18-07-2019 18:40:00 23.5 C 70 % 17.71 C
1666 18-07-2019 18:45:00 22.8 C 71 % 17.27 C
1667 18-07-2019 18:50:00 22.3 C 73 % 17.23 C
1668 18-07-2019 18:55:00 21.8 C 73 % 16.75 C
1669 18-07-2019 19:00:00 21.6 C 74 % 16.77 C
1670 18-07-2019 19:05:00 21.4 C 75 % 16.79 C
1671 18-07-2019 19:10:00 21.3 C 76 % 16.9 C
1672 18-07-2019 19:15:00 21.2 C 75 % 16.59 C
1673 18-07-2019 19:20:00 21.2 C 76 % 16.8 C
1674 18-07-2019 19:25:00 21.1 C 75 % 16.5 C
1675 18-07-2019 19:30:00 21 C 75 % 16.4 C
Sensor: Nr:Datum:Temp:Feuchte:Taupunkt:
Aussen-T/F 1676 18-07-2019 19:35:00 20.9 C 75 % 16.3 C
1677 18-07-2019 19:40:00 20.9 C 74 % 16.09 C
1678 18-07-2019 19:45:00 20.8 C 73 % 15.78 C
1679 18-07-2019 19:50:00 20.7 C 72 % 15.47 C
1680 18-07-2019 19:55:00 20.7 C 71 % 15.25 C
1681 18-07-2019 20:00:00 20.7 C 72 % 15.47 C
1682 18-07-2019 20:05:00 20.7 C 71 % 15.25 C
1683 18-07-2019 20:10:00 20.8 C 72 % 15.57 C
1684 18-07-2019 20:15:00 20.8 C 71 % 15.35 C
1685 18-07-2019 20:20:00 20.9 C 70 % 15.23 C
1686 18-07-2019 20:25:00 21 C 70 % 15.32 C
1687 18-07-2019 20:30:00 21 C 69 % 15.1 C
1688 18-07-2019 20:35:00 21 C 69 % 15.1 C
1689 18-07-2019 20:40:00 21 C 69 % 15.1 C
1690 18-07-2019 20:45:00 20.9 C 69 % 15 C
1691 18-07-2019 20:50:00 20.8 C 69 % 14.91 C
1692 18-07-2019 20:55:00 20.8 C 69 % 14.91 C
1693 18-07-2019 21:00:00 20.8 C 68 % 14.68 C
1694 18-07-2019 21:05:00 20.7 C 68 % 14.58 C
1695 18-07-2019 21:10:00 20.6 C 69 % 14.71 C
1696 18-07-2019 21:15:00 20.6 C 68 % 14.49 C
1697 18-07-2019 21:20:00 20.4 C 69 % 14.52 C
1698 18-07-2019 21:25:00 20.4 C 69 % 14.52 C
1699 18-07-2019 21:30:00 20.3 C 69 % 14.43 C
1700 18-07-2019 21:35:00 20.2 C 69 % 14.33 C
Sensor: Nr:Datum:Temp:Feuchte:Taupunkt:
Aussen-T/F 1701 18-07-2019 21:40:00 20.2 C 70 % 14.56 C
1702 18-07-2019 21:45:00 20.1 C 70 % 14.46 C
1703 18-07-2019 21:50:00 20 C 70 % 14.36 C
1704 18-07-2019 21:55:00 19.9 C 70 % 14.27 C
1705 18-07-2019 22:00:00 19.8 C 70 % 14.17 C
1706 18-07-2019 22:05:00 19.8 C 71 % 14.39 C
1707 18-07-2019 22:10:00 19.8 C 71 % 14.39 C
1708 18-07-2019 22:15:00 19.7 C 71 % 14.3 C
1709 18-07-2019 22:20:00 19.7 C 71 % 14.3 C
1710 18-07-2019 22:25:00 19.7 C 72 % 14.51 C
1711 18-07-2019 22:30:00 19.7 C 73 % 14.73 C
1712 18-07-2019 22:35:00 19.7 C 73 % 14.73 C
1713 18-07-2019 22:40:00 19.6 C 72 % 14.42 C
1714 18-07-2019 22:45:00 19.6 C 72 % 14.42 C
1715 18-07-2019 22:50:00 19.5 C 72 % 14.32 C
1716 18-07-2019 22:55:00 19.4 C 72 % 14.22 C
1717 18-07-2019 23:00:00 19.4 C 72 % 14.22 C
1718 18-07-2019 23:05:00 19.4 C 72 % 14.22 C
1719 18-07-2019 23:10:00 19.4 C 72 % 14.22 C
1720 18-07-2019 23:15:00 19.3 C 72 % 14.13 C
1721 18-07-2019 23:20:00 19.3 C 73 % 14.34 C
1722 18-07-2019 23:25:00 19.3 C 73 % 14.34 C
1723 18-07-2019 23:30:00 19.3 C 73 % 14.34 C
1724 18-07-2019 23:35:00 19.3 C 73 % 14.34 C
1725 18-07-2019 23:40:00 19.3 C 72 % 14.13 C
Sensor: Nr:Datum:Temp:Feuchte:Taupunkt:
Aussen-T/F 1726 18-07-2019 23:45:00 19.4 C 73 % 14.44 C
1727 18-07-2019 23:50:00 19.4 C 73 % 14.44 C
1728 18-07-2019 23:55:00 19.5 C 72 % 14.32 C
1729 19-07-2019 00:00:00 19.6 C 72 % 14.42 C
1730 19-07-2019 00:05:00 19.6 C 73 % 14.63 C
1731 19-07-2019 00:10:00 19.5 C 73 % 14.53 C
1732 19-07-2019 00:15:00 19.5 C 74 % 14.74 C
1733 19-07-2019 00:20:00 19.4 C 74 % 14.65 C
1734 19-07-2019 00:25:00 19.3 C 74 % 14.55 C
1735 19-07-2019 00:30:00 19.3 C 74 % 14.55 C
1736 19-07-2019 00:35:00 19.2 C 74 % 14.46 C
1737 19-07-2019 00:40:00 19.2 C 74 % 14.46 C
1738 19-07-2019 00:45:00 19.2 C 75 % 14.66 C
1739 19-07-2019 00:50:00 19.1 C 76 % 14.77 C
1740 19-07-2019 00:55:00 19.1 C 76 % 14.77 C
1741 19-07-2019 01:00:00 19 C 76 % 14.68 C
1742 19-07-2019 01:05:00 18.9 C 77 % 14.78 C
1743 19-07-2019 01:10:00 18.9 C 78 % 14.98 C
1744 19-07-2019 01:15:00 18.9 C 79 % 15.18 C
1745 19-07-2019 01:20:00 18.8 C 81 % 15.47 C
1746 19-07-2019 01:25:00 18.7 C 83 % 15.75 C
1747 19-07-2019 01:30:00 18.5 C 84 % 15.75 C
1748 19-07-2019 01:35:00 18.3 C 84 % 15.55 C
1749 19-07-2019 01:40:00 18.1 C 85 % 15.54 C
1750 19-07-2019 01:45:00 17.9 C 87 % 15.71 C
Sensor: Nr:Datum:Temp:Feuchte:Taupunkt:
Aussen-T/F 1751 19-07-2019 01:50:00 17.8 C 87 % 15.61 C
1752 19-07-2019 01:55:00 17.7 C 88 % 15.69 C
1753 19-07-2019 02:00:00 17.6 C 88 % 15.59 C
1754 19-07-2019 02:05:00 17.4 C 89 % 15.57 C
1755 19-07-2019 02:10:00 17.3 C 89 % 15.47 C
1756 19-07-2019 02:15:00 17.2 C 89 % 15.37 C
1757 19-07-2019 02:20:00 17.1 C 89 % 15.27 C
1758 19-07-2019 02:25:00 17 C 90 % 15.35 C
1759 19-07-2019 02:30:00 16.9 C 90 % 15.25 C
1760 19-07-2019 02:35:00 16.9 C 91 % 15.42 C
1761 19-07-2019 02:40:00 16.9 C 91 % 15.42 C
1762 19-07-2019 02:45:00 16.8 C 91 % 15.32 C
1763 19-07-2019 02:50:00 16.8 C 91 % 15.32 C
1764 19-07-2019 02:55:00 16.8 C 91 % 15.32 C
1765 19-07-2019 03:00:00 16.7 C 91 % 15.22 C
1766 19-07-2019 03:05:00 16.7 C 91 % 15.22 C
1767 19-07-2019 03:10:00 16.7 C 92 % 15.39 C
1768 19-07-2019 03:15:00 16.7 C 92 % 15.39 C
1769 19-07-2019 03:20:00 16.6 C 92 % 15.3 C
1770 19-07-2019 03:25:00 16.6 C 92 % 15.3 C
1771 19-07-2019 03:30:00 16.6 C 93 % 15.46 C
1772 19-07-2019 03:35:00 16.6 C 93 % 15.46 C
1773 19-07-2019 03:40:00 16.6 C 93 % 15.46 C
1774 19-07-2019 03:45:00 16.5 C 93 % 15.36 C
1775 19-07-2019 03:50:00 16.5 C 93 % 15.36 C
Sensor: Nr:Datum:Temp:Feuchte:Taupunkt:
Aussen-T/F 1776 19-07-2019 03:55:00 16.5 C 93 % 15.36 C
1777 19-07-2019 04:00:00 16.5 C 93 % 15.36 C
1778 19-07-2019 04:05:00 16.4 C 93 % 15.27 C
1779 19-07-2019 04:10:00 16.4 C 93 % 15.27 C
1780 19-07-2019 04:15:00 16.4 C 93 % 15.27 C
1781 19-07-2019 04:20:00 16.4 C 93 % 15.27 C
1782 19-07-2019 04:25:00 16.4 C 93 % 15.27 C
1783 19-07-2019 04:30:00 16.4 C 93 % 15.27 C
1784 19-07-2019 04:35:00 16.4 C 94 % 15.43 C
1785 19-07-2019 04:40:00 16.3 C 94 % 15.33 C
1786 19-07-2019 04:45:00 16.3 C 94 % 15.33 C
1787 19-07-2019 04:50:00 16.3 C 94 % 15.33 C
1788 19-07-2019 04:55:00 16.3 C 94 % 15.33 C
1789 19-07-2019 05:00:00 16.3 C 94 % 15.33 C
1790 19-07-2019 05:05:00 16.3 C 94 % 15.33 C
1791 19-07-2019 05:10:00 16.3 C 94 % 15.33 C
1792 19-07-2019 05:15:00 16.3 C 94 % 15.33 C
1793 19-07-2019 05:20:00 16.3 C 94 % 15.33 C
1794 19-07-2019 05:25:00 16.3 C 94 % 15.33 C
1795 19-07-2019 05:30:00 16.3 C 94 % 15.33 C
1796 19-07-2019 05:35:00 16.3 C 94 % 15.33 C
1797 19-07-2019 05:40:00 16.3 C 94 % 15.33 C
1798 19-07-2019 05:45:00 16.3 C 94 % 15.33 C
1799 19-07-2019 05:50:00 16.3 C 95 % 15.5 C
1800 19-07-2019 05:55:00 16.3 C 95 % 15.5 C
Sensor: Nr:Datum:Temp:Feuchte:Taupunkt:
Aussen-T/F 1801 19-07-2019 06:00:00 16.3 C 95 % 15.5 C
1802 19-07-2019 06:05:00 16.3 C 95 % 15.5 C
1803 19-07-2019 06:10:00 16.3 C 95 % 15.5 C
1804 19-07-2019 06:15:00 16.3 C 95 % 15.5 C
1805 19-07-2019 06:20:00 16.3 C 95 % 15.5 C
1806 19-07-2019 06:25:00 16.3 C 95 % 15.5 C
1807 19-07-2019 06:30:00 16.4 C 95 % 15.6 C
1808 19-07-2019 06:35:00 16.4 C 95 % 15.6 C
1809 19-07-2019 06:40:00 16.4 C 95 % 15.6 C
1810 19-07-2019 06:45:00 16.4 C 95 % 15.6 C
1811 19-07-2019 06:50:00 16.4 C 95 % 15.6 C
1812 19-07-2019 06:55:00 16.4 C 95 % 15.6 C
1813 19-07-2019 07:00:00 16.5 C 95 % 15.7 C
1814 19-07-2019 07:05:00 16.6 C 95 % 15.8 C
1815 19-07-2019 07:10:00 16.6 C 95 % 15.8 C
1816 19-07-2019 07:15:00 16.6 C 95 % 15.8 C
1817 19-07-2019 07:20:00 16.6 C 95 % 15.8 C
1818 19-07-2019 07:25:00 16.7 C 95 % 15.9 C
1819 19-07-2019 07:30:00 16.7 C 95 % 15.9 C
1820 19-07-2019 07:35:00 16.7 C 95 % 15.9 C
1821 19-07-2019 07:40:00 16.8 C 95 % 15.99 C
1822 19-07-2019 07:45:00 16.8 C 96 % 16.16 C
1823 19-07-2019 07:50:00 16.9 C 96 % 16.26 C
1824 19-07-2019 07:55:00 16.9 C 96 % 16.26 C
1825 19-07-2019 08:00:00 16.9 C 96 % 16.26 C
Sensor: Nr:Datum:Temp:Feuchte:Taupunkt:
Aussen-T/F 1826 19-07-2019 08:05:00 16.9 C 96 % 16.26 C
1827 19-07-2019 08:10:00 17 C 96 % 16.36 C
1828 19-07-2019 08:15:00 17.1 C 96 % 16.46 C
1829 19-07-2019 08:20:00 17.1 C 96 % 16.46 C
1830 19-07-2019 08:25:00 17.2 C 96 % 16.56 C
1831 19-07-2019 08:30:00 17.3 C 96 % 16.66 C
1832 19-07-2019 08:35:00 17.4 C 96 % 16.76 C
1833 19-07-2019 08:40:00 17.4 C 96 % 16.76 C
1834 19-07-2019 08:45:00 17.4 C 96 % 16.76 C
1835 19-07-2019 08:50:00 17.5 C 96 % 16.85 C
1836 19-07-2019 08:55:00 17.6 C 96 % 16.95 C
1837 19-07-2019 09:00:00 17.7 C 96 % 17.05 C
1838 19-07-2019 09:05:00 17.8 C 96 % 17.15 C
1839 19-07-2019 09:10:00 17.8 C 96 % 17.15 C
1840 19-07-2019 09:15:00 17.8 C 95 % 16.99 C
1841 19-07-2019 09:20:00 17.9 C 95 % 17.09 C
1842 19-07-2019 09:25:00 17.9 C 95 % 17.09 C
1843 19-07-2019 09:30:00 18.1 C 95 % 17.29 C
1844 19-07-2019 09:35:00 18.1 C 95 % 17.29 C
1845 19-07-2019 09:40:00 18.2 C 94 % 17.22 C
1846 19-07-2019 09:45:00 18.3 C 94 % 17.32 C
1847 19-07-2019 09:50:00 18.3 C 94 % 17.32 C
1848 19-07-2019 09:55:00 18.4 C 93 % 17.25 C
1849 19-07-2019 10:00:00 18.6 C 93 % 17.45 C
1850 19-07-2019 10:05:00 18.8 C 94 % 17.81 C
Sensor: Nr:Datum:Temp:Feuchte:Taupunkt:
Aussen-T/F 1851 19-07-2019 10:10:00 18.9 C 92 % 17.57 C
1852 19-07-2019 10:15:00 19 C 92 % 17.67 C
1853 19-07-2019 10:20:00 19.1 C 91 % 17.6 C
1854 19-07-2019 10:25:00 19.1 C 90 % 17.42 C
1855 19-07-2019 10:30:00 19.3 C 90 % 17.62 C
1856 19-07-2019 10:35:00 19.5 C 89 % 17.64 C
1857 19-07-2019 10:40:00 19.6 C 89 % 17.74 C
1858 19-07-2019 10:45:00 19.7 C 88 % 17.66 C
1859 19-07-2019 10:50:00 19.8 C 89 % 17.93 C
1860 19-07-2019 10:55:00 19.9 C 87 % 17.67 C
1861 19-07-2019 11:00:00 19.9 C 87 % 17.67 C
1862 19-07-2019 11:05:00 20 C 87 % 17.77 C
1863 19-07-2019 11:10:00 20 C 85 % 17.4 C
1864 19-07-2019 11:15:00 20.1 C 85 % 17.5 C
1865 19-07-2019 11:20:00 20.3 C 85 % 17.7 C
1866 19-07-2019 11:25:00 20.6 C 84 % 17.8 C
1867 19-07-2019 11:30:00 20.8 C 83 % 17.81 C
1868 19-07-2019 11:35:00 20.9 C 83 % 17.9 C
1869 19-07-2019 11:40:00 20.9 C 81 % 17.52 C
1870 19-07-2019 11:45:00 20.8 C 81 % 17.42 C
1871 19-07-2019 11:50:00 20.7 C 82 % 17.52 C
1872 19-07-2019 11:55:00 20.7 C 81 % 17.32 C
1873 19-07-2019 12:00:00 20.4 C 83 % 17.42 C
1874 19-07-2019 12:05:00 20.2 C 84 % 17.41 C
1875 19-07-2019 12:10:00 20.1 C 86 % 17.68 C
Sensor: Nr:Datum:Temp:Feuchte:Taupunkt:
Aussen-T/F 1876 19-07-2019 12:15:00 20.1 C 88 % 18.05 C
1877 19-07-2019 12:20:00 19.9 C 88 % 17.85 C
1878 19-07-2019 12:25:00 19.8 C 87 % 17.57 C
1879 19-07-2019 12:30:00 19.7 C 88 % 17.66 C
1880 19-07-2019 12:35:00 19.7 C 87 % 17.47 C
1881 19-07-2019 12:40:00 19.8 C 87 % 17.57 C
1882 19-07-2019 12:45:00 20.1 C 87 % 17.87 C
1883 19-07-2019 12:50:00 20.3 C 85 % 17.7 C
1884 19-07-2019 12:55:00 20.4 C 84 % 17.61 C
1885 19-07-2019 13:00:00 20.6 C 85 % 17.99 C
1886 19-07-2019 13:05:00 20.7 C 85 % 18.09 C
1887 19-07-2019 13:10:00 20.9 C 83 % 17.9 C
1888 19-07-2019 13:15:00 21.2 C 78 % 17.21 C
1889 19-07-2019 13:20:00 21.6 C 76 % 17.19 C
1890 19-07-2019 13:25:00 22.1 C 75 % 17.46 C
1891 19-07-2019 13:30:00 22.5 C 74 % 17.63 C
1892 19-07-2019 13:35:00 22.8 C 70 % 17.04 C
1893 19-07-2019 13:40:00 22.9 C 69 % 16.91 C
1894 19-07-2019 13:45:00 22.9 C 67 % 16.45 C
1895 19-07-2019 13:50:00 22.8 C 67 % 16.35 C
1896 19-07-2019 13:55:00 22.7 C 69 % 16.72 C
1897 19-07-2019 14:00:00 22.7 C 71 % 17.17 C
1898 19-07-2019 14:05:00 22.7 C 69 % 16.72 C
1899 19-07-2019 14:10:00 22.7 C 69 % 16.72 C
1900 19-07-2019 14:15:00 22.8 C 71 % 17.27 C
Sensor: Nr:Datum:Temp:Feuchte:Taupunkt:
Aussen-T/F 1901 19-07-2019 14:20:00 23 C 62 % 15.33 C
1902 19-07-2019 14:25:00 23.4 C 62 % 15.71 C
1903 19-07-2019 14:30:00 23.8 C 56 % 14.5 C
1904 19-07-2019 14:35:00 23.9 C 56 % 14.59 C
1905 19-07-2019 14:40:00 24.2 C 57 % 15.14 C
1906 19-07-2019 14:45:00 24.4 C 51 % 13.61 C
1907 19-07-2019 14:50:00 24.3 C 54 % 14.4 C
1908 19-07-2019 14:55:00 24.4 C 53 % 14.2 C
1909 19-07-2019 15:00:00 24.5 C 54 % 14.58 C
1910 19-07-2019 15:05:00 24.6 C 51 % 13.79 C
1911 19-07-2019 15:10:00 24.6 C 54 % 14.68 C
1912 19-07-2019 15:15:00 24.8 C 54 % 14.86 C
1913 19-07-2019 15:20:00 25 C 54 % 15.05 C
1914 19-07-2019 15:25:00 24.9 C 53 % 14.66 C
1915 19-07-2019 15:30:00 24.9 C 51 % 14.07 C
1916 19-07-2019 15:35:00 25.1 C 52 % 14.55 C
1917 19-07-2019 15:40:00 25.2 C 54 % 15.23 C
1918 19-07-2019 15:45:00 25.1 C 53 % 14.85 C
1919 19-07-2019 15:50:00 24.9 C 53 % 14.66 C
1920 19-07-2019 15:55:00 24.9 C 51 % 14.07 C
1921 19-07-2019 16:00:00 24.9 C 52 % 14.37 C
1922 19-07-2019 16:05:00 24.9 C 50 % 13.77 C
1923 19-07-2019 16:10:00 24.9 C 51 % 14.07 C
1924 19-07-2019 16:15:00 24.9 C 50 % 13.77 C
1925 19-07-2019 16:20:00 25 C 52 % 14.46 C
Sensor: Nr:Datum:Temp:Feuchte:Taupunkt:
Aussen-T/F 1926 19-07-2019 16:25:00 25 C 51 % 14.16 C
1927 19-07-2019 16:30:00 25.2 C 50 % 14.04 C
1928 19-07-2019 16:35:00 25.4 C 50 % 14.22 C
1929 19-07-2019 16:40:00 25.7 C 50 % 14.5 C
1930 19-07-2019 16:45:00 25.8 C 50 % 14.59 C
1931 19-07-2019 16:50:00 25.6 C 51 % 14.71 C
1932 19-07-2019 16:55:00 25.3 C 50 % 14.13 C
1933 19-07-2019 17:00:00 25.5 C 51 % 14.62 C
1934 19-07-2019 17:05:00 25.9 C 51 % 14.99 C
1935 19-07-2019 17:10:00 26 C 51 % 15.08 C
1936 19-07-2019 17:15:00 26.1 C 49 % 14.55 C
1937 19-07-2019 17:20:00 26.3 C 48 % 14.42 C
1938 19-07-2019 17:25:00 26.5 C 46 % 13.94 C
1939 19-07-2019 17:30:00 26.2 C 47 % 14 C
1940 19-07-2019 17:35:00 26 C 49 % 14.46 C
1941 19-07-2019 17:40:00 25.8 C 48 % 13.96 C
1942 19-07-2019 17:45:00 25.6 C 51 % 14.71 C
1943 19-07-2019 17:50:00 25.4 C 53 % 15.13 C
1944 19-07-2019 17:55:00 25.7 C 51 % 14.81 C
1945 19-07-2019 18:00:00 25.9 C 50 % 14.68 C
1946 19-07-2019 18:05:00 25.9 C 50 % 14.68 C
1947 19-07-2019 18:10:00 25.7 C 49 % 14.19 C
1948 19-07-2019 18:15:00 25.7 C 49 % 14.19 C
1949 19-07-2019 18:20:00 25.6 C 50 % 14.41 C
1950 19-07-2019 18:25:00 25.4 C 49 % 13.91 C
Sensor: Nr:Datum:Temp:Feuchte:Taupunkt:
Aussen-T/F 1951 19-07-2019 18:30:00 25.3 C 50 % 14.13 C
1952 19-07-2019 18:35:00 25.3 C 50 % 14.13 C
1953 19-07-2019 18:40:00 25.2 C 54 % 15.23 C
1954 19-07-2019 18:45:00 25.2 C 52 % 14.65 C
1955 19-07-2019 18:50:00 25.1 C 58 % 16.26 C
1956 19-07-2019 18:55:00 24.9 C 52 % 14.37 C
1957 19-07-2019 19:00:00 24.8 C 53 % 14.57 C
1958 19-07-2019 19:05:00 24.9 C 59 % 16.34 C
1959 19-07-2019 19:10:00 24.9 C 60 % 16.6 C
1960 19-07-2019 19:15:00 25.1 C 52 % 14.55 C
1961 19-07-2019 19:20:00 25.2 C 63 % 17.65 C
1962 19-07-2019 19:25:00 25.1 C 60 % 16.79 C
1963 19-07-2019 19:30:00 24.9 C 63 % 17.37 C
1964 19-07-2019 19:35:00 24.8 C 63 % 17.28 C
1965 19-07-2019 19:40:00 24.7 C 62 % 16.93 C
1966 19-07-2019 19:45:00 24.5 C 60 % 16.23 C
1967 19-07-2019 19:50:00 24.3 C 62 % 16.55 C
1968 19-07-2019 19:55:00 24.2 C 65 % 17.2 C
1969 19-07-2019 20:00:00 24.1 C 64 % 16.86 C
1970 19-07-2019 20:05:00 23.9 C 64 % 16.68 C
1971 19-07-2019 20:10:00 23.8 C 63 % 16.33 C
1972 19-07-2019 20:15:00 23.7 C 63 % 16.24 C
1973 19-07-2019 20:20:00 23.7 C 65 % 16.73 C
1974 19-07-2019 20:25:00 23.5 C 63 % 16.05 C
1975 19-07-2019 20:30:00 23.3 C 63 % 15.86 C
Sensor: Nr:Datum:Temp:Feuchte:Taupunkt:
Aussen-T/F 1976 19-07-2019 20:35:00 23.1 C 63 % 15.67 C
1977 19-07-2019 20:40:00 22.8 C 64 % 15.64 C
1978 19-07-2019 20:45:00 22.6 C 66 % 15.93 C
1979 19-07-2019 20:50:00 22.4 C 66 % 15.74 C
1980 19-07-2019 20:55:00 22.2 C 67 % 15.78 C
1981 19-07-2019 21:00:00 22 C 67 % 15.59 C
1982 19-07-2019 21:05:00 21.8 C 68 % 15.63 C
1983 19-07-2019 21:10:00 21.6 C 69 % 15.67 C
1984 19-07-2019 21:15:00 21.3 C 70 % 15.61 C
1985 19-07-2019 21:20:00 21.1 C 70 % 15.42 C
1986 19-07-2019 21:25:00 20.9 C 72 % 15.66 C
1987 19-07-2019 21:30:00 20.8 C 72 % 15.57 C
1988 19-07-2019 21:35:00 20.7 C 73 % 15.69 C
1989 19-07-2019 21:40:00 20.4 C 73 % 15.4 C
1990 19-07-2019 21:45:00 20.3 C 74 % 15.51 C
1991 19-07-2019 21:50:00 20.1 C 75 % 15.53 C
1992 19-07-2019 21:55:00 19.9 C 76 % 15.54 C
1993 19-07-2019 22:00:00 19.8 C 76 % 15.45 C
1994 19-07-2019 22:05:00 19.6 C 77 % 15.46 C
1995 19-07-2019 22:10:00 19.5 C 78 % 15.56 C
1996 19-07-2019 22:15:00 19.3 C 78 % 15.37 C
1997 19-07-2019 22:20:00 19.2 C 79 % 15.47 C
1998 19-07-2019 22:25:00 19.2 C 79 % 15.47 C
1999 19-07-2019 22:30:00 19.1 C 80 % 15.57 C
2000 19-07-2019 22:35:00 19.1 C 80 % 15.57 C
Sensor: Nr:Datum:Temp:Feuchte:Taupunkt:
Aussen-T/F 2001 19-07-2019 22:40:00 19 C 80 % 15.47 C
2002 19-07-2019 22:45:00 18.9 C 80 % 15.38 C
2003 19-07-2019 22:50:00 18.9 C 81 % 15.57 C
2004 19-07-2019 22:55:00 18.9 C 81 % 15.57 C
2005 19-07-2019 23:00:00 18.8 C 81 % 15.47 C
2006 19-07-2019 23:05:00 18.8 C 82 % 15.66 C
2007 19-07-2019 23:10:00 18.8 C 82 % 15.66 C
2008 19-07-2019 23:15:00 18.7 C 82 % 15.57 C
2009 19-07-2019 23:20:00 18.7 C 82 % 15.57 C
2010 19-07-2019 23:25:00 18.6 C 83 % 15.66 C
2011 19-07-2019 23:30:00 18.5 C 83 % 15.56 C
2012 19-07-2019 23:35:00 18.4 C 83 % 15.46 C
2013 19-07-2019 23:40:00 18.4 C 84 % 15.65 C
2014 19-07-2019 23:45:00 18.3 C 84 % 15.55 C
2015 19-07-2019 23:50:00 18.2 C 84 % 15.45 C
2016 19-07-2019 23:55:00 18.1 C 85 % 15.54 C
2017 20-07-2019 00:00:00 17.9 C 85 % 15.34 C
2018 20-07-2019 00:05:00 17.8 C 86 % 15.43 C
2019 20-07-2019 00:10:00 17.7 C 85 % 15.15 C
2020 20-07-2019 00:15:00 17.6 C 85 % 15.05 C
2021 20-07-2019 00:20:00 17.5 C 86 % 15.13 C
2022 20-07-2019 00:25:00 17.4 C 86 % 15.03 C
2023 20-07-2019 00:30:00 17.3 C 86 % 14.94 C
2024 20-07-2019 00:35:00 17.2 C 87 % 15.02 C
2025 20-07-2019 00:40:00 17.2 C 87 % 15.02 C
Sensor: Nr:Datum:Temp:Feuchte:Taupunkt:
Aussen-T/F 2026 20-07-2019 00:45:00 17.1 C 87 % 14.92 C
2027 20-07-2019 00:50:00 17.1 C 87 % 14.92 C
2028 20-07-2019 00:55:00 16.9 C 87 % 14.72 C
2029 20-07-2019 01:00:00 17 C 87 % 14.82 C
2030 20-07-2019 01:05:00 16.9 C 87 % 14.72 C
2031 20-07-2019 01:10:00 16.9 C 87 % 14.72 C
2032 20-07-2019 01:15:00 16.8 C 88 % 14.8 C
2033 20-07-2019 01:20:00 16.7 C 88 % 14.7 C
2034 20-07-2019 01:25:00 16.6 C 88 % 14.6 C
2035 20-07-2019 01:30:00 16.5 C 89 % 14.68 C
2036 20-07-2019 01:35:00 16.4 C 89 % 14.58 C
2037 20-07-2019 01:40:00 16.4 C 89 % 14.58 C
2038 20-07-2019 01:45:00 16.4 C 89 % 14.58 C
2039 20-07-2019 01:50:00 16.3 C 89 % 14.48 C
2040 20-07-2019 01:55:00 16.3 C 89 % 14.48 C
2041 20-07-2019 02:00:00 16.2 C 90 % 14.56 C
2042 20-07-2019 02:05:00 16.2 C 90 % 14.56 C
2043 20-07-2019 02:10:00 16.1 C 90 % 14.46 C
2044 20-07-2019 02:15:00 15.9 C 90 % 14.26 C
2045 20-07-2019 02:20:00 15.9 C 90 % 14.26 C
2046 20-07-2019 02:25:00 15.8 C 90 % 14.16 C
2047 20-07-2019 02:30:00 15.7 C 90 % 14.06 C
2048 20-07-2019 02:35:00 15.6 C 91 % 14.14 C
2049 20-07-2019 02:40:00 15.5 C 91 % 14.04 C
2050 20-07-2019 02:45:00 15.4 C 91 % 13.94 C
Sensor: Nr:Datum:Temp:Feuchte:Taupunkt:
Aussen-T/F 2051 20-07-2019 02:50:00 15.3 C 91 % 13.84 C
2052 20-07-2019 02:55:00 15.3 C 92 % 14.01 C
2053 20-07-2019 03:00:00 15.3 C 92 % 14.01 C
2054 20-07-2019 03:05:00 15.2 C 92 % 13.91 C
2055 20-07-2019 03:10:00 15.2 C 92 % 13.91 C
2056 20-07-2019 03:15:00 15.2 C 92 % 13.91 C
2057 20-07-2019 03:20:00 15.1 C 92 % 13.81 C
2058 20-07-2019 03:25:00 15.1 C 92 % 13.81 C
2059 20-07-2019 03:30:00 15 C 93 % 13.88 C
2060 20-07-2019 03:35:00 14.9 C 92 % 13.61 C
2061 20-07-2019 03:40:00 14.9 C 93 % 13.78 C
2062 20-07-2019 03:45:00 14.8 C 93 % 13.68 C
2063 20-07-2019 03:50:00 14.8 C 93 % 13.68 C
2064 20-07-2019 03:55:00 14.8 C 93 % 13.68 C
2065 20-07-2019 04:00:00 14.8 C 93 % 13.68 C
2066 20-07-2019 04:05:00 14.7 C 93 % 13.58 C
2067 20-07-2019 04:10:00 14.7 C 93 % 13.58 C
2068 20-07-2019 04:15:00 14.7 C 93 % 13.58 C
2069 20-07-2019 04:20:00 14.6 C 93 % 13.48 C
2070 20-07-2019 04:25:00 14.6 C 93 % 13.48 C
2071 20-07-2019 04:30:00 14.6 C 93 % 13.48 C
2072 20-07-2019 04:35:00 14.5 C 94 % 13.55 C
2073 20-07-2019 04:40:00 14.4 C 94 % 13.45 C
2074 20-07-2019 04:45:00 14.4 C 94 % 13.45 C
2075 20-07-2019 04:50:00 14.4 C 94 % 13.45 C
Sensor: Nr:Datum:Temp:Feuchte:Taupunkt:
Aussen-T/F 2076 20-07-2019 04:55:00 14.3 C 94 % 13.35 C
2077 20-07-2019 05:00:00 14.3 C 94 % 13.35 C
2078 20-07-2019 05:05:00 14.3 C 94 % 13.35 C
2079 20-07-2019 05:10:00 14.3 C 94 % 13.35 C
2080 20-07-2019 05:15:00 14.2 C 94 % 13.25 C
2081 20-07-2019 05:20:00 14.2 C 94 % 13.25 C
2082 20-07-2019 05:25:00 14.2 C 95 % 13.41 C
2083 20-07-2019 05:30:00 14.2 C 94 % 13.25 C
2084 20-07-2019 05:35:00 14.2 C 94 % 13.25 C
2085 20-07-2019 05:40:00 14.1 C 94 % 13.15 C
2086 20-07-2019 05:45:00 14.1 C 94 % 13.15 C
2087 20-07-2019 05:50:00 14.1 C 94 % 13.15 C
2088 20-07-2019 05:55:00 14 C 94 % 13.05 C
2089 20-07-2019 06:00:00 14 C 94 % 13.05 C
2090 20-07-2019 06:05:00 13.9 C 95 % 13.11 C
2091 20-07-2019 06:10:00 13.9 C 95 % 13.11 C
2092 20-07-2019 06:15:00 13.9 C 95 % 13.11 C
2093 20-07-2019 06:20:00 13.9 C 95 % 13.11 C
2094 20-07-2019 06:25:00 13.9 C 95 % 13.11 C
2095 20-07-2019 06:30:00 13.9 C 95 % 13.11 C
2096 20-07-2019 06:35:00 13.9 C 95 % 13.11 C
2097 20-07-2019 06:40:00 13.9 C 95 % 13.11 C
2098 20-07-2019 06:45:00 14.1 C 95 % 13.31 C
2099 20-07-2019 06:50:00 14.1 C 95 % 13.31 C
2100 20-07-2019 06:55:00 14.2 C 95 % 13.41 C
Sensor: Nr:Datum:Temp:Feuchte:Taupunkt:
Aussen-T/F 2101 20-07-2019 07:00:00 14.2 C 95 % 13.41 C
2102 20-07-2019 07:05:00 14.2 C 95 % 13.41 C
2103 20-07-2019 07:10:00 14.3 C 95 % 13.51 C
2104 20-07-2019 07:15:00 14.4 C 96 % 13.77 C
2105 20-07-2019 07:20:00 14.4 C 96 % 13.77 C
2106 20-07-2019 07:25:00 14.5 C 96 % 13.87 C
2107 20-07-2019 07:30:00 14.6 C 96 % 13.97 C
2108 20-07-2019 07:35:00 14.7 C 96 % 14.07 C
2109 20-07-2019 07:40:00 14.8 C 96 % 14.17 C
2110 20-07-2019 07:45:00 14.8 C 96 % 14.17 C
2111 20-07-2019 07:50:00 14.9 C 96 % 14.27 C
2112 20-07-2019 07:55:00 15 C 96 % 14.37 C
2113 20-07-2019 08:00:00 15.1 C 96 % 14.47 C
2114 20-07-2019 08:05:00 15.3 C 96 % 14.67 C
2115 20-07-2019 08:10:00 15.4 C 96 % 14.77 C
2116 20-07-2019 08:15:00 15.5 C 96 % 14.86 C
2117 20-07-2019 08:20:00 15.7 C 96 % 15.06 C
2118 20-07-2019 08:25:00 15.8 C 96 % 15.16 C
2119 20-07-2019 08:30:00 15.9 C 96 % 15.26 C
2120 20-07-2019 08:35:00 16.1 C 96 % 15.46 C
2121 20-07-2019 08:40:00 16.2 C 96 % 15.56 C
2122 20-07-2019 08:45:00 16.3 C 96 % 15.66 C
2123 20-07-2019 08:50:00 16.5 C 96 % 15.86 C
2124 20-07-2019 08:55:00 16.6 C 96 % 15.96 C
2125 20-07-2019 09:00:00 16.8 C 96 % 16.16 C
Sensor: Nr:Datum:Temp:Feuchte:Taupunkt:
Aussen-T/F 2126 20-07-2019 09:05:00 16.9 C 96 % 16.26 C
2127 20-07-2019 09:10:00 17 C 96 % 16.36 C
2128 20-07-2019 09:15:00 17.2 C 96 % 16.56 C
2129 20-07-2019 09:20:00 17.3 C 96 % 16.66 C
2130 20-07-2019 09:25:00 17.6 C 95 % 16.79 C
2131 20-07-2019 09:30:00 17.8 C 95 % 16.99 C
2132 20-07-2019 09:35:00 17.9 C 95 % 17.09 C
2133 20-07-2019 09:40:00 18.2 C 94 % 17.22 C
2134 20-07-2019 09:45:00 18.4 C 94 % 17.42 C
2135 20-07-2019 09:50:00 18.7 C 93 % 17.54 C
2136 20-07-2019 09:55:00 19 C 92 % 17.67 C
2137 20-07-2019 10:00:00 19.3 C 91 % 17.79 C
2138 20-07-2019 10:05:00 19.8 C 91 % 18.29 C
2139 20-07-2019 10:10:00 20.2 C 89 % 18.33 C
2140 20-07-2019 10:15:00 20.7 C 89 % 18.82 C
2141 20-07-2019 10:20:00 21.1 C 88 % 19.03 C
2142 20-07-2019 10:25:00 21.4 C 88 % 19.33 C
2143 20-07-2019 10:30:00 21.8 C 88 % 19.72 C
2144 20-07-2019 10:35:00 22 C 87 % 19.74 C
2145 20-07-2019 10:40:00 22.3 C 87 % 20.03 C
2146 20-07-2019 10:45:00 22.5 C 86 % 20.04 C
2147 20-07-2019 10:50:00 22.7 C 83 % 19.66 C
2148 20-07-2019 10:55:00 23 C 80 % 19.36 C
2149 20-07-2019 11:00:00 23.3 C 75 % 18.62 C
2150 20-07-2019 11:05:00 23.7 C 73 % 18.57 C
Sensor: Nr:Datum:Temp:Feuchte:Taupunkt:
Aussen-T/F 2151 20-07-2019 11:10:00 24.2 C 73 % 19.05 C
2152 20-07-2019 11:15:00 24.7 C 69 % 18.63 C
2153 20-07-2019 11:20:00 25.3 C 67 % 18.73 C
2154 20-07-2019 11:25:00 25.7 C 64 % 18.38 C
2155 20-07-2019 11:30:00 26.3 C 62 % 18.44 C
2156 20-07-2019 11:35:00 26.8 C 56 % 17.29 C
2157 20-07-2019 11:40:00 27.2 C 55 % 17.37 C
2158 20-07-2019 11:45:00 27.3 C 54 % 17.18 C
2159 20-07-2019 11:50:00 27.4 C 56 % 17.84 C
2160 20-07-2019 11:55:00 27.7 C 55 % 17.84 C
2161 20-07-2019 12:00:00 27.7 C 51 % 16.64 C
2162 20-07-2019 12:05:00 27.7 C 52 % 16.95 C
2163 20-07-2019 12:10:00 27.8 C 53 % 17.34 C
2164 20-07-2019 12:15:00 27.8 C 52 % 17.04 C
2165 20-07-2019 12:20:00 27.8 C 51 % 16.73 C
2166 20-07-2019 12:25:00 27.8 C 51 % 16.73 C
2167 20-07-2019 12:30:00 27.8 C 51 % 16.73 C
2168 20-07-2019 12:35:00 27.8 C 50 % 16.42 C
2169 20-07-2019 12:40:00 27.7 C 53 % 17.25 C
2170 20-07-2019 12:45:00 27.8 C 51 % 16.73 C
2171 20-07-2019 12:50:00 27.8 C 52 % 17.04 C
2172 20-07-2019 12:55:00 27.8 C 50 % 16.42 C
2173 20-07-2019 13:00:00 27.9 C 51 % 16.83 C
2174 20-07-2019 13:05:00 27.9 C 51 % 16.83 C
2175 20-07-2019 13:10:00 28.1 C 51 % 17.01 C
Sensor: Nr:Datum:Temp:Feuchte:Taupunkt:
Aussen-T/F 2176 20-07-2019 13:15:00 28.1 C 50 % 16.7 C
2177 20-07-2019 13:20:00 28 C 51 % 16.92 C
2178 20-07-2019 13:25:00 27.9 C 52 % 17.13 C
2179 20-07-2019 13:30:00 28 C 51 % 16.92 C
2180 20-07-2019 13:35:00 28.1 C 51 % 17.01 C
2181 20-07-2019 13:40:00 28.3 C 51 % 17.19 C
2182 20-07-2019 13:45:00 28.4 C 49 % 16.65 C
2183 20-07-2019 13:50:00 28.6 C 50 % 17.16 C
2184 20-07-2019 13:55:00 28.8 C 48 % 16.69 C
2185 20-07-2019 14:00:00 29.1 C 49 % 17.29 C
2186 20-07-2019 14:05:00 29.4 C 48 % 17.24 C
2187 20-07-2019 14:10:00 29.7 C 46 % 16.84 C
2188 20-07-2019 14:15:00 29.7 C 46 % 16.84 C
2189 20-07-2019 14:20:00 29.7 C 45 % 16.5 C
2190 20-07-2019 14:25:00 29.7 C 46 % 16.84 C
2191 20-07-2019 14:30:00 29.9 C 45 % 16.68 C
2192 20-07-2019 14:35:00 30.1 C 44 % 16.5 C
2193 20-07-2019 14:40:00 30.4 C 44 % 16.77 C
2194 20-07-2019 14:45:00 30.6 C 45 % 17.31 C
2195 20-07-2019 14:50:00 31 C 45 % 17.67 C
2196 20-07-2019 14:55:00 31.2 C 42 % 16.76 C
2197 20-07-2019 15:00:00 31.2 C 43 % 17.13 C
2198 20-07-2019 15:05:00 31.1 C 43 % 17.04 C
2199 20-07-2019 15:10:00 31.1 C 44 % 17.4 C
2200 20-07-2019 15:15:00 31.2 C 44 % 17.49 C
Sensor: Nr:Datum:Temp:Feuchte:Taupunkt:
Aussen-T/F 2201 20-07-2019 15:20:00 31.1 C 42 % 16.67 C
2202 20-07-2019 15:25:00 31 C 44 % 17.31 C
2203 20-07-2019 15:30:00 30.9 C 42 % 16.49 C
2204 20-07-2019 15:35:00 30.8 C 44 % 17.13 C
2205 20-07-2019 15:40:00 30.6 C 44 % 16.95 C
2206 20-07-2019 15:45:00 30.3 C 44 % 16.68 C
2207 20-07-2019 15:50:00 30.2 C 46 % 17.3 C
2208 20-07-2019 15:55:00 30.1 C 45 % 16.86 C
2209 20-07-2019 16:00:00 30.2 C 45 % 16.95 C
2210 20-07-2019 16:05:00 30.4 C 45 % 17.13 C
2211 20-07-2019 16:10:00 30.4 C 48 % 18.15 C
2212 20-07-2019 16:15:00 30.3 C 46 % 17.39 C
2213 20-07-2019 16:20:00 29.6 C 56 % 19.89 C
2214 20-07-2019 16:25:00 28.6 C 70 % 22.59 C
2215 20-07-2019 16:30:00 27.9 C 76 % 23.27 C
2216 20-07-2019 16:35:00 27.9 C 79 % 23.92 C
2217 20-07-2019 16:40:00 28.1 C 80 % 24.32 C
2218 20-07-2019 16:45:00 28.2 C 79 % 24.21 C
2219 20-07-2019 16:50:00 28.1 C 74 % 23.02 C
2220 20-07-2019 16:55:00 27.6 C 75 % 22.76 C
2221 20-07-2019 17:00:00 27.1 C 76 % 22.5 C
2222 20-07-2019 17:05:00 26.8 C 77 % 22.43 C
2223 20-07-2019 17:10:00 27.2 C 76 % 22.6 C
2224 20-07-2019 17:15:00 27.7 C 63 % 20.01 C
2225 20-07-2019 17:20:00 28.7 C 54 % 18.47 C
Sensor: Nr:Datum:Temp:Feuchte:Taupunkt:
Aussen-T/F 2226 20-07-2019 17:25:00 29.2 C 64 % 21.68 C
2227 20-07-2019 17:30:00 28.9 C 52 % 18.05 C
2228 20-07-2019 17:35:00 28.9 C 53 % 18.36 C
2229 20-07-2019 17:40:00 29.1 C 60 % 20.54 C
2230 20-07-2019 17:45:00 29 C 51 % 17.84 C
2231 20-07-2019 17:50:00 28.8 C 49 % 17.02 C
2232 20-07-2019 17:55:00 28.8 C 56 % 19.14 C
2233 20-07-2019 18:00:00 28.9 C 50 % 17.43 C
2234 20-07-2019 18:05:00 29 C 52 % 18.15 C
2235 20-07-2019 18:10:00 28.9 C 50 % 17.43 C
2236 20-07-2019 18:15:00 28.8 C 49 % 17.02 C
2237 20-07-2019 18:20:00 28.8 C 49 % 17.02 C
2238 20-07-2019 18:25:00 28.8 C 48 % 16.69 C
2239 20-07-2019 18:30:00 28.9 C 48 % 16.79 C
2240 20-07-2019 18:35:00 28.9 C 48 % 16.79 C
2241 20-07-2019 18:40:00 28.9 C 52 % 18.05 C
2242 20-07-2019 18:45:00 28.9 C 48 % 16.79 C
2243 20-07-2019 18:50:00 29.1 C 51 % 17.93 C
2244 20-07-2019 18:55:00 29.2 C 47 % 16.73 C
2245 20-07-2019 19:00:00 29.3 C 46 % 16.48 C
2246 20-07-2019 19:05:00 29.3 C 44 % 15.78 C
2247 20-07-2019 19:10:00 29.2 C 47 % 16.73 C
2248 20-07-2019 19:15:00 29.3 C 45 % 16.13 C
2249 20-07-2019 19:20:00 29.3 C 48 % 17.15 C
2250 20-07-2019 19:25:00 29.3 C 44 % 15.78 C
Sensor: Nr:Datum:Temp:Feuchte:Taupunkt:
Aussen-T/F 2251 20-07-2019 19:30:00 28.1 C 54 % 17.92 C
2252 20-07-2019 19:35:00 26.8 C 58 % 17.84 C
2253 20-07-2019 19:40:00 25.7 C 61 % 17.61 C
2254 20-07-2019 19:45:00 25 C 64 % 17.72 C
2255 20-07-2019 19:50:00 24.6 C 66 % 17.83 C
2256 20-07-2019 19:55:00 24.2 C 66 % 17.45 C
2257 20-07-2019 20:00:00 24.1 C 67 % 17.59 C
2258 20-07-2019 20:05:00 23.9 C 68 % 17.63 C
2259 20-07-2019 20:10:00 23.8 C 68 % 17.54 C
2260 20-07-2019 20:15:00 23.7 C 68 % 17.44 C
2261 20-07-2019 20:20:00 23.6 C 69 % 17.58 C
2262 20-07-2019 20:25:00 23.4 C 69 % 17.39 C
2263 20-07-2019 20:30:00 23.3 C 69 % 17.29 C
2264 20-07-2019 20:35:00 23.2 C 69 % 17.2 C
2265 20-07-2019 20:40:00 23.1 C 70 % 17.33 C
2266 20-07-2019 20:45:00 23.1 C 72 % 17.78 C
2267 20-07-2019 20:50:00 23 C 73 % 17.9 C
2268 20-07-2019 20:55:00 22.9 C 73 % 17.8 C
2269 20-07-2019 21:00:00 22.7 C 74 % 17.83 C
2270 20-07-2019 21:05:00 22.5 C 74 % 17.63 C
2271 20-07-2019 21:10:00 22.3 C 74 % 17.44 C
2272 20-07-2019 21:15:00 22.1 C 75 % 17.46 C
2273 20-07-2019 21:20:00 21.8 C 75 % 17.17 C
2274 20-07-2019 21:25:00 21.7 C 76 % 17.28 C
2275 20-07-2019 21:30:00 21.6 C 76 % 17.19 C
Sensor: Nr:Datum:Temp:Feuchte:Taupunkt:
Aussen-T/F 2276 20-07-2019 21:35:00 21.4 C 77 % 17.2 C
2277 20-07-2019 21:40:00 21.3 C 78 % 17.31 C
2278 20-07-2019 21:45:00 21.2 C 78 % 17.21 C
2279 20-07-2019 21:50:00 21.1 C 78 % 17.11 C
2280 20-07-2019 21:55:00 21 C 78 % 17.02 C
2281 20-07-2019 22:00:00 20.9 C 78 % 16.92 C
2282 20-07-2019 22:05:00 20.9 C 78 % 16.92 C
2283 20-07-2019 22:10:00 20.8 C 78 % 16.82 C
2284 20-07-2019 22:15:00 20.8 C 79 % 17.02 C
2285 20-07-2019 22:20:00 20.7 C 80 % 17.13 C
2286 20-07-2019 22:25:00 20.7 C 81 % 17.32 C
2287 20-07-2019 22:30:00 20.6 C 81 % 17.22 C
2288 20-07-2019 22:35:00 20.5 C 81 % 17.13 C
2289 20-07-2019 22:40:00 20.3 C 81 % 16.93 C
2290 20-07-2019 22:45:00 20.3 C 81 % 16.93 C
2291 20-07-2019 22:50:00 20.2 C 81 % 16.84 C
2292 20-07-2019 22:55:00 20.1 C 82 % 16.93 C
2293 20-07-2019 23:00:00 20.1 C 82 % 16.93 C
2294 20-07-2019 23:05:00 20.1 C 83 % 17.12 C
2295 20-07-2019 23:10:00 19.9 C 82 % 16.74 C
2296 20-07-2019 23:15:00 19.9 C 83 % 16.93 C
2297 20-07-2019 23:20:00 19.8 C 83 % 16.83 C
2298 20-07-2019 23:25:00 19.7 C 83 % 16.73 C
2299 20-07-2019 23:30:00 19.7 C 83 % 16.73 C
2300 20-07-2019 23:35:00 19.6 C 84 % 16.82 C
Sensor: Nr:Datum:Temp:Feuchte:Taupunkt:
Aussen-T/F 2301 20-07-2019 23:40:00 19.6 C 85 % 17.01 C
2302 20-07-2019 23:45:00 19.6 C 85 % 17.01 C
2303 20-07-2019 23:50:00 19.5 C 85 % 16.91 C
2304 20-07-2019 23:55:00 19.5 C 85 % 16.91 C
2305 21-07-2019 00:00:00 19.4 C 85 % 16.81 C
2306 21-07-2019 00:05:00 19.4 C 85 % 16.81 C
2307 21-07-2019 00:10:00 19.3 C 85 % 16.72 C
2308 21-07-2019 00:15:00 19.2 C 85 % 16.62 C
2309 21-07-2019 00:20:00 19.2 C 85 % 16.62 C
2310 21-07-2019 00:25:00 19.1 C 86 % 16.7 C
2311 21-07-2019 00:30:00 19 C 86 % 16.6 C
2312 21-07-2019 00:35:00 19 C 86 % 16.6 C
2313 21-07-2019 00:40:00 18.9 C 86 % 16.51 C
2314 21-07-2019 00:45:00 18.9 C 86 % 16.51 C
2315 21-07-2019 00:50:00 18.8 C 86 % 16.41 C
2316 21-07-2019 00:55:00 18.8 C 87 % 16.59 C
2317 21-07-2019 01:00:00 18.7 C 87 % 16.49 C
2318 21-07-2019 01:05:00 18.7 C 87 % 16.49 C
2319 21-07-2019 01:10:00 18.7 C 88 % 16.67 C
2320 21-07-2019 01:15:00 18.7 C 87 % 16.49 C
2321 21-07-2019 01:20:00 18.7 C 88 % 16.67 C
2322 21-07-2019 01:25:00 18.6 C 88 % 16.57 C
2323 21-07-2019 01:30:00 18.6 C 88 % 16.57 C
2324 21-07-2019 01:35:00 18.4 C 88 % 16.38 C
2325 21-07-2019 01:40:00 18.4 C 88 % 16.38 C
Sensor: Nr:Datum:Temp:Feuchte:Taupunkt:
Aussen-T/F 2326 21-07-2019 01:45:00 18.4 C 88 % 16.38 C
2327 21-07-2019 01:50:00 18.5 C 89 % 16.65 C
2328 21-07-2019 01:55:00 18.6 C 89 % 16.75 C
2329 21-07-2019 02:00:00 18.7 C 89 % 16.85 C
2330 21-07-2019 02:05:00 18.8 C 88 % 16.77 C
2331 21-07-2019 02:10:00 18.9 C 88 % 16.87 C
2332 21-07-2019 02:15:00 19 C 88 % 16.97 C
2333 21-07-2019 02:20:00 19 C 87 % 16.79 C
2334 21-07-2019 02:25:00 19 C 87 % 16.79 C
2335 21-07-2019 02:30:00 18.9 C 87 % 16.69 C
2336 21-07-2019 02:35:00 18.9 C 87 % 16.69 C
2337 21-07-2019 02:40:00 18.9 C 88 % 16.87 C
2338 21-07-2019 02:45:00 18.8 C 88 % 16.77 C
2339 21-07-2019 02:50:00 18.8 C 88 % 16.77 C
2340 21-07-2019 02:55:00 18.8 C 88 % 16.77 C
2341 21-07-2019 03:00:00 18.8 C 88 % 16.77 C
2342 21-07-2019 03:05:00 18.7 C 88 % 16.67 C
2343 21-07-2019 03:10:00 18.7 C 88 % 16.67 C
2344 21-07-2019 03:15:00 18.7 C 89 % 16.85 C
2345 21-07-2019 03:20:00 18.7 C 89 % 16.85 C
2346 21-07-2019 03:25:00 18.7 C 89 % 16.85 C
2347 21-07-2019 03:30:00 18.7 C 88 % 16.67 C
2348 21-07-2019 03:35:00 18.7 C 89 % 16.85 C
2349 21-07-2019 03:40:00 18.6 C 89 % 16.75 C
2350 21-07-2019 03:45:00 18.6 C 89 % 16.75 C
Sensor: Nr:Datum:Temp:Feuchte:Taupunkt:
Aussen-T/F 2351 21-07-2019 03:50:00 18.5 C 89 % 16.65 C
2352 21-07-2019 03:55:00 18.4 C 89 % 16.55 C
2353 21-07-2019 04:00:00 18.3 C 89 % 16.46 C
2354 21-07-2019 04:05:00 18.2 C 89 % 16.36 C
2355 21-07-2019 04:10:00 18.2 C 89 % 16.36 C
2356 21-07-2019 04:15:00 18.1 C 89 % 16.26 C
2357 21-07-2019 04:20:00 18 C 89 % 16.16 C
2358 21-07-2019 04:25:00 17.9 C 89 % 16.06 C
2359 21-07-2019 04:30:00 17.9 C 89 % 16.06 C
2360 21-07-2019 04:35:00 17.9 C 90 % 16.24 C
2361 21-07-2019 04:40:00 17.8 C 89 % 15.96 C
2362 21-07-2019 04:45:00 17.7 C 90 % 16.04 C
2363 21-07-2019 04:50:00 17.7 C 90 % 16.04 C
2364 21-07-2019 04:55:00 17.7 C 90 % 16.04 C
2365 21-07-2019 05:00:00 17.6 C 90 % 15.94 C
2366 21-07-2019 05:05:00 17.5 C 90 % 15.84 C
2367 21-07-2019 05:10:00 17.4 C 91 % 15.92 C
2368 21-07-2019 05:15:00 17.4 C 91 % 15.92 C
2369 21-07-2019 05:20:00 17.4 C 91 % 15.92 C
2370 21-07-2019 05:25:00 17.4 C 91 % 15.92 C
2371 21-07-2019 05:30:00 17.4 C 91 % 15.92 C
2372 21-07-2019 05:35:00 17.4 C 91 % 15.92 C
2373 21-07-2019 05:40:00 17.4 C 92 % 16.09 C
2374 21-07-2019 05:45:00 17.5 C 92 % 16.19 C
2375 21-07-2019 05:50:00 17.6 C 92 % 16.28 C
Sensor: Nr:Datum:Temp:Feuchte:Taupunkt:
Aussen-T/F 2376 21-07-2019 05:55:00 17.6 C 92 % 16.28 C
2377 21-07-2019 06:00:00 17.6 C 92 % 16.28 C
2378 21-07-2019 06:05:00 17.6 C 92 % 16.28 C
2379 21-07-2019 06:10:00 17.6 C 92 % 16.28 C
2380 21-07-2019 06:15:00 17.7 C 92 % 16.38 C
2381 21-07-2019 06:20:00 17.7 C 92 % 16.38 C
2382 21-07-2019 06:25:00 17.7 C 92 % 16.38 C
2383 21-07-2019 06:30:00 17.7 C 92 % 16.38 C
2384 21-07-2019 06:35:00 17.8 C 92 % 16.48 C
2385 21-07-2019 06:40:00 17.8 C 91 % 16.31 C
2386 21-07-2019 06:45:00 17.8 C 91 % 16.31 C
2387 21-07-2019 06:50:00 17.9 C 91 % 16.41 C
2388 21-07-2019 06:55:00 17.9 C 91 % 16.41 C
2389 21-07-2019 07:00:00 17.9 C 90 % 16.24 C
2390 21-07-2019 07:05:00 18.1 C 90 % 16.43 C
2391 21-07-2019 07:10:00 18.2 C 90 % 16.53 C
2392 21-07-2019 07:15:00 18.3 C 90 % 16.63 C
2393 21-07-2019 07:20:00 18.4 C 90 % 16.73 C
2394 21-07-2019 07:25:00 18.5 C 90 % 16.83 C
2395 21-07-2019 07:30:00 18.6 C 89 % 16.75 C
2396 21-07-2019 07:35:00 18.7 C 89 % 16.85 C
2397 21-07-2019 07:40:00 18.7 C 89 % 16.85 C
2398 21-07-2019 07:45:00 18.8 C 88 % 16.77 C
2399 21-07-2019 07:50:00 18.9 C 89 % 17.05 C
2400 21-07-2019 07:55:00 18.9 C 86 % 16.51 C
Sensor: Nr:Datum:Temp:Feuchte:Taupunkt:
Aussen-T/F 2401 21-07-2019 08:00:00 19 C 84 % 16.24 C
2402 21-07-2019 08:05:00 19.1 C 82 % 15.96 C
2403 21-07-2019 08:10:00 19.2 C 81 % 15.86 C
2404 21-07-2019 08:15:00 19.3 C 81 % 15.96 C
2405 21-07-2019 08:20:00 19.3 C 81 % 15.96 C
2406 21-07-2019 08:25:00 19.3 C 79 % 15.57 C
2407 21-07-2019 08:30:00 19.3 C 80 % 15.76 C
2408 21-07-2019 08:35:00 19.4 C 79 % 15.66 C
2409 21-07-2019 08:40:00 19.4 C 79 % 15.66 C
2410 21-07-2019 08:45:00 19.5 C 79 % 15.76 C
2411 21-07-2019 08:50:00 19.6 C 80 % 16.06 C
2412 21-07-2019 08:55:00 19.7 C 80 % 16.15 C
2413 21-07-2019 09:00:00 19.8 C 79 % 16.05 C
2414 21-07-2019 09:05:00 19.8 C 78 % 15.85 C
2415 21-07-2019 09:10:00 20.1 C 78 % 16.14 C
2416 21-07-2019 09:15:00 20.1 C 76 % 15.74 C
2417 21-07-2019 09:20:00 20.2 C 74 % 15.42 C
2418 21-07-2019 09:25:00 20.3 C 73 % 15.3 C
2419 21-07-2019 09:30:00 20.4 C 73 % 15.4 C
2420 21-07-2019 09:35:00 20.4 C 73 % 15.4 C
2421 21-07-2019 09:40:00 20.5 C 71 % 15.06 C
2422 21-07-2019 09:45:00 20.6 C 72 % 15.38 C
2423 21-07-2019 09:50:00 20.7 C 70 % 15.03 C
2424 21-07-2019 09:55:00 20.8 C 71 % 15.35 C
2425 21-07-2019 10:00:00 21 C 70 % 15.32 C
Sensor: Nr:Datum:Temp:Feuchte:Taupunkt:
Aussen-T/F 2426 21-07-2019 10:05:00 21.1 C 69 % 15.19 C
2427 21-07-2019 10:10:00 21.2 C 69 % 15.29 C
2428 21-07-2019 10:15:00 21.3 C 68 % 15.16 C
2429 21-07-2019 10:20:00 21.5 C 68 % 15.35 C
2430 21-07-2019 10:25:00 21.7 C 68 % 15.54 C
2431 21-07-2019 10:30:00 21.9 C 67 % 15.5 C
2432 21-07-2019 10:35:00 22.1 C 65 % 15.21 C
2433 21-07-2019 10:40:00 22.3 C 64 % 15.16 C
2434 21-07-2019 10:45:00 22.6 C 64 % 15.45 C
2435 21-07-2019 10:50:00 22.8 C 63 % 15.39 C
2436 21-07-2019 10:55:00 22.8 C 60 % 14.63 C
2437 21-07-2019 11:00:00 22.9 C 60 % 14.73 C
2438 21-07-2019 11:05:00 23.1 C 59 % 14.65 C
2439 21-07-2019 11:10:00 23.4 C 56 % 14.13 C
2440 21-07-2019 11:15:00 23.6 C 54 % 13.75 C
2441 21-07-2019 11:20:00 23.7 C 54 % 13.84 C
2442 21-07-2019 11:25:00 23.8 C 53 % 13.65 C
2443 21-07-2019 11:30:00 24 C 54 % 14.12 C
2444 21-07-2019 11:35:00 24.1 C 52 % 13.63 C
2445 21-07-2019 11:40:00 24.2 C 51 % 13.43 C
2446 21-07-2019 11:45:00 24.2 C 51 % 13.43 C
2447 21-07-2019 11:50:00 24.2 C 51 % 13.43 C
2448 21-07-2019 11:55:00 24.3 C 51 % 13.52 C
2449 21-07-2019 12:00:00 24.4 C 49 % 13 C
2450 21-07-2019 12:05:00 24.6 C 50 % 13.49 C
Sensor: Nr:Datum:Temp:Feuchte:Taupunkt:
Aussen-T/F 2451 21-07-2019 12:10:00 24.8 C 51 % 13.98 C
2452 21-07-2019 12:15:00 24.9 C 49 % 13.46 C
2453 21-07-2019 12:20:00 25.1 C 49 % 13.64 C
2454 21-07-2019 12:25:00 25.2 C 51 % 14.35 C
2455 21-07-2019 12:30:00 25.3 C 52 % 14.74 C
2456 21-07-2019 12:35:00 25.1 C 51 % 14.25 C
2457 21-07-2019 12:40:00 25.1 C 52 % 14.55 C
2458 21-07-2019 12:45:00 25.1 C 53 % 14.85 C
2459 21-07-2019 12:50:00 25.1 C 53 % 14.85 C
2460 21-07-2019 12:55:00 24.9 C 53 % 14.66 C
2461 21-07-2019 13:00:00 24.9 C 53 % 14.66 C
2462 21-07-2019 13:05:00 24.9 C 52 % 14.37 C
2463 21-07-2019 13:10:00 24.8 C 53 % 14.57 C
2464 21-07-2019 13:15:00 24.8 C 53 % 14.57 C
2465 21-07-2019 13:20:00 24.8 C 54 % 14.86 C
2466 21-07-2019 13:25:00 24.8 C 54 % 14.86 C
2467 21-07-2019 13:30:00 24.8 C 54 % 14.86 C
2468 21-07-2019 13:35:00 24.9 C 54 % 14.95 C
2469 21-07-2019 13:40:00 25 C 55 % 15.33 C
2470 21-07-2019 13:45:00 25.2 C 52 % 14.65 C
2471 21-07-2019 13:50:00 25.3 C 53 % 15.03 C
2472 21-07-2019 13:55:00 25.3 C 52 % 14.74 C
2473 21-07-2019 14:00:00 25.4 C 52 % 14.83 C
2474 21-07-2019 14:05:00 25.6 C 55 % 15.89 C
2475 21-07-2019 14:10:00 25.8 C 52 % 15.2 C
Sensor: Nr:Datum:Temp:Feuchte:Taupunkt:
Aussen-T/F 2476 21-07-2019 14:15:00 25.9 C 52 % 15.29 C
2477 21-07-2019 14:20:00 26 C 53 % 15.68 C
2478 21-07-2019 14:25:00 26.2 C 50 % 14.96 C
2479 21-07-2019 14:30:00 26.2 C 48 % 14.32 C
2480 21-07-2019 14:35:00 26.2 C 50 % 14.96 C
2481 21-07-2019 14:40:00 26.2 C 50 % 14.96 C
2482 21-07-2019 14:45:00 26.2 C 51 % 15.27 C
2483 21-07-2019 14:50:00 26.2 C 51 % 15.27 C
2484 21-07-2019 14:55:00 26.3 C 49 % 14.74 C
2485 21-07-2019 15:00:00 26.4 C 50 % 15.14 C
2486 21-07-2019 15:05:00 26.7 C 49 % 15.1 C
2487 21-07-2019 15:10:00 26.7 C 49 % 15.1 C
2488 21-07-2019 15:15:00 26.8 C 48 % 14.87 C
2489 21-07-2019 15:20:00 26.9 C 48 % 14.96 C
2490 21-07-2019 15:25:00 27.2 C 49 % 15.56 C
2491 21-07-2019 15:30:00 27.1 C 47 % 14.82 C
2492 21-07-2019 15:35:00 26.8 C 48 % 14.87 C
2493 21-07-2019 15:40:00 26.7 C 48 % 14.78 C
2494 21-07-2019 15:45:00 26.8 C 49 % 15.19 C
2495 21-07-2019 15:50:00 26.9 C 48 % 14.96 C
2496 21-07-2019 15:55:00 27.1 C 47 % 14.82 C
2497 21-07-2019 16:00:00 27.3 C 46 % 14.67 C
2498 21-07-2019 16:05:00 27.5 C 47 % 15.18 C
2499 21-07-2019 16:10:00 27.6 C 47 % 15.27 C
2500 21-07-2019 16:15:00 27.6 C 46 % 14.94 C
Sensor: Nr:Datum:Temp:Feuchte:Taupunkt:
Aussen-T/F 2501 21-07-2019 16:20:00 27.6 C 46 % 14.94 C
2502 21-07-2019 16:25:00 27.8 C 47 % 15.45 C
2503 21-07-2019 16:30:00 27.9 C 45 % 14.87 C
2504 21-07-2019 16:35:00 27.8 C 45 % 14.78 C
2505 21-07-2019 16:40:00 27.9 C 45 % 14.87 C
2506 21-07-2019 16:45:00 28 C 46 % 15.3 C
2507 21-07-2019 16:50:00 28.1 C 46 % 15.39 C
2508 21-07-2019 16:55:00 28.1 C 45 % 15.05 C
2509 21-07-2019 17:00:00 27.9 C 45 % 14.87 C
2510 21-07-2019 17:05:00 27.8 C 47 % 15.45 C
2511 21-07-2019 17:10:00 27.7 C 46 % 15.03 C
2512 21-07-2019 17:15:00 27.3 C 47 % 15 C
2513 21-07-2019 17:20:00 27.3 C 48 % 15.33 C
2514 21-07-2019 17:25:00 27.3 C 48 % 15.33 C
2515 21-07-2019 17:30:00 27.3 C 48 % 15.33 C
2516 21-07-2019 17:35:00 26.9 C 50 % 15.6 C
2517 21-07-2019 17:40:00 26.8 C 49 % 15.19 C
2518 21-07-2019 17:45:00 26.8 C 49 % 15.19 C
2519 21-07-2019 17:50:00 27 C 47 % 14.73 C
2520 21-07-2019 17:55:00 27.2 C 47 % 14.91 C
2521 21-07-2019 18:00:00 27.2 C 49 % 15.56 C
2522 21-07-2019 18:05:00 27.2 C 48 % 15.24 C
2523 21-07-2019 18:10:00 26.9 C 48 % 14.96 C
2524 21-07-2019 18:15:00 26.7 C 48 % 14.78 C
2525 21-07-2019 18:20:00 26.4 C 48 % 14.51 C
Sensor: Nr:Datum:Temp:Feuchte:Taupunkt:
Aussen-T/F 2526 21-07-2019 18:25:00 26.3 C 50 % 15.05 C
2527 21-07-2019 18:30:00 26.2 C 50 % 14.96 C
2528 21-07-2019 18:35:00 26.2 C 50 % 14.96 C
2529 21-07-2019 18:40:00 26.1 C 50 % 14.87 C
2530 21-07-2019 18:45:00 26 C 50 % 14.77 C
2531 21-07-2019 18:50:00 26 C 50 % 14.77 C
2532 21-07-2019 18:55:00 26.1 C 50 % 14.87 C
2533 21-07-2019 19:00:00 26.3 C 50 % 15.05 C
2534 21-07-2019 19:05:00 26.2 C 50 % 14.96 C
2535 21-07-2019 19:10:00 26.1 C 51 % 15.17 C
2536 21-07-2019 19:15:00 25.9 C 50 % 14.68 C
2537 21-07-2019 19:20:00 25.7 C 52 % 15.11 C
2538 21-07-2019 19:25:00 25.4 C 52 % 14.83 C
2539 21-07-2019 19:30:00 25.2 C 53 % 14.94 C
2540 21-07-2019 19:35:00 25.1 C 53 % 14.85 C
2541 21-07-2019 19:40:00 24.9 C 53 % 14.66 C
2542 21-07-2019 19:45:00 24.8 C 54 % 14.86 C
2543 21-07-2019 19:50:00 24.7 C 54 % 14.77 C
2544 21-07-2019 19:55:00 24.6 C 54 % 14.68 C
2545 21-07-2019 20:00:00 24.5 C 54 % 14.58 C
2546 21-07-2019 20:05:00 24.5 C 54 % 14.58 C
2547 21-07-2019 20:10:00 24.4 C 55 % 14.78 C
2548 21-07-2019 20:15:00 24.4 C 56 % 15.06 C
2549 21-07-2019 20:20:00 24.3 C 55 % 14.68 C
2550 21-07-2019 20:25:00 24.3 C 56 % 14.96 C
Sensor: Nr:Datum:Temp:Feuchte:Taupunkt:
Aussen-T/F 2551 21-07-2019 20:30:00 24.4 C 56 % 15.06 C
2552 21-07-2019 20:35:00 24.5 C 55 % 14.87 C
2553 21-07-2019 20:40:00 24.4 C 54 % 14.49 C
2554 21-07-2019 20:45:00 24.4 C 55 % 14.78 C
2555 21-07-2019 20:50:00 24.4 C 54 % 14.49 C
2556 21-07-2019 20:55:00 24.3 C 54 % 14.4 C
2557 21-07-2019 21:00:00 24.2 C 54 % 14.31 C
2558 21-07-2019 21:05:00 24.1 C 55 % 14.5 C
2559 21-07-2019 21:10:00 23.9 C 58 % 15.14 C
2560 21-07-2019 21:15:00 23.7 C 59 % 15.21 C
2561 21-07-2019 21:20:00 23.3 C 60 % 15.1 C
2562 21-07-2019 21:25:00 22.8 C 61 % 14.89 C
2563 21-07-2019 21:30:00 22.4 C 62 % 14.76 C
2564 21-07-2019 21:35:00 22.1 C 63 % 14.73 C
2565 21-07-2019 21:40:00 21.7 C 64 % 14.6 C
2566 21-07-2019 21:45:00 21.4 C 65 % 14.55 C
2567 21-07-2019 21:50:00 21.2 C 66 % 14.6 C
2568 21-07-2019 21:55:00 20.9 C 67 % 14.55 C
2569 21-07-2019 22:00:00 20.7 C 68 % 14.58 C
2570 21-07-2019 22:05:00 20.5 C 69 % 14.62 C
2571 21-07-2019 22:10:00 20.3 C 70 % 14.65 C
2572 21-07-2019 22:15:00 20.2 C 71 % 14.78 C
2573 21-07-2019 22:20:00 19.9 C 71 % 14.49 C
2574 21-07-2019 22:25:00 19.8 C 71 % 14.39 C
2575 21-07-2019 22:30:00 19.7 C 72 % 14.51 C
Sensor: Nr:Datum:Temp:Feuchte:Taupunkt:
Aussen-T/F 2576 21-07-2019 22:35:00 19.6 C 72 % 14.42 C
2577 21-07-2019 22:40:00 19.6 C 72 % 14.42 C
2578 21-07-2019 22:45:00 19.4 C 73 % 14.44 C
2579 21-07-2019 22:50:00 19.3 C 74 % 14.55 C
2580 21-07-2019 22:55:00 19.2 C 75 % 14.66 C
2581 21-07-2019 23:00:00 19.1 C 76 % 14.77 C
2582 21-07-2019 23:05:00 18.9 C 76 % 14.58 C
2583 21-07-2019 23:10:00 18.8 C 77 % 14.68 C
2584 21-07-2019 23:15:00 18.7 C 77 % 14.59 C
2585 21-07-2019 23:20:00 18.6 C 78 % 14.69 C
2586 21-07-2019 23:25:00 18.3 C 78 % 14.4 C
2587 21-07-2019 23:30:00 18.2 C 79 % 14.5 C
2588 21-07-2019 23:35:00 18.1 C 79 % 14.4 C
2589 21-07-2019 23:40:00 18.1 C 79 % 14.4 C
2590 21-07-2019 23:45:00 17.9 C 79 % 14.21 C
2591 21-07-2019 23:50:00 17.8 C 80 % 14.31 C
2592 21-07-2019 23:55:00 17.7 C 80 % 14.21 C
2593 22-07-2019 00:00:00 17.6 C 80 % 14.11 C
2594 22-07-2019 00:05:00 17.5 C 80 % 14.01 C
2595 22-07-2019 00:10:00 17.4 C 80 % 13.92 C
2596 22-07-2019 00:15:00 17.3 C 80 % 13.82 C
2597 22-07-2019 00:20:00 17.1 C 81 % 13.82 C
2598 22-07-2019 00:25:00 17.1 C 81 % 13.82 C
2599 22-07-2019 00:30:00 16.9 C 81 % 13.62 C
2600 22-07-2019 00:35:00 16.9 C 82 % 13.81 C
Sensor: Nr:Datum:Temp:Feuchte:Taupunkt:
Aussen-T/F 2601 22-07-2019 00:40:00 16.9 C 82 % 13.81 C
2602 22-07-2019 00:45:00 16.8 C 82 % 13.71 C
2603 22-07-2019 00:50:00 16.7 C 82 % 13.61 C
2604 22-07-2019 00:55:00 16.7 C 82 % 13.61 C
2605 22-07-2019 01:00:00 16.5 C 82 % 13.42 C
2606 22-07-2019 01:05:00 16.4 C 83 % 13.51 C
2607 22-07-2019 01:10:00 16.4 C 83 % 13.51 C
2608 22-07-2019 01:15:00 16.3 C 84 % 13.59 C
2609 22-07-2019 01:20:00 16.3 C 84 % 13.59 C
2610 22-07-2019 01:25:00 16.2 C 84 % 13.5 C
2611 22-07-2019 01:30:00 16.2 C 84 % 13.5 C
2612 22-07-2019 01:35:00 16.1 C 85 % 13.58 C
2613 22-07-2019 01:40:00 16 C 85 % 13.48 C
2614 22-07-2019 01:45:00 15.9 C 85 % 13.38 C
2615 22-07-2019 01:50:00 15.8 C 85 % 13.28 C
2616 22-07-2019 01:55:00 15.8 C 86 % 13.46 C
2617 22-07-2019 02:00:00 15.7 C 86 % 13.37 C
2618 22-07-2019 02:05:00 15.7 C 87 % 13.54 C
2619 22-07-2019 02:10:00 15.7 C 87 % 13.54 C
2620 22-07-2019 02:15:00 15.7 C 87 % 13.54 C
2621 22-07-2019 02:20:00 15.7 C 87 % 13.54 C
2622 22-07-2019 02:25:00 15.7 C 87 % 13.54 C
2623 22-07-2019 02:30:00 15.6 C 88 % 13.62 C
2624 22-07-2019 02:35:00 15.6 C 88 % 13.62 C
2625 22-07-2019 02:40:00 15.6 C 88 % 13.62 C
Sensor: Nr:Datum:Temp:Feuchte:Taupunkt:
Aussen-T/F 2626 22-07-2019 02:45:00 15.6 C 88 % 13.62 C
2627 22-07-2019 02:50:00 15.6 C 88 % 13.62 C
2628 22-07-2019 02:55:00 15.5 C 88 % 13.52 C
2629 22-07-2019 03:00:00 15.5 C 88 % 13.52 C
2630 22-07-2019 03:05:00 15.5 C 88 % 13.52 C
2631 22-07-2019 03:10:00 15.5 C 88 % 13.52 C
2632 22-07-2019 03:15:00 15.4 C 88 % 13.42 C
2633 22-07-2019 03:20:00 15.4 C 88 % 13.42 C
2634 22-07-2019 03:25:00 15.4 C 88 % 13.42 C
2635 22-07-2019 03:30:00 15.3 C 88 % 13.33 C
2636 22-07-2019 03:35:00 15.3 C 88 % 13.33 C
2637 22-07-2019 03:40:00 15.2 C 89 % 13.4 C
2638 22-07-2019 03:45:00 15.2 C 89 % 13.4 C
2639 22-07-2019 03:50:00 15.2 C 89 % 13.4 C
2640 22-07-2019 03:55:00 15.1 C 89 % 13.3 C
2641 22-07-2019 04:00:00 15.1 C 89 % 13.3 C
2642 22-07-2019 04:05:00 15 C 89 % 13.2 C
2643 22-07-2019 04:10:00 14.9 C 89 % 13.1 C
2644 22-07-2019 04:15:00 14.8 C 89 % 13.01 C
2645 22-07-2019 04:20:00 14.8 C 89 % 13.01 C
2646 22-07-2019 04:25:00 14.7 C 89 % 12.91 C
2647 22-07-2019 04:30:00 14.7 C 90 % 13.08 C
2648 22-07-2019 04:35:00 14.6 C 90 % 12.98 C
2649 22-07-2019 04:40:00 14.6 C 90 % 12.98 C
2650 22-07-2019 04:45:00 14.6 C 90 % 12.98 C
Sensor: Nr:Datum:Temp:Feuchte:Taupunkt:
Aussen-T/F 2651 22-07-2019 04:50:00 14.6 C 90 % 12.98 C
2652 22-07-2019 04:55:00 14.5 C 90 % 12.88 C
2653 22-07-2019 05:00:00 14.4 C 90 % 12.78 C
2654 22-07-2019 05:05:00 14.4 C 90 % 12.78 C
2655 22-07-2019 05:10:00 14.4 C 91 % 12.95 C
2656 22-07-2019 05:15:00 14.3 C 91 % 12.85 C
2657 22-07-2019 05:20:00 14.4 C 91 % 12.95 C
2658 22-07-2019 05:25:00 14.3 C 91 % 12.85 C
2659 22-07-2019 05:30:00 14.3 C 91 % 12.85 C
2660 22-07-2019 05:35:00 14.3 C 91 % 12.85 C
2661 22-07-2019 05:40:00 14.2 C 91 % 12.75 C
2662 22-07-2019 05:45:00 14.2 C 91 % 12.75 C
2663 22-07-2019 05:50:00 14.2 C 91 % 12.75 C
2664 22-07-2019 05:55:00 14.2 C 92 % 12.92 C
2665 22-07-2019 06:00:00 14.2 C 92 % 12.92 C
2666 22-07-2019 06:05:00 14.2 C 92 % 12.92 C
2667 22-07-2019 06:10:00 14.3 C 92 % 13.02 C
2668 22-07-2019 06:15:00 14.3 C 92 % 13.02 C
2669 22-07-2019 06:20:00 14.2 C 91 % 12.75 C
2670 22-07-2019 06:25:00 14.1 C 91 % 12.65 C
2671 22-07-2019 06:30:00 14.1 C 92 % 12.82 C
2672 22-07-2019 06:35:00 14.1 C 92 % 12.82 C
2673 22-07-2019 06:40:00 14.1 C 92 % 12.82 C
2674 22-07-2019 06:45:00 14.1 C 92 % 12.82 C
2675 22-07-2019 06:50:00 14.2 C 92 % 12.92 C
Sensor: Nr:Datum:Temp:Feuchte:Taupunkt:
Aussen-T/F 2676 22-07-2019 06:55:00 14.2 C 92 % 12.92 C
2677 22-07-2019 07:00:00 14.3 C 93 % 13.18 C
2678 22-07-2019 07:05:00 14.3 C 93 % 13.18 C
2679 22-07-2019 07:10:00 14.3 C 93 % 13.18 C
2680 22-07-2019 07:15:00 14.4 C 93 % 13.28 C
2681 22-07-2019 07:20:00 14.5 C 93 % 13.38 C
2682 22-07-2019 07:25:00 14.7 C 93 % 13.58 C
2683 22-07-2019 07:30:00 14.8 C 93 % 13.68 C
2684 22-07-2019 07:35:00 14.9 C 93 % 13.78 C
2685 22-07-2019 07:40:00 14.9 C 93 % 13.78 C
2686 22-07-2019 07:45:00 15.1 C 92 % 13.81 C
2687 22-07-2019 07:50:00 15.2 C 92 % 13.91 C
2688 22-07-2019 07:55:00 15.3 C 92 % 14.01 C
2689 22-07-2019 08:00:00 15.4 C 92 % 14.11 C
2690 22-07-2019 08:05:00 15.5 C 92 % 14.21 C
2691 22-07-2019 08:10:00 15.6 C 92 % 14.31 C
2692 22-07-2019 08:15:00 15.7 C 91 % 14.24 C
2693 22-07-2019 08:20:00 16 C 91 % 14.53 C
2694 22-07-2019 08:25:00 16.2 C 89 % 14.39 C
2695 22-07-2019 08:30:00 16.4 C 88 % 14.41 C
2696 22-07-2019 08:35:00 16.6 C 88 % 14.6 C
2697 22-07-2019 08:40:00 16.8 C 87 % 14.62 C
2698 22-07-2019 08:45:00 16.9 C 87 % 14.72 C
2699 22-07-2019 08:50:00 17.1 C 87 % 14.92 C
2700 22-07-2019 08:55:00 17.2 C 87 % 15.02 C
Sensor: Nr:Datum:Temp:Feuchte:Taupunkt:
Aussen-T/F 2701 22-07-2019 09:00:00 17.3 C 87 % 15.12 C
2702 22-07-2019 09:05:00 17.4 C 86 % 15.03 C
2703 22-07-2019 09:10:00 17.6 C 85 % 15.05 C
2704 22-07-2019 09:15:00 17.7 C 86 % 15.33 C
2705 22-07-2019 09:20:00 17.9 C 85 % 15.34 C
2706 22-07-2019 09:25:00 18.1 C 83 % 15.17 C
2707 22-07-2019 09:30:00 18.3 C 83 % 15.36 C
2708 22-07-2019 09:35:00 18.6 C 82 % 15.47 C
2709 22-07-2019 09:40:00 18.8 C 83 % 15.85 C
2710 22-07-2019 09:45:00 18.8 C 82 % 15.66 C
2711 22-07-2019 09:50:00 18.9 C 83 % 15.95 C
2712 22-07-2019 09:55:00 19.1 C 82 % 15.96 C
2713 22-07-2019 10:00:00 19.3 C 82 % 16.15 C
2714 22-07-2019 10:05:00 19.5 C 81 % 16.15 C
2715 22-07-2019 10:10:00 19.7 C 79 % 15.96 C
2716 22-07-2019 10:15:00 19.8 C 77 % 15.65 C
2717 22-07-2019 10:20:00 20.2 C 76 % 15.83 C
2718 22-07-2019 10:25:00 20.6 C 76 % 16.22 C
2719 22-07-2019 10:30:00 20.8 C 75 % 16.21 C
2720 22-07-2019 10:35:00 21.2 C 72 % 15.95 C
2721 22-07-2019 10:40:00 21.6 C 71 % 16.12 C
2722 22-07-2019 10:45:00 22 C 72 % 16.72 C
2723 22-07-2019 10:50:00 22.3 C 67 % 15.88 C
2724 22-07-2019 10:55:00 22.7 C 63 % 15.3 C
2725 22-07-2019 11:00:00 23.1 C 60 % 14.91 C
Sensor: Nr:Datum:Temp:Feuchte:Taupunkt:
Aussen-T/F 2726 22-07-2019 11:05:00 23.3 C 61 % 15.36 C
2727 22-07-2019 11:10:00 23.4 C 60 % 15.19 C
2728 22-07-2019 11:15:00 23.6 C 61 % 15.64 C
2729 22-07-2019 11:20:00 23.7 C 59 % 15.21 C
2730 22-07-2019 11:25:00 23.8 C 59 % 15.31 C
2731 22-07-2019 11:30:00 24.1 C 58 % 15.32 C
2732 22-07-2019 11:35:00 24.3 C 57 % 15.24 C
2733 22-07-2019 11:40:00 24.4 C 56 % 15.06 C
2734 22-07-2019 11:45:00 24.6 C 56 % 15.24 C
2735 22-07-2019 11:50:00 24.8 C 55 % 15.15 C
2736 22-07-2019 11:55:00 25 C 54 % 15.05 C
2737 22-07-2019 12:00:00 25.1 C 54 % 15.14 C
2738 22-07-2019 12:05:00 25.3 C 53 % 15.03 C
2739 22-07-2019 12:10:00 25.3 C 53 % 15.03 C
2740 22-07-2019 12:15:00 25.3 C 53 % 15.03 C
2741 22-07-2019 12:20:00 25.4 C 53 % 15.13 C
2742 22-07-2019 12:25:00 25.4 C 53 % 15.13 C
2743 22-07-2019 12:30:00 25.5 C 53 % 15.22 C
2744 22-07-2019 12:35:00 25.7 C 53 % 15.4 C
2745 22-07-2019 12:40:00 25.9 C 52 % 15.29 C
2746 22-07-2019 12:45:00 25.9 C 52 % 15.29 C
2747 22-07-2019 12:50:00 25.9 C 51 % 14.99 C
2748 22-07-2019 12:55:00 26 C 51 % 15.08 C
2749 22-07-2019 13:00:00 26 C 51 % 15.08 C
2750 22-07-2019 13:05:00 26 C 51 % 15.08 C
Sensor: Nr:Datum:Temp:Feuchte:Taupunkt:
Aussen-T/F 2751 22-07-2019 13:10:00 26.1 C 51 % 15.17 C
2752 22-07-2019 13:15:00 26.2 C 51 % 15.27 C
2753 22-07-2019 13:20:00 26.2 C 50 % 14.96 C
2754 22-07-2019 13:25:00 26.3 C 51 % 15.36 C
2755 22-07-2019 13:30:00 26.3 C 51 % 15.36 C
2756 22-07-2019 13:35:00 26.4 C 50 % 15.14 C
2757 22-07-2019 13:40:00 26.6 C 50 % 15.32 C
2758 22-07-2019 13:45:00 26.7 C 50 % 15.42 C
2759 22-07-2019 13:50:00 27 C 49 % 15.38 C
2760 22-07-2019 13:55:00 27.2 C 47 % 14.91 C
2761 22-07-2019 14:00:00 27.2 C 48 % 15.24 C
2762 22-07-2019 14:05:00 27.3 C 47 % 15 C
2763 22-07-2019 14:10:00 27.4 C 46 % 14.76 C
2764 22-07-2019 14:15:00 27.7 C 46 % 15.03 C
2765 22-07-2019 14:20:00 27.7 C 45 % 14.69 C
2766 22-07-2019 14:25:00 27.7 C 45 % 14.69 C
2767 22-07-2019 14:30:00 27.7 C 45 % 14.69 C
2768 22-07-2019 14:35:00 27.8 C 47 % 15.45 C
2769 22-07-2019 14:40:00 28.1 C 46 % 15.39 C
2770 22-07-2019 14:45:00 28.3 C 45 % 15.23 C
2771 22-07-2019 14:50:00 28.2 C 45 % 15.14 C
2772 22-07-2019 14:55:00 28.2 C 44 % 14.79 C
2773 22-07-2019 15:00:00 28.3 C 45 % 15.23 C
2774 22-07-2019 15:05:00 28.4 C 45 % 15.32 C
2775 22-07-2019 15:10:00 28.6 C 45 % 15.5 C
Sensor: Nr:Datum:Temp:Feuchte:Taupunkt:
Aussen-T/F 2776 22-07-2019 15:15:00 28.8 C 44 % 15.33 C
2777 22-07-2019 15:20:00 28.9 C 44 % 15.42 C
2778 22-07-2019 15:25:00 29.1 C 42 % 14.88 C
2779 22-07-2019 15:30:00 29.2 C 42 % 14.97 C
2780 22-07-2019 15:35:00 29.1 C 42 % 14.88 C
2781 22-07-2019 15:40:00 29.2 C 44 % 15.69 C
2782 22-07-2019 15:45:00 29.4 C 42 % 15.15 C
2783 22-07-2019 15:50:00 29.7 C 41 % 15.04 C
2784 22-07-2019 15:55:00 29.9 C 41 % 15.22 C
2785 22-07-2019 16:00:00 30.2 C 41 % 15.49 C
2786 22-07-2019 16:05:00 30.4 C 39 % 14.89 C
2787 22-07-2019 16:10:00 30.7 C 40 % 15.55 C
2788 22-07-2019 16:15:00 30.8 C 39 % 15.24 C
2789 22-07-2019 16:20:00 30.9 C 38 % 14.93 C
2790 22-07-2019 16:25:00 30.8 C 39 % 15.24 C
2791 22-07-2019 16:30:00 30.9 C 38 % 14.93 C
2792 22-07-2019 16:35:00 30.8 C 38 % 14.84 C
2793 22-07-2019 16:40:00 30.7 C 39 % 15.15 C
2794 22-07-2019 16:45:00 31 C 39 % 15.42 C
2795 22-07-2019 16:50:00 31.2 C 38 % 15.19 C
2796 22-07-2019 16:55:00 31.3 C 37 % 14.87 C
2797 22-07-2019 17:00:00 31.4 C 38 % 15.37 C
2798 22-07-2019 17:05:00 31.6 C 37 % 15.13 C
2799 22-07-2019 17:10:00 31.3 C 37 % 14.87 C
2800 22-07-2019 17:15:00 31.2 C 37 % 14.78 C
Sensor: Nr:Datum:Temp:Feuchte:Taupunkt:
Aussen-T/F 2801 22-07-2019 17:20:00 31.2 C 37 % 14.78 C
2802 22-07-2019 17:25:00 31.3 C 37 % 14.87 C
2803 22-07-2019 17:30:00 31.3 C 37 % 14.87 C
2804 22-07-2019 17:35:00 31.4 C 37 % 14.96 C
2805 22-07-2019 17:40:00 31.7 C 37 % 15.22 C
2806 22-07-2019 17:45:00 31.8 C 36 % 14.88 C
2807 22-07-2019 17:50:00 31.9 C 36 % 14.97 C
2808 22-07-2019 17:55:00 32.1 C 36 % 15.15 C
2809 22-07-2019 18:00:00 32.1 C 35 % 14.71 C
2810 22-07-2019 18:05:00 32 C 36 % 15.06 C
2811 22-07-2019 18:10:00 32 C 36 % 15.06 C
2812 22-07-2019 18:15:00 32.1 C 36 % 15.15 C
2813 22-07-2019 18:20:00 32.1 C 36 % 15.15 C
2814 22-07-2019 18:25:00 32.2 C 36 % 15.23 C
2815 22-07-2019 18:30:00 32.3 C 35 % 14.88 C
2816 22-07-2019 18:35:00 32.3 C 35 % 14.88 C
2817 22-07-2019 18:40:00 32.6 C 35 % 15.15 C
2818 22-07-2019 18:45:00 32.7 C 35 % 15.23 C
2819 22-07-2019 18:50:00 32.8 C 34 % 14.87 C
2820 22-07-2019 18:55:00 32.6 C 35 % 15.15 C
2821 22-07-2019 19:00:00 32.3 C 36 % 15.32 C
2822 22-07-2019 19:05:00 32.3 C 35 % 14.88 C
2823 22-07-2019 19:10:00 32.2 C 34 % 14.35 C
2824 22-07-2019 19:15:00 32 C 35 % 14.62 C
2825 22-07-2019 19:20:00 31.9 C 35 % 14.53 C
Sensor: Nr:Datum:Temp:Feuchte:Taupunkt:
Aussen-T/F 2826 22-07-2019 19:25:00 31.9 C 36 % 14.97 C
2827 22-07-2019 19:30:00 31.7 C 36 % 14.79 C
2828 22-07-2019 19:35:00 31.2 C 37 % 14.78 C
2829 22-07-2019 19:40:00 30.8 C 37 % 14.43 C
2830 22-07-2019 19:45:00 30.7 C 38 % 14.75 C
2831 22-07-2019 19:50:00 30.4 C 38 % 14.49 C
2832 22-07-2019 19:55:00 30.3 C 39 % 14.8 C
2833 22-07-2019 20:00:00 30.2 C 40 % 15.1 C
2834 22-07-2019 20:05:00 30.1 C 40 % 15.01 C
2835 22-07-2019 20:10:00 30 C 40 % 14.93 C
2836 22-07-2019 20:15:00 29.9 C 40 % 14.84 C
2837 22-07-2019 20:20:00 29.8 C 40 % 14.75 C
2838 22-07-2019 20:25:00 29.7 C 42 % 15.42 C
2839 22-07-2019 20:30:00 29.4 C 42 % 15.15 C
2840 22-07-2019 20:35:00 29.3 C 43 % 15.42 C
2841 22-07-2019 20:40:00 29.1 C 44 % 15.6 C
2842 22-07-2019 20:45:00 28.8 C 45 % 15.68 C
2843 22-07-2019 20:50:00 28.6 C 48 % 16.51 C
2844 22-07-2019 20:55:00 28.2 C 51 % 17.1 C
2845 22-07-2019 21:00:00 27.9 C 51 % 16.83 C
2846 22-07-2019 21:05:00 27.4 C 52 % 16.67 C
2847 22-07-2019 21:10:00 26.9 C 53 % 16.51 C
2848 22-07-2019 21:15:00 26.4 C 55 % 16.63 C
2849 22-07-2019 21:20:00 26 C 56 % 16.54 C
2850 22-07-2019 21:25:00 25.6 C 57 % 16.45 C
Sensor: Nr:Datum:Temp:Feuchte:Taupunkt:
Aussen-T/F 2851 22-07-2019 21:30:00 25.2 C 57 % 16.08 C
2852 22-07-2019 21:35:00 24.8 C 58 % 15.98 C
2853 22-07-2019 21:40:00 24.6 C 58 % 15.79 C
2854 22-07-2019 21:45:00 24.3 C 60 % 16.04 C
2855 22-07-2019 21:50:00 24.1 C 60 % 15.85 C
2856 22-07-2019 21:55:00 23.9 C 61 % 15.92 C
2857 22-07-2019 22:00:00 23.7 C 61 % 15.73 C
2858 22-07-2019 22:05:00 23.6 C 61 % 15.64 C
2859 22-07-2019 22:10:00 23.4 C 62 % 15.71 C
2860 22-07-2019 22:15:00 23.3 C 62 % 15.61 C
2861 22-07-2019 22:20:00 23.1 C 62 % 15.42 C
2862 22-07-2019 22:25:00 22.9 C 63 % 15.48 C
2863 22-07-2019 22:30:00 22.8 C 64 % 15.64 C
2864 22-07-2019 22:35:00 22.6 C 65 % 15.69 C
2865 22-07-2019 22:40:00 22.4 C 66 % 15.74 C
2866 22-07-2019 22:45:00 22.3 C 66 % 15.64 C
2867 22-07-2019 22:50:00 22.1 C 66 % 15.45 C
2868 22-07-2019 22:55:00 22 C 66 % 15.36 C
2869 22-07-2019 23:00:00 21.9 C 67 % 15.5 C
2870 22-07-2019 23:05:00 21.7 C 68 % 15.54 C
2871 22-07-2019 23:10:00 21.4 C 69 % 15.48 C
2872 22-07-2019 23:15:00 21.2 C 70 % 15.51 C
2873 22-07-2019 23:20:00 21.1 C 70 % 15.42 C
2874 22-07-2019 23:25:00 21 C 71 % 15.54 C
2875 22-07-2019 23:30:00 20.8 C 72 % 15.57 C
Sensor: Nr:Datum:Temp:Feuchte:Taupunkt:
Aussen-T/F 2876 22-07-2019 23:35:00 20.7 C 72 % 15.47 C
2877 22-07-2019 23:40:00 20.5 C 72 % 15.28 C
2878 22-07-2019 23:45:00 20.4 C 73 % 15.4 C
2879 22-07-2019 23:50:00 20.3 C 74 % 15.51 C
2880 22-07-2019 23:55:00 20.1 C 74 % 15.32 C
2881 23-07-2019 00:00:00 20 C 75 % 15.43 C
2882 23-07-2019 00:05:00 19.8 C 75 % 15.24 C
2883 23-07-2019 00:10:00 19.8 C 75 % 15.24 C
2884 23-07-2019 00:15:00 19.6 C 75 % 15.05 C
2885 23-07-2019 00:20:00 19.5 C 76 % 15.16 C
2886 23-07-2019 00:25:00 19.4 C 76 % 15.06 C
2887 23-07-2019 00:30:00 19.3 C 76 % 14.97 C
2888 23-07-2019 00:35:00 19.2 C 77 % 15.07 C
2889 23-07-2019 00:40:00 19.2 C 77 % 15.07 C
2890 23-07-2019 00:45:00 19.1 C 77 % 14.97 C
2891 23-07-2019 00:50:00 19 C 78 % 15.08 C
2892 23-07-2019 00:55:00 18.9 C 78 % 14.98 C
2893 23-07-2019 01:00:00 18.8 C 78 % 14.88 C
2894 23-07-2019 01:05:00 18.8 C 78 % 14.88 C
2895 23-07-2019 01:10:00 18.7 C 79 % 14.99 C
2896 23-07-2019 01:15:00 18.6 C 79 % 14.89 C
2897 23-07-2019 01:20:00 18.5 C 80 % 14.99 C
2898 23-07-2019 01:25:00 18.4 C 80 % 14.89 C
2899 23-07-2019 01:30:00 18.3 C 80 % 14.79 C
2900 23-07-2019 01:35:00 18.2 C 80 % 14.69 C
Sensor: Nr:Datum:Temp:Feuchte:Taupunkt:
Aussen-T/F 2901 23-07-2019 01:40:00 18.2 C 81 % 14.89 C
2902 23-07-2019 01:45:00 18.1 C 81 % 14.79 C
2903 23-07-2019 01:50:00 18 C 81 % 14.69 C
2904 23-07-2019 01:55:00 17.9 C 81 % 14.59 C
2905 23-07-2019 02:00:00 17.9 C 81 % 14.59 C
2906 23-07-2019 02:05:00 17.8 C 82 % 14.69 C
2907 23-07-2019 02:10:00 17.8 C 82 % 14.69 C
2908 23-07-2019 02:15:00 17.7 C 82 % 14.59 C
2909 23-07-2019 02:20:00 17.7 C 82 % 14.59 C
2910 23-07-2019 02:25:00 17.6 C 82 % 14.49 C
2911 23-07-2019 02:30:00 17.5 C 83 % 14.58 C
2912 23-07-2019 02:35:00 17.4 C 83 % 14.48 C
2913 23-07-2019 02:40:00 17.4 C 83 % 14.48 C
2914 23-07-2019 02:45:00 17.3 C 83 % 14.39 C
2915 23-07-2019 02:50:00 17.3 C 83 % 14.39 C
2916 23-07-2019 02:55:00 17.3 C 84 % 14.57 C
2917 23-07-2019 03:00:00 17.2 C 84 % 14.47 C
2918 23-07-2019 03:05:00 17.1 C 84 % 14.38 C
2919 23-07-2019 03:10:00 16.9 C 84 % 14.18 C
2920 23-07-2019 03:15:00 16.9 C 85 % 14.36 C
2921 23-07-2019 03:20:00 16.9 C 85 % 14.36 C
2922 23-07-2019 03:25:00 16.9 C 85 % 14.36 C
2923 23-07-2019 03:30:00 16.8 C 85 % 14.26 C
2924 23-07-2019 03:35:00 16.8 C 85 % 14.26 C
2925 23-07-2019 03:40:00 16.7 C 86 % 14.35 C
Sensor: Nr:Datum:Temp:Feuchte:Taupunkt:
Aussen-T/F 2926 23-07-2019 03:45:00 16.7 C 86 % 14.35 C
2927 23-07-2019 03:50:00 16.6 C 86 % 14.25 C
2928 23-07-2019 03:55:00 16.6 C 86 % 14.25 C
2929 23-07-2019 04:00:00 16.6 C 86 % 14.25 C
2930 23-07-2019 04:05:00 16.5 C 87 % 14.33 C
2931 23-07-2019 04:10:00 16.4 C 87 % 14.23 C
2932 23-07-2019 04:15:00 16.4 C 87 % 14.23 C
2933 23-07-2019 04:20:00 16.3 C 87 % 14.13 C
2934 23-07-2019 04:25:00 16.3 C 87 % 14.13 C
2935 23-07-2019 04:30:00 16.2 C 88 % 14.21 C
2936 23-07-2019 04:35:00 16.2 C 88 % 14.21 C
2937 23-07-2019 04:40:00 16.2 C 88 % 14.21 C
2938 23-07-2019 04:45:00 16.2 C 88 % 14.21 C
2939 23-07-2019 04:50:00 16.1 C 88 % 14.11 C
2940 23-07-2019 04:55:00 16.1 C 88 % 14.11 C
2941 23-07-2019 05:00:00 16.1 C 88 % 14.11 C
2942 23-07-2019 05:05:00 16 C 89 % 14.19 C
2943 23-07-2019 05:10:00 16 C 89 % 14.19 C
2944 23-07-2019 05:15:00 15.9 C 89 % 14.09 C
2945 23-07-2019 05:20:00 15.9 C 89 % 14.09 C
2946 23-07-2019 05:25:00 15.8 C 89 % 13.99 C
2947 23-07-2019 05:30:00 15.8 C 89 % 13.99 C
2948 23-07-2019 05:35:00 15.8 C 89 % 13.99 C
2949 23-07-2019 05:40:00 15.7 C 89 % 13.89 C
2950 23-07-2019 05:45:00 15.7 C 89 % 13.89 C
Sensor: Nr:Datum:Temp:Feuchte:Taupunkt:
Aussen-T/F 2951 23-07-2019 05:50:00 15.6 C 90 % 13.97 C
2952 23-07-2019 05:55:00 15.6 C 90 % 13.97 C
2953 23-07-2019 06:00:00 15.6 C 90 % 13.97 C
2954 23-07-2019 06:05:00 15.6 C 90 % 13.97 C
2955 23-07-2019 06:10:00 15.6 C 91 % 14.14 C
2956 23-07-2019 06:15:00 15.6 C 91 % 14.14 C
2957 23-07-2019 06:20:00 15.6 C 91 % 14.14 C
2958 23-07-2019 06:25:00 15.6 C 91 % 14.14 C
2959 23-07-2019 06:30:00 15.7 C 91 % 14.24 C
2960 23-07-2019 06:35:00 15.7 C 91 % 14.24 C
2961 23-07-2019 06:40:00 15.7 C 91 % 14.24 C
2962 23-07-2019 06:45:00 15.7 C 91 % 14.24 C
2963 23-07-2019 06:50:00 15.7 C 91 % 14.24 C
2964 23-07-2019 06:55:00 15.8 C 91 % 14.33 C
2965 23-07-2019 07:00:00 15.8 C 91 % 14.33 C
2966 23-07-2019 07:05:00 15.9 C 91 % 14.43 C
2967 23-07-2019 07:10:00 16 C 91 % 14.53 C
2968 23-07-2019 07:15:00 16.1 C 91 % 14.63 C
2969 23-07-2019 07:20:00 16.1 C 91 % 14.63 C
2970 23-07-2019 07:25:00 16.1 C 91 % 14.63 C
2971 23-07-2019 07:30:00 16.1 C 91 % 14.63 C
2972 23-07-2019 07:35:00 16.2 C 91 % 14.73 C
2973 23-07-2019 07:40:00 16.2 C 91 % 14.73 C
2974 23-07-2019 07:45:00 16.2 C 91 % 14.73 C
2975 23-07-2019 07:50:00 16.3 C 91 % 14.83 C
Sensor: Nr:Datum:Temp:Feuchte:Taupunkt:
Aussen-T/F 2976 23-07-2019 07:55:00 16.3 C 91 % 14.83 C
2977 23-07-2019 08:00:00 16.4 C 91 % 14.93 C
2978 23-07-2019 08:05:00 16.4 C 91 % 14.93 C
2979 23-07-2019 08:10:00 16.5 C 91 % 15.03 C
2980 23-07-2019 08:15:00 16.6 C 91 % 15.13 C
2981 23-07-2019 08:20:00 16.7 C 91 % 15.22 C
2982 23-07-2019 08:25:00 16.7 C 91 % 15.22 C
2983 23-07-2019 08:30:00 16.8 C 91 % 15.32 C
2984 23-07-2019 08:35:00 16.9 C 90 % 15.25 C
2985 23-07-2019 08:40:00 17.1 C 90 % 15.45 C
2986 23-07-2019 08:45:00 17.2 C 90 % 15.55 C
2987 23-07-2019 08:50:00 17.3 C 90 % 15.64 C
2988 23-07-2019 08:55:00 17.4 C 90 % 15.74 C
2989 23-07-2019 09:00:00 17.6 C 90 % 15.94 C
2990 23-07-2019 09:05:00 17.7 C 89 % 15.86 C
2991 23-07-2019 09:10:00 17.8 C 89 % 15.96 C
2992 23-07-2019 09:15:00 18.1 C 89 % 16.26 C
2993 23-07-2019 09:20:00 18.3 C 88 % 16.28 C
2994 23-07-2019 09:25:00 18.6 C 88 % 16.57 C
2995 23-07-2019 09:30:00 18.8 C 87 % 16.59 C
2996 23-07-2019 09:35:00 19 C 87 % 16.79 C
2997 23-07-2019 09:40:00 19.2 C 86 % 16.8 C
2998 23-07-2019 09:45:00 19.5 C 85 % 16.91 C
2999 23-07-2019 09:50:00 19.8 C 84 % 17.02 C
3000 23-07-2019 09:55:00 20.1 C 83 % 17.12 C
Sensor: Nr:Datum:Temp:Feuchte:Taupunkt:
Aussen-T/F 3001 23-07-2019 10:00:00 20.4 C 83 % 17.42 C
3002 23-07-2019 10:05:00 20.7 C 81 % 17.32 C
3003 23-07-2019 10:10:00 21.1 C 80 % 17.51 C
3004 23-07-2019 10:15:00 21.3 C 79 % 17.51 C
3005 23-07-2019 10:20:00 21.6 C 79 % 17.8 C
3006 23-07-2019 10:25:00 21.9 C 77 % 17.68 C
3007 23-07-2019 10:30:00 22.3 C 77 % 18.07 C
3008 23-07-2019 10:35:00 22.7 C 76 % 18.25 C
3009 23-07-2019 10:40:00 23.2 C 73 % 18.09 C
3010 23-07-2019 10:45:00 23.8 C 66 % 17.07 C
3011 23-07-2019 10:50:00 24.8 C 66 % 18.01 C
3012 23-07-2019 10:55:00 25.3 C 63 % 17.75 C
3013 23-07-2019 11:00:00 25.6 C 61 % 17.52 C
3014 23-07-2019 11:05:00 25.9 C 58 % 17 C
3015 23-07-2019 11:10:00 26.4 C 57 % 17.19 C
3016 23-07-2019 11:15:00 26.9 C 57 % 17.66 C
3017 23-07-2019 11:20:00 27.1 C 57 % 17.85 C
3018 23-07-2019 11:25:00 27.1 C 53 % 16.7 C
3019 23-07-2019 11:30:00 27.4 C 53 % 16.97 C
3020 23-07-2019 11:35:00 27.8 C 51 % 16.73 C
3021 23-07-2019 11:40:00 28.1 C 49 % 16.38 C
3022 23-07-2019 11:45:00 28.4 C 48 % 16.33 C
3023 23-07-2019 11:50:00 28.7 C 47 % 16.27 C
3024 23-07-2019 11:55:00 28.8 C 49 % 17.02 C
3025 23-07-2019 12:00:00 28.9 C 47 % 16.45 C
Sensor: Nr:Datum:Temp:Feuchte:Taupunkt:
Aussen-T/F 3026 23-07-2019 12:05:00 29.1 C 45 % 15.95 C
3027 23-07-2019 12:10:00 29.2 C 46 % 16.39 C
3028 23-07-2019 12:15:00 29.3 C 45 % 16.13 C
3029 23-07-2019 12:20:00 29.4 C 46 % 16.57 C
3030 23-07-2019 12:25:00 29.5 C 44 % 15.96 C
3031 23-07-2019 12:30:00 29.6 C 44 % 16.05 C
3032 23-07-2019 12:35:00 29.8 C 42 % 15.51 C
3033 23-07-2019 12:40:00 29.9 C 43 % 15.96 C
3034 23-07-2019 12:45:00 30 C 42 % 15.69 C
3035 23-07-2019 12:50:00 30.2 C 43 % 16.23 C
3036 23-07-2019 12:55:00 30.2 C 41 % 15.49 C
3037 23-07-2019 13:00:00 30.3 C 41 % 15.58 C
3038 23-07-2019 13:05:00 30.3 C 42 % 15.95 C
3039 23-07-2019 13:10:00 30.4 C 41 % 15.67 C
3040 23-07-2019 13:15:00 30.6 C 40 % 15.46 C
3041 23-07-2019 13:20:00 30.6 C 40 % 15.46 C
3042 23-07-2019 13:25:00 30.7 C 40 % 15.55 C
3043 23-07-2019 13:30:00 30.8 C 40 % 15.64 C
3044 23-07-2019 13:35:00 30.9 C 39 % 15.33 C
3045 23-07-2019 13:40:00 31.1 C 38 % 15.1 C
3046 23-07-2019 13:45:00 31.2 C 40 % 15.99 C
3047 23-07-2019 13:50:00 31.2 C 40 % 15.99 C
3048 23-07-2019 13:55:00 31.3 C 38 % 15.28 C
3049 23-07-2019 14:00:00 31.3 C 39 % 15.69 C
3050 23-07-2019 14:05:00 31.4 C 38 % 15.37 C
Sensor: Nr:Datum:Temp:Feuchte:Taupunkt:
Aussen-T/F 3051 23-07-2019 14:10:00 31.7 C 39 % 16.04 C
3052 23-07-2019 14:15:00 31.9 C 38 % 15.81 C
3053 23-07-2019 14:20:00 32.1 C 38 % 15.99 C
3054 23-07-2019 14:25:00 32.2 C 37 % 15.66 C
3055 23-07-2019 14:30:00 32.3 C 36 % 15.32 C
3056 23-07-2019 14:35:00 32.3 C 36 % 15.32 C
3057 23-07-2019 14:40:00 32.4 C 36 % 15.41 C
3058 23-07-2019 14:45:00 32.5 C 36 % 15.5 C
3059 23-07-2019 14:50:00 32.6 C 37 % 16.01 C
3060 23-07-2019 14:55:00 32.7 C 36 % 15.67 C
3061 23-07-2019 15:00:00 32.8 C 37 % 16.19 C
3062 23-07-2019 15:05:00 33.1 C 38 % 16.87 C
3063 23-07-2019 15:10:00 33.2 C 37 % 16.54 C
3064 23-07-2019 15:15:00 33.4 C 36 % 16.29 C
3065 23-07-2019 15:20:00 33.6 C 36 % 16.46 C
3066 23-07-2019 15:25:00 33.8 C 34 % 15.74 C
3067 23-07-2019 15:30:00 33.8 C 34 % 15.74 C
3068 23-07-2019 15:35:00 34 C 34 % 15.92 C
3069 23-07-2019 15:40:00 34.4 C 34 % 16.26 C
3070 23-07-2019 15:45:00 34.7 C 34 % 16.53 C
3071 23-07-2019 15:50:00 34.9 C 33 % 16.23 C
3072 23-07-2019 15:55:00 35.2 C 34 % 16.96 C
3073 23-07-2019 16:00:00 35.5 C 32 % 16.27 C
3074 23-07-2019 16:05:00 35.6 C 32 % 16.35 C
3075 23-07-2019 16:10:00 35.6 C 30 % 15.34 C
Sensor: Nr:Datum:Temp:Feuchte:Taupunkt:
Aussen-T/F 3076 23-07-2019 16:15:00 35.6 C 33 % 16.84 C
3077 23-07-2019 16:20:00 35.8 C 31 % 16.03 C
3078 23-07-2019 16:25:00 35.9 C 31 % 16.11 C
3079 23-07-2019 16:30:00 36.1 C 30 % 15.77 C
3080 23-07-2019 16:35:00 36 C 31 % 16.2 C
3081 23-07-2019 16:40:00 35.8 C 31 % 16.03 C
3082 23-07-2019 16:45:00 35.8 C 30 % 15.52 C
3083 23-07-2019 16:50:00 35.8 C 30 % 15.52 C
3084 23-07-2019 16:55:00 36.1 C 30 % 15.77 C
3085 23-07-2019 17:00:00 36.1 C 29 % 15.24 C
3086 23-07-2019 17:05:00 36.3 C 30 % 15.94 C
3087 23-07-2019 17:10:00 36.4 C 29 % 15.5 C
3088 23-07-2019 17:15:00 36.3 C 28 % 14.87 C
3089 23-07-2019 17:20:00 36.3 C 29 % 15.41 C
3090 23-07-2019 17:25:00 36.4 C 29 % 15.5 C
3091 23-07-2019 17:30:00 36.4 C 29 % 15.5 C
3092 23-07-2019 17:35:00 36.5 C 28 % 15.04 C
3093 23-07-2019 17:40:00 36.6 C 28 % 15.12 C
3094 23-07-2019 17:45:00 36.6 C 28 % 15.12 C
3095 23-07-2019 17:50:00 36.3 C 28 % 14.87 C
3096 23-07-2019 17:55:00 36.4 C 29 % 15.5 C
3097 23-07-2019 18:00:00 36.7 C 30 % 16.29 C
3098 23-07-2019 18:05:00 36.8 C 28 % 15.29 C
3099 23-07-2019 18:10:00 36.8 C 28 % 15.29 C
3100 23-07-2019 18:15:00 36.7 C 29 % 15.76 C
Sensor: Nr:Datum:Temp:Feuchte:Taupunkt:
Aussen-T/F 3101 23-07-2019 18:20:00 37 C 28 % 15.46 C
3102 23-07-2019 18:25:00 36.9 C 27 % 14.81 C
3103 23-07-2019 18:30:00 36.8 C 28 % 15.29 C
3104 23-07-2019 18:35:00 36.8 C 29 % 15.84 C
3105 23-07-2019 18:40:00 36.9 C 29 % 15.93 C
3106 23-07-2019 18:45:00 36.9 C 27 % 14.81 C
3107 23-07-2019 18:50:00 36.6 C 29 % 15.67 C
3108 23-07-2019 18:55:00 36.3 C 29 % 15.41 C
3109 23-07-2019 19:00:00 36.2 C 29 % 15.33 C
3110 23-07-2019 19:05:00 36.2 C 29 % 15.33 C
3111 23-07-2019 19:10:00 36.3 C 29 % 15.41 C
3112 23-07-2019 19:15:00 36.3 C 30 % 15.94 C
3113 23-07-2019 19:20:00 36.1 C 28 % 14.7 C
3114 23-07-2019 19:25:00 35.8 C 31 % 16.03 C
3115 23-07-2019 19:30:00 35.6 C 30 % 15.34 C
3116 23-07-2019 19:35:00 35.4 C 31 % 15.68 C
3117 23-07-2019 19:40:00 35.2 C 30 % 15 C
3118 23-07-2019 19:45:00 35 C 33 % 16.32 C
3119 23-07-2019 19:50:00 34.9 C 36 % 17.6 C
3120 23-07-2019 19:55:00 34.7 C 34 % 16.53 C
3121 23-07-2019 20:00:00 34.5 C 33 % 15.88 C
3122 23-07-2019 20:05:00 34.3 C 35 % 16.63 C
3123 23-07-2019 20:10:00 34.2 C 38 % 17.84 C
3124 23-07-2019 20:15:00 33.9 C 39 % 17.99 C
3125 23-07-2019 20:20:00 33.6 C 39 % 17.73 C
Sensor: Nr:Datum:Temp:Feuchte:Taupunkt:
Aussen-T/F 3126 23-07-2019 20:25:00 33.3 C 40 % 17.86 C
3127 23-07-2019 20:30:00 32.8 C 45 % 19.3 C
3128 23-07-2019 20:35:00 32.3 C 42 % 17.74 C
3129 23-07-2019 20:40:00 31.7 C 42 % 17.21 C
3130 23-07-2019 20:45:00 31.2 C 44 % 17.49 C
3131 23-07-2019 20:50:00 30.7 C 45 % 17.4 C
3132 23-07-2019 20:55:00 30.2 C 46 % 17.3 C
3133 23-07-2019 21:00:00 29.7 C 47 % 17.18 C
3134 23-07-2019 21:05:00 29.4 C 48 % 17.24 C
3135 23-07-2019 21:10:00 29.1 C 48 % 16.97 C
3136 23-07-2019 21:15:00 28.8 C 49 % 17.02 C
3137 23-07-2019 21:20:00 28.4 C 50 % 16.97 C
3138 23-07-2019 21:25:00 28.1 C 50 % 16.7 C
3139 23-07-2019 21:30:00 27.7 C 51 % 16.64 C
3140 23-07-2019 21:35:00 27.4 C 52 % 16.67 C
3141 23-07-2019 21:40:00 27.2 C 52 % 16.49 C
3142 23-07-2019 21:45:00 26.9 C 52 % 16.21 C
3143 23-07-2019 21:50:00 26.8 C 53 % 16.42 C
3144 23-07-2019 21:55:00 26.6 C 52 % 15.94 C
3145 23-07-2019 22:00:00 26.5 C 53 % 16.14 C
3146 23-07-2019 22:05:00 26.4 C 53 % 16.05 C
3147 23-07-2019 22:10:00 26.2 C 54 % 16.16 C
3148 23-07-2019 22:15:00 25.8 C 56 % 16.36 C
3149 23-07-2019 22:20:00 25.6 C 57 % 16.45 C
3150 23-07-2019 22:25:00 25.2 C 57 % 16.08 C
Sensor: Nr:Datum:Temp:Feuchte:Taupunkt:
Aussen-T/F 3151 23-07-2019 22:30:00 25 C 58 % 16.16 C
3152 23-07-2019 22:35:00 24.8 C 60 % 16.51 C
3153 23-07-2019 22:40:00 24.6 C 60 % 16.32 C
3154 23-07-2019 22:45:00 24.3 C 61 % 16.3 C
3155 23-07-2019 22:50:00 24.1 C 62 % 16.37 C
3156 23-07-2019 22:55:00 23.9 C 63 % 16.43 C
3157 23-07-2019 23:00:00 23.7 C 63 % 16.24 C
3158 23-07-2019 23:05:00 23.5 C 64 % 16.3 C
3159 23-07-2019 23:10:00 23.3 C 65 % 16.35 C
3160 23-07-2019 23:15:00 23.2 C 65 % 16.26 C
3161 23-07-2019 23:20:00 23.1 C 66 % 16.4 C
3162 23-07-2019 23:25:00 23 C 66 % 16.31 C
3163 23-07-2019 23:30:00 22.9 C 66 % 16.21 C
3164 23-07-2019 23:35:00 22.8 C 66 % 16.12 C
3165 23-07-2019 23:40:00 22.7 C 67 % 16.26 C
3166 23-07-2019 23:45:00 22.5 C 68 % 16.3 C
3167 23-07-2019 23:50:00 22.3 C 68 % 16.11 C
3168 23-07-2019 23:55:00 22.2 C 68 % 16.01 C
3169 24-07-2019 00:00:00 22.1 C 69 % 16.15 C
3170 24-07-2019 00:05:00 21.9 C 70 % 16.18 C
3171 24-07-2019 00:10:00 21.8 C 70 % 16.09 C
3172 24-07-2019 00:15:00 21.7 C 70 % 15.99 C
3173 24-07-2019 00:20:00 21.6 C 71 % 16.12 C
3174 24-07-2019 00:25:00 21.4 C 71 % 15.93 C
3175 24-07-2019 00:30:00 21.4 C 72 % 16.14 C
Sensor: Nr:Datum:Temp:Feuchte:Taupunkt:
Aussen-T/F 3176 24-07-2019 00:35:00 21.3 C 72 % 16.05 C
3177 24-07-2019 00:40:00 21.2 C 73 % 16.17 C
3178 24-07-2019 00:45:00 21.1 C 73 % 16.07 C
3179 24-07-2019 00:50:00 20.9 C 73 % 15.88 C
3180 24-07-2019 00:55:00 20.9 C 74 % 16.09 C
3181 24-07-2019 01:00:00 20.8 C 74 % 16 C
3182 24-07-2019 01:05:00 20.7 C 76 % 16.32 C
3183 24-07-2019 01:10:00 20.7 C 76 % 16.32 C
3184 24-07-2019 01:15:00 20.6 C 76 % 16.22 C
3185 24-07-2019 01:20:00 20.6 C 76 % 16.22 C
3186 24-07-2019 01:25:00 20.4 C 76 % 16.03 C
3187 24-07-2019 01:30:00 20.3 C 77 % 16.14 C
3188 24-07-2019 01:35:00 20.2 C 77 % 16.04 C
3189 24-07-2019 01:40:00 20.1 C 77 % 15.94 C
3190 24-07-2019 01:45:00 19.9 C 77 % 15.75 C
3191 24-07-2019 01:50:00 19.8 C 77 % 15.65 C
3192 24-07-2019 01:55:00 19.7 C 78 % 15.76 C
3193 24-07-2019 02:00:00 19.7 C 78 % 15.76 C
3194 24-07-2019 02:05:00 19.6 C 78 % 15.66 C
3195 24-07-2019 02:10:00 19.5 C 78 % 15.56 C
3196 24-07-2019 02:15:00 19.5 C 78 % 15.56 C
3197 24-07-2019 02:20:00 19.4 C 78 % 15.47 C
3198 24-07-2019 02:25:00 19.4 C 79 % 15.66 C
3199 24-07-2019 02:30:00 19.3 C 79 % 15.57 C
3200 24-07-2019 02:35:00 19.2 C 79 % 15.47 C
Sensor: Nr:Datum:Temp:Feuchte:Taupunkt:
Aussen-T/F 3201 24-07-2019 02:40:00 19.1 C 80 % 15.57 C
3202 24-07-2019 02:45:00 19.1 C 80 % 15.57 C
3203 24-07-2019 02:50:00 19 C 80 % 15.47 C
3204 24-07-2019 02:55:00 18.9 C 81 % 15.57 C
3205 24-07-2019 03:00:00 18.9 C 81 % 15.57 C
3206 24-07-2019 03:05:00 19.1 C 81 % 15.76 C
3207 24-07-2019 03:10:00 19.1 C 80 % 15.57 C
3208 24-07-2019 03:15:00 18.9 C 80 % 15.38 C
3209 24-07-2019 03:20:00 18.8 C 80 % 15.28 C
3210 24-07-2019 03:25:00 18.7 C 81 % 15.37 C
3211 24-07-2019 03:30:00 18.6 C 82 % 15.47 C
3212 24-07-2019 03:35:00 18.5 C 83 % 15.56 C
3213 24-07-2019 03:40:00 18.4 C 83 % 15.46 C
3214 24-07-2019 03:45:00 18.3 C 83 % 15.36 C
3215 24-07-2019 03:50:00 18.2 C 83 % 15.27 C
3216 24-07-2019 03:55:00 18.1 C 84 % 15.35 C
3217 24-07-2019 04:00:00 18.1 C 84 % 15.35 C
3218 24-07-2019 04:05:00 18 C 84 % 15.26 C
3219 24-07-2019 04:10:00 17.9 C 84 % 15.16 C
3220 24-07-2019 04:15:00 17.9 C 84 % 15.16 C
3221 24-07-2019 04:20:00 17.8 C 84 % 15.06 C
3222 24-07-2019 04:25:00 17.8 C 84 % 15.06 C
3223 24-07-2019 04:30:00 17.8 C 85 % 15.25 C
3224 24-07-2019 04:35:00 17.7 C 85 % 15.15 C
3225 24-07-2019 04:40:00 17.7 C 85 % 15.15 C
Sensor: Nr:Datum:Temp:Feuchte:Taupunkt:
Aussen-T/F 3226 24-07-2019 04:45:00 17.6 C 85 % 15.05 C
3227 24-07-2019 04:50:00 17.5 C 85 % 14.95 C
3228 24-07-2019 04:55:00 17.4 C 86 % 15.03 C
3229 24-07-2019 05:00:00 17.4 C 86 % 15.03 C
3230 24-07-2019 05:05:00 17.4 C 86 % 15.03 C
3231 24-07-2019 05:10:00 17.3 C 86 % 14.94 C
3232 24-07-2019 05:15:00 17.3 C 87 % 15.12 C
3233 24-07-2019 05:20:00 17.3 C 87 % 15.12 C
3234 24-07-2019 05:25:00 17.2 C 87 % 15.02 C
3235 24-07-2019 05:30:00 17.2 C 87 % 15.02 C
3236 24-07-2019 05:35:00 17.2 C 88 % 15.2 C
3237 24-07-2019 05:40:00 17.2 C 88 % 15.2 C
3238 24-07-2019 05:45:00 17.1 C 88 % 15.1 C
3239 24-07-2019 05:50:00 17.1 C 87 % 14.92 C
3240 24-07-2019 05:55:00 17.1 C 88 % 15.1 C
3241 24-07-2019 06:00:00 17.1 C 88 % 15.1 C
3242 24-07-2019 06:05:00 17.1 C 88 % 15.1 C
3243 24-07-2019 06:10:00 17.1 C 88 % 15.1 C
3244 24-07-2019 06:15:00 17.1 C 88 % 15.1 C
3245 24-07-2019 06:20:00 17 C 88 % 15 C
3246 24-07-2019 06:25:00 17.1 C 88 % 15.1 C
3247 24-07-2019 06:30:00 17.1 C 88 % 15.1 C
3248 24-07-2019 06:35:00 17 C 88 % 15 C
3249 24-07-2019 06:40:00 17 C 88 % 15 C
3250 24-07-2019 06:45:00 17.1 C 89 % 15.27 C
Sensor: Nr:Datum:Temp:Feuchte:Taupunkt:
Aussen-T/F 3251 24-07-2019 06:50:00 17.1 C 89 % 15.27 C
3252 24-07-2019 06:55:00 17.1 C 89 % 15.27 C
3253 24-07-2019 07:00:00 17.1 C 90 % 15.45 C
3254 24-07-2019 07:05:00 17.1 C 90 % 15.45 C
3255 24-07-2019 07:10:00 17.1 C 90 % 15.45 C
3256 24-07-2019 07:15:00 17.1 C 90 % 15.45 C
3257 24-07-2019 07:20:00 17.2 C 90 % 15.55 C
3258 24-07-2019 07:25:00 17.2 C 90 % 15.55 C
3259 24-07-2019 07:30:00 17.3 C 90 % 15.64 C
3260 24-07-2019 07:35:00 17.3 C 90 % 15.64 C
3261 24-07-2019 07:40:00 17.3 C 90 % 15.64 C
3262 24-07-2019 07:45:00 17.4 C 90 % 15.74 C
3263 24-07-2019 07:50:00 17.5 C 90 % 15.84 C
3264 24-07-2019 07:55:00 17.6 C 90 % 15.94 C
3265 24-07-2019 08:00:00 17.6 C 90 % 15.94 C
3266 24-07-2019 08:05:00 17.7 C 90 % 16.04 C
3267 24-07-2019 08:10:00 17.8 C 90 % 16.14 C
3268 24-07-2019 08:15:00 18 C 89 % 16.16 C
3269 24-07-2019 08:20:00 18.2 C 89 % 16.36 C
3270 24-07-2019 08:25:00 18.3 C 89 % 16.46 C
3271 24-07-2019 08:30:00 18.4 C 89 % 16.55 C
3272 24-07-2019 08:35:00 18.5 C 88 % 16.48 C
3273 24-07-2019 08:40:00 18.6 C 88 % 16.57 C
3274 24-07-2019 08:45:00 18.8 C 88 % 16.77 C
3275 24-07-2019 08:50:00 18.9 C 88 % 16.87 C
Sensor: Nr:Datum:Temp:Feuchte:Taupunkt:
Aussen-T/F 3276 24-07-2019 08:55:00 19.1 C 88 % 17.07 C
3277 24-07-2019 09:00:00 19.2 C 88 % 17.16 C
3278 24-07-2019 09:05:00 19.3 C 88 % 17.26 C
3279 24-07-2019 09:10:00 19.5 C 88 % 17.46 C
3280 24-07-2019 09:15:00 19.6 C 87 % 17.38 C
3281 24-07-2019 09:20:00 19.8 C 87 % 17.57 C
3282 24-07-2019 09:25:00 20.1 C 86 % 17.68 C
3283 24-07-2019 09:30:00 20.3 C 86 % 17.88 C
3284 24-07-2019 09:35:00 20.5 C 85 % 17.89 C
3285 24-07-2019 09:40:00 20.7 C 84 % 17.9 C
3286 24-07-2019 09:45:00 20.9 C 83 % 17.9 C
3287 24-07-2019 09:50:00 21.3 C 82 % 18.1 C
3288 24-07-2019 09:55:00 21.6 C 80 % 18 C
3289 24-07-2019 10:00:00 21.9 C 78 % 17.89 C
3290 24-07-2019 10:05:00 22.3 C 79 % 18.48 C
3291 24-07-2019 10:10:00 22.6 C 77 % 18.36 C
3292 24-07-2019 10:15:00 22.8 C 75 % 18.14 C
3293 24-07-2019 10:20:00 23.1 C 74 % 18.21 C
3294 24-07-2019 10:25:00 23.6 C 73 % 18.48 C
3295 24-07-2019 10:30:00 24 C 72 % 18.64 C
3296 24-07-2019 10:35:00 24.3 C 71 % 18.7 C
3297 24-07-2019 10:40:00 24.6 C 69 % 18.53 C
3298 24-07-2019 10:45:00 24.9 C 67 % 18.35 C
3299 24-07-2019 10:50:00 25.3 C 67 % 18.73 C
3300 24-07-2019 10:55:00 25.6 C 67 % 19.01 C
Sensor: Nr:Datum:Temp:Feuchte:Taupunkt:
Aussen-T/F 3301 24-07-2019 11:00:00 25.8 C 67 % 19.2 C
3302 24-07-2019 11:05:00 26 C 64 % 18.66 C
3303 24-07-2019 11:10:00 26.3 C 66 % 19.44 C
3304 24-07-2019 11:15:00 26.6 C 65 % 19.48 C
3305 24-07-2019 11:20:00 26.8 C 60 % 18.38 C
3306 24-07-2019 11:25:00 27.1 C 60 % 18.66 C
3307 24-07-2019 11:30:00 27.4 C 59 % 18.68 C
3308 24-07-2019 11:35:00 27.9 C 58 % 18.87 C
3309 24-07-2019 11:40:00 28.3 C 55 % 18.39 C
3310 24-07-2019 11:45:00 28.6 C 54 % 18.38 C
3311 24-07-2019 11:50:00 29 C 53 % 18.45 C
3312 24-07-2019 11:55:00 29.4 C 53 % 18.82 C
3313 24-07-2019 12:00:00 29.8 C 53 % 19.19 C
3314 24-07-2019 12:05:00 30.3 C 48 % 18.06 C
3315 24-07-2019 12:10:00 30.7 C 47 % 18.09 C
3316 24-07-2019 12:15:00 31.2 C 44 % 17.49 C
3317 24-07-2019 12:20:00 31.7 C 42 % 17.21 C
3318 24-07-2019 12:25:00 32.1 C 43 % 17.94 C
3319 24-07-2019 12:30:00 32.4 C 38 % 16.25 C
3320 24-07-2019 12:35:00 32.8 C 37 % 16.19 C
3321 24-07-2019 12:40:00 33 C 37 % 16.36 C
3322 24-07-2019 12:45:00 33.3 C 38 % 17.05 C
3323 24-07-2019 12:50:00 33.5 C 37 % 16.81 C
3324 24-07-2019 12:55:00 33.7 C 36 % 16.55 C
3325 24-07-2019 13:00:00 33.8 C 34 % 15.74 C
Sensor: Nr:Datum:Temp:Feuchte:Taupunkt:
Aussen-T/F 3326 24-07-2019 13:05:00 33.9 C 31 % 14.39 C
3327 24-07-2019 13:10:00 33.9 C 30 % 13.89 C
3328 24-07-2019 13:15:00 33.9 C 31 % 14.39 C
3329 24-07-2019 13:20:00 34 C 30 % 13.97 C
3330 24-07-2019 13:25:00 34.1 C 29 % 13.54 C
3331 24-07-2019 13:30:00 34.2 C 28 % 13.08 C
3332 24-07-2019 13:35:00 34.3 C 29 % 13.71 C
3333 24-07-2019 13:40:00 34.3 C 27 % 12.61 C
3334 24-07-2019 13:45:00 34.4 C 27 % 12.7 C
3335 24-07-2019 13:50:00 34.6 C 27 % 12.87 C
3336 24-07-2019 13:55:00 34.7 C 26 % 12.38 C
3337 24-07-2019 14:00:00 34.8 C 27 % 13.04 C
3338 24-07-2019 14:05:00 34.8 C 26 % 12.46 C
3339 24-07-2019 14:10:00 34.9 C 27 % 13.12 C
3340 24-07-2019 14:15:00 35 C 27 % 13.21 C
3341 24-07-2019 14:20:00 35.1 C 26 % 12.71 C
3342 24-07-2019 14:25:00 35.3 C 27 % 13.46 C
3343 24-07-2019 14:30:00 35.3 C 26 % 12.88 C
3344 24-07-2019 14:35:00 35.5 C 26 % 13.05 C
3345 24-07-2019 14:40:00 35.6 C 28 % 14.27 C
3346 24-07-2019 14:45:00 35.8 C 27 % 13.88 C
3347 24-07-2019 14:50:00 35.8 C 27 % 13.88 C
3348 24-07-2019 14:55:00 35.9 C 28 % 14.53 C
3349 24-07-2019 15:00:00 35.9 C 28 % 14.53 C
3350 24-07-2019 15:05:00 36.1 C 30 % 15.77 C
Sensor: Nr:Datum:Temp:Feuchte:Taupunkt:
Aussen-T/F 3351 24-07-2019 15:10:00 36.2 C 28 % 14.78 C
3352 24-07-2019 15:15:00 36.3 C 27 % 14.31 C
3353 24-07-2019 15:20:00 36.3 C 26 % 13.72 C
3354 24-07-2019 15:25:00 36.4 C 25 % 13.21 C
3355 24-07-2019 15:30:00 36.8 C 25 % 13.54 C
3356 24-07-2019 15:35:00 37.2 C 23 % 12.6 C
3357 24-07-2019 15:40:00 37.4 C 24 % 13.42 C
3358 24-07-2019 15:45:00 37.9 C 26 % 15.07 C
3359 24-07-2019 15:50:00 38.4 C 25 % 14.88 C
3360 24-07-2019 15:55:00 38.8 C 25 % 15.22 C
3361 24-07-2019 16:00:00 39.2 C 23 % 14.26 C
3362 24-07-2019 16:05:00 39.3 C 22 % 13.65 C
3363 24-07-2019 16:10:00 39.4 C 23 % 14.42 C
3364 24-07-2019 16:15:00 39.4 C 25 % 15.72 C
3365 24-07-2019 16:20:00 39.5 C 25 % 15.8 C
3366 24-07-2019 16:25:00 39.7 C 24 % 15.33 C
3367 24-07-2019 16:30:00 39.8 C 22 % 14.06 C
3368 24-07-2019 16:35:00 39.7 C 22 % 13.98 C
3369 24-07-2019 16:40:00 39.6 C 22 % 13.9 C
3370 24-07-2019 16:45:00 39.7 C 23 % 14.67 C
3371 24-07-2019 16:50:00 39.9 C 22 % 14.15 C
3372 24-07-2019 16:55:00 39.9 C 24 % 15.5 C
3373 24-07-2019 17:00:00 39.9 C 23 % 14.83 C
3374 24-07-2019 17:05:00 40.1 C 27 % 17.52 C
3375 24-07-2019 17:10:00 39.9 C 21 % 13.43 C
Sensor: Nr:Datum:Temp:Feuchte:Taupunkt:
Aussen-T/F 3376 24-07-2019 17:15:00 39.9 C 23 % 14.83 C
3377 24-07-2019 17:20:00 40 C 22 % 14.23 C
3378 24-07-2019 17:25:00 39.9 C 22 % 14.15 C
3379 24-07-2019 17:30:00 39.8 C 22 % 14.06 C
3380 24-07-2019 17:35:00 39.5 C 23 % 14.5 C
3381 24-07-2019 17:40:00 39.3 C 22 % 13.65 C
3382 24-07-2019 17:45:00 39 C 23 % 14.09 C
3383 24-07-2019 17:50:00 38.9 C 23 % 14.01 C
3384 24-07-2019 17:55:00 39.1 C 24 % 14.83 C
3385 24-07-2019 18:00:00 39.4 C 23 % 14.42 C
3386 24-07-2019 18:05:00 39.6 C 24 % 15.25 C
3387 24-07-2019 18:10:00 39.8 C 22 % 14.06 C
3388 24-07-2019 18:15:00 39.8 C 22 % 14.06 C
3389 24-07-2019 18:20:00 39.4 C 22 % 13.74 C
3390 24-07-2019 18:25:00 39.2 C 23 % 14.26 C
3391 24-07-2019 18:30:00 39.2 C 22 % 13.57 C
3392 24-07-2019 18:35:00 39.2 C 23 % 14.26 C
3393 24-07-2019 18:40:00 39.1 C 23 % 14.17 C
3394 24-07-2019 18:45:00 39.1 C 22 % 13.49 C
3395 24-07-2019 18:50:00 39.1 C 23 % 14.17 C
3396 24-07-2019 18:55:00 38.9 C 23 % 14.01 C
3397 24-07-2019 19:00:00 38.8 C 22 % 13.24 C
3398 24-07-2019 19:05:00 38.7 C 23 % 13.84 C
3399 24-07-2019 19:10:00 38.6 C 27 % 16.25 C
3400 24-07-2019 19:15:00 38.7 C 26 % 15.74 C
Sensor: Nr:Datum:Temp:Feuchte:Taupunkt:
Aussen-T/F 3401 24-07-2019 19:20:00 38.8 C 23 % 13.92 C
3402 24-07-2019 19:25:00 38.8 C 28 % 16.99 C
3403 24-07-2019 19:30:00 38.7 C 29 % 17.46 C
3404 24-07-2019 19:35:00 38.7 C 30 % 18 C
3405 24-07-2019 19:40:00 38.4 C 31 % 18.26 C
3406 24-07-2019 19:45:00 38.2 C 30 % 17.57 C
3407 24-07-2019 19:50:00 37.9 C 31 % 17.83 C
3408 24-07-2019 19:55:00 37.6 C 31 % 17.58 C
3409 24-07-2019 20:00:00 37.1 C 34 % 18.61 C
3410 24-07-2019 20:05:00 36.4 C 33 % 17.53 C
3411 24-07-2019 20:10:00 35.6 C 34 % 17.31 C
3412 24-07-2019 20:15:00 34.8 C 35 % 17.07 C
3413 24-07-2019 20:20:00 33.9 C 38 % 17.58 C
3414 24-07-2019 20:25:00 33.1 C 40 % 17.68 C
3415 24-07-2019 20:30:00 32.4 C 42 % 17.83 C
3416 24-07-2019 20:35:00 31.7 C 44 % 17.94 C
3417 24-07-2019 20:40:00 31.2 C 44 % 17.49 C
3418 24-07-2019 20:45:00 30.8 C 45 % 17.49 C
3419 24-07-2019 20:50:00 30.4 C 45 % 17.13 C
3420 24-07-2019 20:55:00 30.2 C 46 % 17.3 C
3421 24-07-2019 21:00:00 29.9 C 47 % 17.36 C
3422 24-07-2019 21:05:00 29.7 C 47 % 17.18 C
3423 24-07-2019 21:10:00 29.4 C 48 % 17.24 C
3424 24-07-2019 21:15:00 29.2 C 48 % 17.06 C
3425 24-07-2019 21:20:00 29 C 49 % 17.2 C
Sensor: Nr:Datum:Temp:Feuchte:Taupunkt:
Aussen-T/F 3426 24-07-2019 21:25:00 28.8 C 49 % 17.02 C
3427 24-07-2019 21:30:00 28.7 C 49 % 16.93 C
3428 24-07-2019 21:35:00 28.5 C 50 % 17.06 C
3429 24-07-2019 21:40:00 28.3 C 49 % 16.56 C
3430 24-07-2019 21:45:00 28.2 C 50 % 16.79 C
3431 24-07-2019 21:50:00 28.1 C 50 % 16.7 C
3432 24-07-2019 21:55:00 28.1 C 50 % 16.7 C
3433 24-07-2019 22:00:00 27.9 C 50 % 16.51 C
3434 24-07-2019 22:05:00 27.8 C 51 % 16.73 C
3435 24-07-2019 22:10:00 27.8 C 51 % 16.73 C
3436 24-07-2019 22:15:00 27.7 C 51 % 16.64 C
3437 24-07-2019 22:20:00 27.6 C 51 % 16.55 C
3438 24-07-2019 22:25:00 27.4 C 52 % 16.67 C
3439 24-07-2019 22:30:00 27.3 C 52 % 16.58 C
3440 24-07-2019 22:35:00 27.2 C 53 % 16.79 C
3441 24-07-2019 22:40:00 27.1 C 53 % 16.7 C
3442 24-07-2019 22:45:00 27 C 53 % 16.6 C
3443 24-07-2019 22:50:00 26.9 C 53 % 16.51 C
3444 24-07-2019 22:55:00 26.8 C 54 % 16.71 C
3445 24-07-2019 23:00:00 26.8 C 54 % 16.71 C
3446 24-07-2019 23:05:00 26.6 C 55 % 16.82 C
3447 24-07-2019 23:10:00 26.4 C 56 % 16.92 C
3448 24-07-2019 23:15:00 26.2 C 57 % 17.01 C
3449 24-07-2019 23:20:00 25.9 C 58 % 17 C
3450 24-07-2019 23:25:00 25.7 C 58 % 16.82 C
Sensor: Nr:Datum:Temp:Feuchte:Taupunkt:
Aussen-T/F 3451 24-07-2019 23:30:00 25.4 C 58 % 16.54 C
3452 24-07-2019 23:35:00 25.2 C 58 % 16.35 C
3453 24-07-2019 23:40:00 25 C 60 % 16.7 C
3454 24-07-2019 23:45:00 24.8 C 61 % 16.77 C
3455 24-07-2019 23:50:00 24.6 C 62 % 16.84 C
3456 24-07-2019 23:55:00 24.4 C 63 % 16.9 C
3457 25-07-2019 00:00:00 24.3 C 62 % 16.55 C
3458 25-07-2019 00:05:00 24 C 61 % 16.02 C
3459 25-07-2019 00:10:00 23.9 C 63 % 16.43 C
3460 25-07-2019 00:15:00 23.9 C 63 % 16.43 C
3461 25-07-2019 00:20:00 23.8 C 63 % 16.33 C
3462 25-07-2019 00:25:00 23.7 C 62 % 15.99 C
3463 25-07-2019 00:30:00 23.6 C 62 % 15.89 C
3464 25-07-2019 00:35:00 23.6 C 64 % 16.39 C
3465 25-07-2019 00:40:00 23.4 C 64 % 16.2 C
3466 25-07-2019 00:45:00 23.3 C 63 % 15.86 C
3467 25-07-2019 00:50:00 23.4 C 64 % 16.2 C
3468 25-07-2019 00:55:00 23.3 C 66 % 16.59 C
3469 25-07-2019 01:00:00 23.2 C 65 % 16.26 C
3470 25-07-2019 01:05:00 23.1 C 65 % 16.16 C
3471 25-07-2019 01:10:00 22.9 C 66 % 16.21 C
3472 25-07-2019 01:15:00 22.7 C 66 % 16.02 C
3473 25-07-2019 01:20:00 22.6 C 67 % 16.16 C
3474 25-07-2019 01:25:00 22.4 C 66 % 15.74 C
3475 25-07-2019 01:30:00 22.3 C 67 % 15.88 C
Sensor: Nr:Datum:Temp:Feuchte:Taupunkt:
Aussen-T/F 3476 25-07-2019 01:35:00 22.3 C 65 % 15.4 C
3477 25-07-2019 01:40:00 22.3 C 68 % 16.11 C
3478 25-07-2019 01:45:00 22.3 C 68 % 16.11 C
3479 25-07-2019 01:50:00 22.2 C 68 % 16.01 C
3480 25-07-2019 01:55:00 22.1 C 68 % 15.92 C
3481 25-07-2019 02:00:00 22 C 69 % 16.05 C
3482 25-07-2019 02:05:00 21.9 C 70 % 16.18 C
3483 25-07-2019 02:10:00 21.8 C 70 % 16.09 C
3484 25-07-2019 02:15:00 21.7 C 70 % 15.99 C
3485 25-07-2019 02:20:00 21.7 C 70 % 15.99 C
3486 25-07-2019 02:25:00 21.7 C 71 % 16.21 C
3487 25-07-2019 02:30:00 21.6 C 70 % 15.89 C
3488 25-07-2019 02:35:00 21.5 C 70 % 15.8 C
3489 25-07-2019 02:40:00 21.4 C 71 % 15.93 C
3490 25-07-2019 02:45:00 21.4 C 71 % 15.93 C
3491 25-07-2019 02:50:00 21.3 C 72 % 16.05 C
3492 25-07-2019 02:55:00 21.2 C 72 % 15.95 C
3493 25-07-2019 03:00:00 21.2 C 72 % 15.95 C
3494 25-07-2019 03:05:00 21.2 C 73 % 16.17 C
3495 25-07-2019 03:10:00 21.2 C 73 % 16.17 C
3496 25-07-2019 03:15:00 21.1 C 73 % 16.07 C
3497 25-07-2019 03:20:00 20.9 C 74 % 16.09 C
3498 25-07-2019 03:25:00 20.8 C 74 % 16 C
3499 25-07-2019 03:30:00 20.8 C 74 % 16 C
3500 25-07-2019 03:35:00 20.8 C 74 % 16 C
Sensor: Nr:Datum:Temp:Feuchte:Taupunkt:
Aussen-T/F 3501 25-07-2019 03:40:00 20.8 C 74 % 16 C
3502 25-07-2019 03:45:00 20.7 C 75 % 16.11 C
3503 25-07-2019 03:50:00 20.6 C 75 % 16.01 C
3504 25-07-2019 03:55:00 20.6 C 76 % 16.22 C
3505 25-07-2019 04:00:00 20.4 C 76 % 16.03 C
3506 25-07-2019 04:05:00 20.3 C 76 % 15.93 C
3507 25-07-2019 04:10:00 20.2 C 77 % 16.04 C
3508 25-07-2019 04:15:00 20.1 C 77 % 15.94 C
3509 25-07-2019 04:20:00 19.9 C 78 % 15.95 C
3510 25-07-2019 04:25:00 20.1 C 78 % 16.14 C
3511 25-07-2019 04:30:00 20.1 C 78 % 16.14 C
3512 25-07-2019 04:35:00 20.1 C 78 % 16.14 C
3513 25-07-2019 04:40:00 20.1 C 78 % 16.14 C
3514 25-07-2019 04:45:00 19.9 C 79 % 16.15 C
3515 25-07-2019 04:50:00 19.9 C 79 % 16.15 C
3516 25-07-2019 04:55:00 19.8 C 79 % 16.05 C
3517 25-07-2019 05:00:00 19.7 C 79 % 15.96 C
3518 25-07-2019 05:05:00 19.6 C 79 % 15.86 C
3519 25-07-2019 05:10:00 19.6 C 80 % 16.06 C
3520 25-07-2019 05:15:00 19.4 C 80 % 15.86 C
3521 25-07-2019 05:20:00 19.4 C 80 % 15.86 C
3522 25-07-2019 05:25:00 19.3 C 80 % 15.76 C
3523 25-07-2019 05:30:00 19.3 C 80 % 15.76 C
3524 25-07-2019 05:35:00 19.3 C 80 % 15.76 C
3525 25-07-2019 05:40:00 19.2 C 80 % 15.67 C
Sensor: Nr:Datum:Temp:Feuchte:Taupunkt:
Aussen-T/F 3526 25-07-2019 05:45:00 19.2 C 80 % 15.67 C
3527 25-07-2019 05:50:00 19.2 C 81 % 15.86 C
3528 25-07-2019 05:55:00 19.1 C 81 % 15.76 C
3529 25-07-2019 06:00:00 19.1 C 82 % 15.96 C
3530 25-07-2019 06:05:00 19.1 C 82 % 15.96 C
3531 25-07-2019 06:10:00 19.1 C 82 % 15.96 C
3532 25-07-2019 06:15:00 19.2 C 82 % 16.05 C
3533 25-07-2019 06:20:00 19.2 C 82 % 16.05 C
3534 25-07-2019 06:25:00 19.1 C 82 % 15.96 C
3535 25-07-2019 06:30:00 19.2 C 82 % 16.05 C
3536 25-07-2019 06:35:00 19.2 C 82 % 16.05 C
3537 25-07-2019 06:40:00 19.2 C 82 % 16.05 C
3538 25-07-2019 06:45:00 19.3 C 83 % 16.34 C
3539 25-07-2019 06:50:00 19.3 C 83 % 16.34 C
3540 25-07-2019 06:55:00 19.3 C 83 % 16.34 C
3541 25-07-2019 07:00:00 19.3 C 83 % 16.34 C
3542 25-07-2019 07:05:00 19.3 C 83 % 16.34 C
3543 25-07-2019 07:10:00 19.4 C 84 % 16.63 C
3544 25-07-2019 07:15:00 19.4 C 84 % 16.63 C
3545 25-07-2019 07:20:00 19.4 C 84 % 16.63 C
3546 25-07-2019 07:25:00 19.5 C 84 % 16.72 C
3547 25-07-2019 07:30:00 19.6 C 84 % 16.82 C
3548 25-07-2019 07:35:00 19.6 C 84 % 16.82 C
3549 25-07-2019 07:40:00 19.7 C 84 % 16.92 C
3550 25-07-2019 07:45:00 19.8 C 84 % 17.02 C
Sensor: Nr:Datum:Temp:Feuchte:Taupunkt:
Aussen-T/F 3551 25-07-2019 07:50:00 19.8 C 84 % 17.02 C
3552 25-07-2019 07:55:00 19.9 C 84 % 17.12 C
3553 25-07-2019 08:00:00 20 C 83 % 17.02 C
3554 25-07-2019 08:05:00 20.1 C 84 % 17.31 C
3555 25-07-2019 08:10:00 20.2 C 83 % 17.22 C
3556 25-07-2019 08:15:00 20.3 C 82 % 17.13 C
3557 25-07-2019 08:20:00 20.5 C 83 % 17.51 C
3558 25-07-2019 08:25:00 20.7 C 83 % 17.71 C
3559 25-07-2019 08:30:00 20.8 C 83 % 17.81 C
3560 25-07-2019 08:35:00 20.9 C 82 % 17.71 C
3561 25-07-2019 08:40:00 21.1 C 83 % 18.1 C
3562 25-07-2019 08:45:00 21.2 C 83 % 18.2 C
3563 25-07-2019 08:50:00 21.4 C 82 % 18.2 C
3564 25-07-2019 08:55:00 21.6 C 82 % 18.39 C
3565 25-07-2019 09:00:00 21.7 C 81 % 18.3 C
3566 25-07-2019 09:05:00 21.8 C 79 % 18 C
3567 25-07-2019 09:10:00 22.1 C 81 % 18.69 C
3568 25-07-2019 09:15:00 22.2 C 81 % 18.78 C
3569 25-07-2019 09:20:00 22.3 C 78 % 18.28 C
3570 25-07-2019 09:25:00 22.6 C 78 % 18.57 C
3571 25-07-2019 09:30:00 22.8 C 77 % 18.56 C
3572 25-07-2019 09:35:00 23.1 C 77 % 18.85 C
3573 25-07-2019 09:40:00 23.3 C 75 % 18.62 C
3574 25-07-2019 09:45:00 23.5 C 74 % 18.6 C
3575 25-07-2019 09:50:00 23.7 C 72 % 18.35 C
Sensor: Nr:Datum:Temp:Feuchte:Taupunkt:
Aussen-T/F 3576 25-07-2019 09:55:00 24 C 70 % 18.19 C
3577 25-07-2019 10:00:00 24.3 C 70 % 18.48 C
3578 25-07-2019 10:05:00 24.6 C 71 % 18.99 C
3579 25-07-2019 10:10:00 24.9 C 70 % 19.05 C
3580 25-07-2019 10:15:00 25.1 C 69 % 19.01 C
3581 25-07-2019 10:20:00 25.3 C 68 % 18.97 C
3582 25-07-2019 10:25:00 25.6 C 69 % 19.49 C
3583 25-07-2019 10:30:00 25.9 C 67 % 19.3 C
3584 25-07-2019 10:35:00 26.2 C 65 % 19.1 C
3585 25-07-2019 10:40:00 26.6 C 63 % 18.97 C
3586 25-07-2019 10:45:00 26.9 C 62 % 19 C
3587 25-07-2019 10:50:00 27.2 C 63 % 19.54 C
3588 25-07-2019 10:55:00 27.5 C 63 % 19.82 C
3589 25-07-2019 11:00:00 27.8 C 61 % 19.59 C
3590 25-07-2019 11:05:00 28.2 C 60 % 19.69 C
3591 25-07-2019 11:10:00 28.6 C 56 % 18.96 C
3592 25-07-2019 11:15:00 29.1 C 58 % 19.99 C
3593 25-07-2019 11:20:00 29.4 C 54 % 19.12 C
3594 25-07-2019 11:25:00 29.8 C 55 % 19.78 C
3595 25-07-2019 11:30:00 30.1 C 54 % 19.76 C
3596 25-07-2019 11:35:00 30.5 C 53 % 19.83 C
3597 25-07-2019 11:40:00 30.8 C 50 % 19.17 C
3598 25-07-2019 11:45:00 31.2 C 48 % 18.88 C
3599 25-07-2019 11:50:00 31.6 C 47 % 18.91 C
3600 25-07-2019 11:55:00 32.1 C 44 % 18.3 C
Sensor: Nr:Datum:Temp:Feuchte:Taupunkt:
Aussen-T/F 3601 25-07-2019 12:00:00 32.6 C 41 % 17.63 C
3602 25-07-2019 12:05:00 33 C 40 % 17.59 C
3603 25-07-2019 12:10:00 33.4 C 38 % 17.14 C
3604 25-07-2019 12:15:00 33.8 C 38 % 17.49 C
3605 25-07-2019 12:20:00 34.3 C 35 % 16.63 C
3606 25-07-2019 12:25:00 34.7 C 35 % 16.98 C
3607 25-07-2019 12:30:00 34.9 C 35 % 17.16 C
3608 25-07-2019 12:35:00 35.2 C 33 % 16.49 C
3609 25-07-2019 12:40:00 35.3 C 33 % 16.58 C
3610 25-07-2019 12:45:00 35.5 C 33 % 16.75 C
3611 25-07-2019 12:50:00 35.7 C 33 % 16.92 C
3612 25-07-2019 12:55:00 35.9 C 31 % 16.11 C
3613 25-07-2019 13:00:00 36 C 32 % 16.7 C
3614 25-07-2019 13:05:00 36.1 C 32 % 16.79 C
3615 25-07-2019 13:10:00 36.2 C 32 % 16.87 C
3616 25-07-2019 13:15:00 36.3 C 32 % 16.96 C
3617 25-07-2019 13:20:00 36.3 C 30 % 15.94 C
3618 25-07-2019 13:25:00 36.4 C 31 % 16.54 C
3619 25-07-2019 13:30:00 36.4 C 31 % 16.54 C
3620 25-07-2019 13:35:00 36.6 C 31 % 16.72 C
3621 25-07-2019 13:40:00 36.7 C 31 % 16.8 C
3622 25-07-2019 13:45:00 36.8 C 30 % 16.37 C
3623 25-07-2019 13:50:00 36.9 C 31 % 16.97 C
3624 25-07-2019 13:55:00 36.9 C 29 % 15.93 C
3625 25-07-2019 14:00:00 36.9 C 30 % 16.46 C
Sensor: Nr:Datum:Temp:Feuchte:Taupunkt:
Aussen-T/F 3626 25-07-2019 14:05:00 37.1 C 30 % 16.63 C
3627 25-07-2019 14:10:00 37.2 C 29 % 16.18 C
3628 25-07-2019 14:15:00 37.3 C 30 % 16.8 C
3629 25-07-2019 14:20:00 37.4 C 29 % 16.35 C
3630 25-07-2019 14:25:00 37.4 C 27 % 15.24 C
3631 25-07-2019 14:30:00 37.4 C 30 % 16.89 C
3632 25-07-2019 14:35:00 37.6 C 28 % 15.97 C
3633 25-07-2019 14:40:00 37.6 C 29 % 16.52 C
3634 25-07-2019 14:45:00 37.7 C 27 % 15.49 C
3635 25-07-2019 14:50:00 37.7 C 29 % 16.61 C
3636 25-07-2019 14:55:00 37.8 C 28 % 16.14 C
3637 25-07-2019 15:00:00 37.9 C 28 % 16.23 C
3638 25-07-2019 15:05:00 38.2 C 28 % 16.48 C
3639 25-07-2019 15:10:00 38.3 C 28 % 16.57 C
3640 25-07-2019 15:15:00 38.5 C 27 % 16.16 C
3641 25-07-2019 15:20:00 38.7 C 26 % 15.74 C
3642 25-07-2019 15:25:00 38.8 C 26 % 15.83 C
3643 25-07-2019 15:30:00 38.9 C 26 % 15.91 C
3644 25-07-2019 15:35:00 38.7 C 26 % 15.74 C
3645 25-07-2019 15:40:00 38.8 C 26 % 15.83 C
3646 25-07-2019 15:45:00 39.2 C 25 % 15.55 C
3647 25-07-2019 15:50:00 39.6 C 26 % 16.5 C
3648 25-07-2019 15:55:00 39.9 C 24 % 15.5 C
3649 25-07-2019 16:00:00 40.1 C 23 % 15 C
3650 25-07-2019 16:05:00 40.2 C 24 % 15.75 C
Sensor: Nr:Datum:Temp:Feuchte:Taupunkt:
Aussen-T/F 3651 25-07-2019 16:10:00 40.2 C 25 % 16.39 C
3652 25-07-2019 16:15:00 40.3 C 23 % 15.17 C
3653 25-07-2019 16:20:00 40.4 C 24 % 15.91 C
3654 25-07-2019 16:25:00 40.4 C 25 % 16.55 C
3655 25-07-2019 16:30:00 40.4 C 23 % 15.25 C
3656 25-07-2019 16:35:00 40.3 C 23 % 15.17 C
3657 25-07-2019 16:40:00 40 C 23 % 14.92 C
3658 25-07-2019 16:45:00 39.9 C 23 % 14.83 C
3659 25-07-2019 16:50:00 39.9 C 25 % 16.13 C
3660 25-07-2019 16:55:00 39.7 C 23 % 14.67 C
3661 25-07-2019 17:00:00 39.8 C 24 % 15.41 C
3662 25-07-2019 17:05:00 39.9 C 24 % 15.5 C
3663 25-07-2019 17:10:00 40.3 C 23 % 15.17 C
3664 25-07-2019 17:15:00 40.3 C 22 % 14.48 C
3665 25-07-2019 17:20:00 40.1 C 22 % 14.31 C
3666 25-07-2019 17:25:00 39.9 C 22 % 14.15 C
3667 25-07-2019 17:30:00 39.6 C 22 % 13.9 C
3668 25-07-2019 17:35:00 39.5 C 22 % 13.82 C
3669 25-07-2019 17:40:00 39.5 C 22 % 13.82 C
3670 25-07-2019 17:45:00 39.5 C 22 % 13.82 C
3671 25-07-2019 17:50:00 39.6 C 23 % 14.59 C
3672 25-07-2019 17:55:00 39.7 C 23 % 14.67 C
3673 25-07-2019 18:00:00 39.6 C 23 % 14.59 C
3674 25-07-2019 18:05:00 39.4 C 23 % 14.42 C
3675 25-07-2019 18:10:00 39.4 C 22 % 13.74 C
Sensor: Nr:Datum:Temp:Feuchte:Taupunkt:
Aussen-T/F 3676 25-07-2019 18:15:00 39.4 C 23 % 14.42 C
3677 25-07-2019 18:20:00 39.3 C 22 % 13.65 C
3678 25-07-2019 18:25:00 39.3 C 23 % 14.34 C
3679 25-07-2019 18:30:00 39.2 C 23 % 14.26 C
3680 25-07-2019 18:35:00 39.1 C 23 % 14.17 C
3681 25-07-2019 18:40:00 38.8 C 23 % 13.92 C
3682 25-07-2019 18:45:00 38.6 C 24 % 14.42 C
3683 25-07-2019 18:50:00 38.6 C 24 % 14.42 C
3684 25-07-2019 18:55:00 38.4 C 29 % 17.2 C
3685 25-07-2019 19:00:00 38.3 C 25 % 14.8 C
3686 25-07-2019 19:05:00 38.2 C 31 % 18.09 C
3687 25-07-2019 19:10:00 38 C 28 % 16.31 C
3688 25-07-2019 19:15:00 37.8 C 33 % 18.74 C
3689 25-07-2019 19:20:00 37.4 C 32 % 17.91 C
3690 25-07-2019 19:25:00 37 C 33 % 18.05 C
3691 25-07-2019 19:30:00 36.6 C 33 % 17.7 C
3692 25-07-2019 19:35:00 36.2 C 35 % 18.29 C
3693 25-07-2019 19:40:00 35.7 C 36 % 18.3 C
3694 25-07-2019 19:45:00 35.3 C 39 % 19.23 C
3695 25-07-2019 19:50:00 34.9 C 38 % 18.46 C
3696 25-07-2019 19:55:00 34.6 C 38 % 18.2 C
3697 25-07-2019 20:00:00 34.3 C 41 % 19.15 C
3698 25-07-2019 20:05:00 33.9 C 41 % 18.79 C
3699 25-07-2019 20:10:00 33.7 C 40 % 18.22 C
3700 25-07-2019 20:15:00 33.4 C 40 % 17.95 C
Sensor: Nr:Datum:Temp:Feuchte:Taupunkt:
Aussen-T/F 3701 25-07-2019 20:20:00 33.2 C 42 % 18.55 C
3702 25-07-2019 20:25:00 32.9 C 41 % 17.9 C
3703 25-07-2019 20:30:00 32.7 C 42 % 18.1 C
3704 25-07-2019 20:35:00 32.4 C 42 % 17.83 C
3705 25-07-2019 20:40:00 32.2 C 43 % 18.03 C
3706 25-07-2019 20:45:00 31.9 C 43 % 17.76 C
3707 25-07-2019 20:50:00 31.7 C 44 % 17.94 C
3708 25-07-2019 20:55:00 31.5 C 43 % 17.4 C
3709 25-07-2019 21:00:00 31.3 C 44 % 17.58 C
3710 25-07-2019 21:05:00 31.1 C 44 % 17.4 C
3711 25-07-2019 21:10:00 30.9 C 45 % 17.58 C
3712 25-07-2019 21:15:00 30.7 C 44 % 17.04 C
3713 25-07-2019 21:20:00 30.5 C 44 % 16.86 C
3714 25-07-2019 21:25:00 30.3 C 45 % 17.04 C
3715 25-07-2019 21:30:00 30.2 C 45 % 16.95 C
3716 25-07-2019 21:35:00 30.1 C 45 % 16.86 C
3717 25-07-2019 21:40:00 29.9 C 45 % 16.68 C
3718 25-07-2019 21:45:00 29.8 C 45 % 16.59 C
3719 25-07-2019 21:50:00 29.7 C 45 % 16.5 C
3720 25-07-2019 21:55:00 29.6 C 45 % 16.41 C
3721 25-07-2019 22:00:00 29.4 C 45 % 16.23 C
3722 25-07-2019 22:05:00 29.3 C 46 % 16.48 C
3723 25-07-2019 22:10:00 29.2 C 46 % 16.39 C
3724 25-07-2019 22:15:00 29.1 C 47 % 16.64 C
3725 25-07-2019 22:20:00 28.9 C 46 % 16.12 C
Sensor: Nr:Datum:Temp:Feuchte:Taupunkt:
Aussen-T/F 3726 25-07-2019 22:25:00 28.8 C 48 % 16.69 C
3727 25-07-2019 22:30:00 28.7 C 48 % 16.6 C
3728 25-07-2019 22:35:00 28.5 C 48 % 16.42 C
3729 25-07-2019 22:40:00 28.4 C 48 % 16.33 C
3730 25-07-2019 22:45:00 28.3 C 48 % 16.24 C
3731 25-07-2019 22:50:00 28.3 C 49 % 16.56 C
3732 25-07-2019 22:55:00 28.2 C 48 % 16.15 C
3733 25-07-2019 23:00:00 28.1 C 49 % 16.38 C
3734 25-07-2019 23:05:00 28 C 48 % 15.97 C
3735 25-07-2019 23:10:00 27.9 C 49 % 16.2 C
3736 25-07-2019 23:15:00 27.8 C 48 % 15.78 C
3737 25-07-2019 23:20:00 27.8 C 49 % 16.11 C
3738 25-07-2019 23:25:00 27.7 C 50 % 16.33 C
3739 25-07-2019 23:30:00 27.6 C 49 % 15.92 C
3740 25-07-2019 23:35:00 27.4 C 50 % 16.06 C
3741 25-07-2019 23:40:00 27.3 C 50 % 15.97 C
3742 25-07-2019 23:45:00 27.2 C 50 % 15.87 C
3743 25-07-2019 23:50:00 27.1 C 51 % 16.09 C
3744 25-07-2019 23:55:00 26.9 C 53 % 16.51 C
3745 26-07-2019 00:00:00 26.8 C 53 % 16.42 C
3746 26-07-2019 00:05:00 26.7 C 53 % 16.33 C
3747 26-07-2019 00:10:00 26.5 C 52 % 15.84 C
3748 26-07-2019 00:15:00 26.4 C 53 % 16.05 C
3749 26-07-2019 00:20:00 26.3 C 53 % 15.96 C
3750 26-07-2019 00:25:00 26.2 C 54 % 16.16 C
Sensor: Nr:Datum:Temp:Feuchte:Taupunkt:
Aussen-T/F 3751 26-07-2019 00:30:00 26.1 C 54 % 16.07 C
3752 26-07-2019 00:35:00 26 C 53 % 15.68 C
3753 26-07-2019 00:40:00 25.9 C 54 % 15.88 C
3754 26-07-2019 00:45:00 25.9 C 54 % 15.88 C
3755 26-07-2019 00:50:00 25.8 C 54 % 15.79 C
3756 26-07-2019 00:55:00 25.7 C 54 % 15.7 C
3757 26-07-2019 01:00:00 25.6 C 54 % 15.6 C
3758 26-07-2019 01:05:00 25.5 C 55 % 15.8 C
3759 26-07-2019 01:10:00 25.4 C 54 % 15.42 C
3760 26-07-2019 01:15:00 25.3 C 56 % 15.89 C
3761 26-07-2019 01:20:00 25.2 C 56 % 15.8 C
3762 26-07-2019 01:25:00 25.2 C 57 % 16.08 C
3763 26-07-2019 01:30:00 25.1 C 56 % 15.71 C
3764 26-07-2019 01:35:00 24.9 C 58 % 16.07 C
3765 26-07-2019 01:40:00 24.8 C 59 % 16.24 C
3766 26-07-2019 01:45:00 24.6 C 60 % 16.32 C
3767 26-07-2019 01:50:00 24.3 C 60 % 16.04 C
3768 26-07-2019 01:55:00 24.1 C 60 % 15.85 C
3769 26-07-2019 02:00:00 23.8 C 62 % 16.08 C
3770 26-07-2019 02:05:00 23.6 C 64 % 16.39 C
3771 26-07-2019 02:10:00 23.3 C 65 % 16.35 C
3772 26-07-2019 02:15:00 23 C 66 % 16.31 C
3773 26-07-2019 02:20:00 22.8 C 67 % 16.35 C
3774 26-07-2019 02:25:00 22.6 C 68 % 16.39 C
3775 26-07-2019 02:30:00 22.3 C 69 % 16.34 C
Sensor: Nr:Datum:Temp:Feuchte:Taupunkt:
Aussen-T/F 3776 26-07-2019 02:35:00 22.2 C 69 % 16.24 C
3777 26-07-2019 02:40:00 21.9 C 69 % 15.96 C
3778 26-07-2019 02:45:00 21.7 C 68 % 15.54 C
3779 26-07-2019 02:50:00 21.6 C 69 % 15.67 C
3780 26-07-2019 02:55:00 21.4 C 68 % 15.25 C
3781 26-07-2019 03:00:00 21.3 C 70 % 15.61 C
3782 26-07-2019 03:05:00 21.2 C 71 % 15.73 C
3783 26-07-2019 03:10:00 21.2 C 71 % 15.73 C
3784 26-07-2019 03:15:00 21.1 C 70 % 15.42 C
3785 26-07-2019 03:20:00 21.1 C 71 % 15.64 C
3786 26-07-2019 03:25:00 21 C 71 % 15.54 C
3787 26-07-2019 03:30:00 21 C 72 % 15.76 C
3788 26-07-2019 03:35:00 20.9 C 72 % 15.66 C
3789 26-07-2019 03:40:00 20.8 C 72 % 15.57 C
3790 26-07-2019 03:45:00 20.8 C 72 % 15.57 C
3791 26-07-2019 03:50:00 20.8 C 74 % 16 C
3792 26-07-2019 03:55:00 20.7 C 74 % 15.9 C
3793 26-07-2019 04:00:00 20.7 C 74 % 15.9 C
3794 26-07-2019 04:05:00 20.6 C 75 % 16.01 C
3795 26-07-2019 04:10:00 20.4 C 75 % 15.82 C
3796 26-07-2019 04:15:00 20.3 C 75 % 15.72 C
3797 26-07-2019 04:20:00 20.3 C 76 % 15.93 C
3798 26-07-2019 04:25:00 20.2 C 77 % 16.04 C
3799 26-07-2019 04:30:00 20.1 C 77 % 15.94 C
3800 26-07-2019 04:35:00 19.9 C 77 % 15.75 C
Sensor: Nr:Datum:Temp:Feuchte:Taupunkt:
Aussen-T/F 3801 26-07-2019 04:40:00 19.9 C 78 % 15.95 C
3802 26-07-2019 04:45:00 19.8 C 78 % 15.85 C
3803 26-07-2019 04:50:00 19.7 C 78 % 15.76 C
3804 26-07-2019 04:55:00 19.6 C 79 % 15.86 C
3805 26-07-2019 05:00:00 19.6 C 79 % 15.86 C
3806 26-07-2019 05:05:00 19.5 C 78 % 15.56 C
3807 26-07-2019 05:10:00 19.4 C 78 % 15.47 C
3808 26-07-2019 05:15:00 19.3 C 78 % 15.37 C
3809 26-07-2019 05:20:00 19.3 C 79 % 15.57 C
3810 26-07-2019 05:25:00 19.3 C 78 % 15.37 C
3811 26-07-2019 05:30:00 19.3 C 80 % 15.76 C
3812 26-07-2019 05:35:00 19.3 C 80 % 15.76 C
3813 26-07-2019 05:40:00 19.2 C 80 % 15.67 C
3814 26-07-2019 05:45:00 19.2 C 80 % 15.67 C
3815 26-07-2019 05:50:00 19.1 C 79 % 15.37 C
3816 26-07-2019 05:55:00 19 C 79 % 15.28 C
3817 26-07-2019 06:00:00 18.9 C 80 % 15.38 C
3818 26-07-2019 06:05:00 19 C 79 % 15.28 C
3819 26-07-2019 06:10:00 19 C 79 % 15.28 C
3820 26-07-2019 06:15:00 18.9 C 80 % 15.38 C
3821 26-07-2019 06:20:00 18.9 C 80 % 15.38 C
3822 26-07-2019 06:25:00 18.9 C 80 % 15.38 C
3823 26-07-2019 06:30:00 18.9 C 80 % 15.38 C
3824 26-07-2019 06:35:00 18.9 C 81 % 15.57 C
3825 26-07-2019 06:40:00 18.9 C 81 % 15.57 C
Sensor: Nr:Datum:Temp:Feuchte:Taupunkt:
Aussen-T/F 3826 26-07-2019 06:45:00 19 C 81 % 15.67 C
3827 26-07-2019 06:50:00 19.1 C 81 % 15.76 C
3828 26-07-2019 06:55:00 19.1 C 82 % 15.96 C
3829 26-07-2019 07:00:00 19.2 C 83 % 16.24 C
3830 26-07-2019 07:05:00 19.3 C 83 % 16.34 C
3831 26-07-2019 07:10:00 19.3 C 83 % 16.34 C
3832 26-07-2019 07:15:00 19.4 C 83 % 16.44 C
3833 26-07-2019 07:20:00 19.4 C 82 % 16.25 C
3834 26-07-2019 07:25:00 19.5 C 83 % 16.54 C
3835 26-07-2019 07:30:00 19.6 C 83 % 16.63 C
3836 26-07-2019 07:35:00 19.7 C 83 % 16.73 C
3837 26-07-2019 07:40:00 19.8 C 83 % 16.83 C
3838 26-07-2019 07:45:00 19.9 C 82 % 16.74 C
3839 26-07-2019 07:50:00 20.1 C 81 % 16.74 C
3840 26-07-2019 07:55:00 20.2 C 81 % 16.84 C
3841 26-07-2019 08:00:00 20.4 C 81 % 17.03 C
3842 26-07-2019 08:05:00 20.5 C 82 % 17.32 C
3843 26-07-2019 08:10:00 20.6 C 81 % 17.22 C
3844 26-07-2019 08:15:00 20.7 C 82 % 17.52 C
3845 26-07-2019 08:20:00 20.8 C 81 % 17.42 C
3846 26-07-2019 08:25:00 20.9 C 80 % 17.32 C
3847 26-07-2019 08:30:00 21.1 C 79 % 17.32 C
3848 26-07-2019 08:35:00 21.3 C 79 % 17.51 C
3849 26-07-2019 08:40:00 21.5 C 78 % 17.5 C
3850 26-07-2019 08:45:00 21.7 C 79 % 17.9 C
Sensor: Nr:Datum:Temp:Feuchte:Taupunkt:
Aussen-T/F 3851 26-07-2019 08:50:00 21.9 C 80 % 18.29 C
3852 26-07-2019 08:55:00 21.9 C 78 % 17.89 C
3853 26-07-2019 09:00:00 22.1 C 76 % 17.67 C
3854 26-07-2019 09:05:00 22.3 C 76 % 17.86 C
3855 26-07-2019 09:10:00 22.4 C 74 % 17.54 C
3856 26-07-2019 09:15:00 22.7 C 73 % 17.61 C
3857 26-07-2019 09:20:00 22.9 C 74 % 18.02 C
3858 26-07-2019 09:25:00 23.1 C 70 % 17.33 C
3859 26-07-2019 09:30:00 23.4 C 70 % 17.62 C
3860 26-07-2019 09:35:00 23.7 C 67 % 17.21 C
3861 26-07-2019 09:40:00 24.2 C 67 % 17.68 C
3862 26-07-2019 09:45:00 24.6 C 66 % 17.83 C
3863 26-07-2019 09:50:00 25 C 58 % 16.16 C
3864 26-07-2019 09:55:00 25.7 C 60 % 17.35 C
3865 26-07-2019 10:00:00 25.9 C 60 % 17.54 C
3866 26-07-2019 10:05:00 26.3 C 58 % 17.38 C
3867 26-07-2019 10:10:00 26.4 C 57 % 17.19 C
3868 26-07-2019 10:15:00 26.8 C 55 % 17 C
3869 26-07-2019 10:20:00 27.2 C 54 % 17.08